<?xml version="1.0" encoding="UTF-8" standalone="no" ?>
<gpx xmlns="http://www.topografix.com/GPX/1/1" xmlns:xsi="http://www.w3.org/2001/XMLSchema-instance" xsi:schemaLocation="http://www.topografix.com/GPX/1/1 http://www.topografix.com/GPX/1/1/gpx.xsd" version="1.1" creator="VisuGPX - https://www.visugpx.com">
  <metadata>
    <name>2021-05-16 10:07:49</name>
    <desc><![CDATA[Palama, Ouides, Etoile, Grand Sanguin, Jacquot, Mauvelle, Montade.

<p>Heure de départ: 10:07 16 mai 2021<br/>Heure d'arrivée: 12:27 16 mai 2021<br/>Distance: 32,1 km (02:19)<br/>Temps déplacement: 02:04<br/>Vitesse moyenne: 13,83 km/h<br/>Vitesse moyenne mouv.: 15,46 km/h<br/>Vitesse Max.: 34,8 km/h<br/>Altitude minimale: 139 m<br/>Altitude maximale: 537 m<br/>Vitesse de montée: 730,5 m/h<br/>Vitesse de descente: 874,7 m/h<br/>Gain d'altitude: 768 m<br/>Perte d'altitude: 768 m<br/>Temps de montée: 01:03<br/>Temps de descente: 00:52<br/></p><hr align="center" width="480" style="height: 2px; width: 517px"/>]]></desc>
  </metadata>
  <wpt lat="43.35169" lon="5.44457">
    <ele>139.02</ele>
    <name><![CDATA[0000153]]></name>
    <type><![CDATA[Point de départ]]></type>
  </wpt>
  <wpt lat="43.35156" lon="5.44436">
    <ele>142.48</ele>
    <name><![CDATA[0000154]]></name>
    <desc><![CDATA[<p><br /><h3>Nom: Segment: 1</h3><br />Heure de départ: 10:07 16 mai 2021<br/>Heure d'arrivée: 12:27 16 mai 2021<br/>Distance: 32,1km (02:19)<br/>Temps déplacement: 02:04<br/>Vitesse moyenne: 13,83 km/h<br/>Vitesse moyenne mouv.: 15,46 km/h<br/>Vitesse Max.: 34,8 km/h<br/>Altitude minimale: 139 m<br/>Altitude maximale: 537 m<br/>Vitesse de montée: 730,5 m/h<br/>Vitesse de descente: 874,7 m/h<br/>Gain d'altitude: 768 m<br/>Perte d'altitude: 768 m<br/>Temps de montée: 01:03<br/>Temps de descente: 00:52<br/></p>]]></desc>
    <type><![CDATA[Point d'arrivée]]></type>
  </wpt>
  <trk>
    <name><![CDATA[2021-05-16 10:07:49]]></name>
    <desc><![CDATA[<p>Heure de départ: 10:07 16 mai 2021<br/>Heure d'arrivée: 12:27 16 mai 2021<br/>Distance: 32,1 km (02:19)<br/>Temps déplacement: 02:04<br/>Vitesse moyenne: 13,83 km/h<br/>Vitesse moyenne mouv.: 15,46 km/h<br/>Vitesse Max.: 34,8 km/h<br/>Altitude minimale: 139 m<br/>Altitude maximale: 537 m<br/>Vitesse de montée: 730,5 m/h<br/>Vitesse de descente: 874,7 m/h<br/>Gain d'altitude: 768 m<br/>Perte d'altitude: 768 m<br/>Temps de montée: 01:03<br/>Temps de descente: 00:52<br/></p><hr align="center" width="480" style="height: 2px; width: 517px"/>]]></desc>
    <trkseg>
      <trkpt lat="43.35169" lon="5.44457">
        <ele>139.1</ele>
        <time>2021-05-16T08:07:50.000Z</time>
      </trkpt>
      <trkpt lat="43.35187" lon="5.44448">
        <ele>139.43</ele>
        <time>2021-05-16T08:08:12.000Z</time>
      </trkpt>
      <trkpt lat="43.35205" lon="5.44434">
        <ele>139.75</ele>
        <time>2021-05-16T08:08:17.000Z</time>
      </trkpt>
      <trkpt lat="43.35225" lon="5.44432">
        <ele>141.11</ele>
        <time>2021-05-16T08:08:23.000Z</time>
      </trkpt>
      <trkpt lat="43.35234" lon="5.44454">
        <ele>142.23</ele>
        <time>2021-05-16T08:08:27.000Z</time>
      </trkpt>
      <trkpt lat="43.35235" lon="5.44478">
        <ele>142.81</ele>
        <time>2021-05-16T08:08:30.000Z</time>
      </trkpt>
      <trkpt lat="43.35243" lon="5.44506">
        <ele>143.75</ele>
        <time>2021-05-16T08:08:34.000Z</time>
      </trkpt>
      <trkpt lat="43.35245" lon="5.44534">
        <ele>144.66</ele>
        <time>2021-05-16T08:08:38.000Z</time>
      </trkpt>
      <trkpt lat="43.3525" lon="5.4456">
        <ele>145.43</ele>
        <time>2021-05-16T08:08:42.000Z</time>
      </trkpt>
      <trkpt lat="43.35253" lon="5.44588">
        <ele>146.51</ele>
        <time>2021-05-16T08:08:46.000Z</time>
      </trkpt>
      <trkpt lat="43.35264" lon="5.44614">
        <ele>147.17</ele>
        <time>2021-05-16T08:08:50.000Z</time>
      </trkpt>
      <trkpt lat="43.35273" lon="5.44637">
        <ele>147.98</ele>
        <time>2021-05-16T08:08:53.000Z</time>
      </trkpt>
      <trkpt lat="43.35286" lon="5.44663">
        <ele>148.79</ele>
        <time>2021-05-16T08:08:57.000Z</time>
      </trkpt>
      <trkpt lat="43.35295" lon="5.44689">
        <ele>149.61</ele>
        <time>2021-05-16T08:09:01.000Z</time>
      </trkpt>
      <trkpt lat="43.35305" lon="5.44716">
        <ele>150.19</ele>
        <time>2021-05-16T08:09:06.000Z</time>
      </trkpt>
      <trkpt lat="43.35315" lon="5.44744">
        <ele>150.81</ele>
        <time>2021-05-16T08:09:10.000Z</time>
      </trkpt>
      <trkpt lat="43.35324" lon="5.44771">
        <ele>151.4</ele>
        <time>2021-05-16T08:09:14.000Z</time>
      </trkpt>
      <trkpt lat="43.35332" lon="5.44799">
        <ele>151.97</ele>
        <time>2021-05-16T08:09:18.000Z</time>
      </trkpt>
      <trkpt lat="43.35341" lon="5.4483">
        <ele>151.48</ele>
        <time>2021-05-16T08:09:22.000Z</time>
      </trkpt>
      <trkpt lat="43.3535" lon="5.44856">
        <ele>150.51</ele>
        <time>2021-05-16T08:09:25.000Z</time>
      </trkpt>
      <trkpt lat="43.35362" lon="5.44877">
        <ele>149.4</ele>
        <time>2021-05-16T08:09:28.000Z</time>
      </trkpt>
      <trkpt lat="43.35375" lon="5.44901">
        <ele>148.43</ele>
        <time>2021-05-16T08:09:31.000Z</time>
      </trkpt>
      <trkpt lat="43.35383" lon="5.44923">
        <ele>148.61</ele>
        <time>2021-05-16T08:09:34.000Z</time>
      </trkpt>
      <trkpt lat="43.35394" lon="5.4495">
        <ele>150.74</ele>
        <time>2021-05-16T08:09:38.000Z</time>
      </trkpt>
      <trkpt lat="43.35408" lon="5.44972">
        <ele>152.13</ele>
        <time>2021-05-16T08:09:42.000Z</time>
      </trkpt>
      <trkpt lat="43.35426" lon="5.44992">
        <ele>153.2</ele>
        <time>2021-05-16T08:09:46.000Z</time>
      </trkpt>
      <trkpt lat="43.35441" lon="5.45008">
        <ele>153.74</ele>
        <time>2021-05-16T08:09:49.000Z</time>
      </trkpt>
      <trkpt lat="43.35459" lon="5.45028">
        <ele>154.57</ele>
        <time>2021-05-16T08:09:53.000Z</time>
      </trkpt>
      <trkpt lat="43.35473" lon="5.45046">
        <ele>155.16</ele>
        <time>2021-05-16T08:09:56.000Z</time>
      </trkpt>
      <trkpt lat="43.35487" lon="5.45063">
        <ele>155.61</ele>
        <time>2021-05-16T08:09:59.000Z</time>
      </trkpt>
      <trkpt lat="43.35502" lon="5.45078">
        <ele>156.08</ele>
        <time>2021-05-16T08:10:02.000Z</time>
      </trkpt>
      <trkpt lat="43.35519" lon="5.45099">
        <ele>156.64</ele>
        <time>2021-05-16T08:10:06.000Z</time>
      </trkpt>
      <trkpt lat="43.35534" lon="5.45118">
        <ele>157.03</ele>
        <time>2021-05-16T08:10:10.000Z</time>
      </trkpt>
      <trkpt lat="43.35551" lon="5.45137">
        <ele>157.26</ele>
        <time>2021-05-16T08:10:14.000Z</time>
      </trkpt>
      <trkpt lat="43.35568" lon="5.45155">
        <ele>157.7</ele>
        <time>2021-05-16T08:10:18.000Z</time>
      </trkpt>
      <trkpt lat="43.35582" lon="5.45138">
        <ele>158.16</ele>
        <time>2021-05-16T08:10:23.000Z</time>
      </trkpt>
      <trkpt lat="43.35589" lon="5.45112">
        <ele>159.01</ele>
        <time>2021-05-16T08:10:30.000Z</time>
      </trkpt>
      <trkpt lat="43.35595" lon="5.45088">
        <ele>159.63</ele>
        <time>2021-05-16T08:10:34.000Z</time>
      </trkpt>
      <trkpt lat="43.35613" lon="5.45078">
        <ele>160.41</ele>
        <time>2021-05-16T08:10:39.000Z</time>
      </trkpt>
      <trkpt lat="43.35635" lon="5.45089">
        <ele>161.37</ele>
        <time>2021-05-16T08:10:43.000Z</time>
      </trkpt>
      <trkpt lat="43.35652" lon="5.45098">
        <ele>161.93</ele>
        <time>2021-05-16T08:10:46.000Z</time>
      </trkpt>
      <trkpt lat="43.35676" lon="5.45105">
        <ele>162.56</ele>
        <time>2021-05-16T08:10:50.000Z</time>
      </trkpt>
      <trkpt lat="43.35695" lon="5.45105">
        <ele>163.51</ele>
        <time>2021-05-16T08:10:54.000Z</time>
      </trkpt>
      <trkpt lat="43.35701" lon="5.45079">
        <ele>164.54</ele>
        <time>2021-05-16T08:10:58.000Z</time>
      </trkpt>
      <trkpt lat="43.35705" lon="5.45055">
        <ele>165.18</ele>
        <time>2021-05-16T08:11:01.000Z</time>
      </trkpt>
      <trkpt lat="43.3571" lon="5.45031">
        <ele>165.38</ele>
        <time>2021-05-16T08:11:04.000Z</time>
      </trkpt>
      <trkpt lat="43.35716" lon="5.45">
        <ele>165.87</ele>
        <time>2021-05-16T08:11:08.000Z</time>
      </trkpt>
      <trkpt lat="43.35723" lon="5.44973">
        <ele>165.89</ele>
        <time>2021-05-16T08:11:12.000Z</time>
      </trkpt>
      <trkpt lat="43.35744" lon="5.4498">
        <ele>166.78</ele>
        <time>2021-05-16T08:11:17.000Z</time>
      </trkpt>
      <trkpt lat="43.35763" lon="5.44985">
        <ele>167.46</ele>
        <time>2021-05-16T08:11:20.000Z</time>
      </trkpt>
      <trkpt lat="43.3578" lon="5.44991">
        <ele>168.22</ele>
        <time>2021-05-16T08:11:23.000Z</time>
      </trkpt>
      <trkpt lat="43.35798" lon="5.44996">
        <ele>168.62</ele>
        <time>2021-05-16T08:11:26.000Z</time>
      </trkpt>
      <trkpt lat="43.35817" lon="5.45001">
        <ele>169.31</ele>
        <time>2021-05-16T08:11:29.000Z</time>
      </trkpt>
      <trkpt lat="43.35838" lon="5.45009">
        <ele>169.8</ele>
        <time>2021-05-16T08:11:33.000Z</time>
      </trkpt>
      <trkpt lat="43.35858" lon="5.45015">
        <ele>170.72</ele>
        <time>2021-05-16T08:11:37.000Z</time>
      </trkpt>
      <trkpt lat="43.35866" lon="5.44985">
        <ele>171.34</ele>
        <time>2021-05-16T08:11:42.000Z</time>
      </trkpt>
      <trkpt lat="43.35873" lon="5.44956">
        <ele>171.89</ele>
        <time>2021-05-16T08:11:46.000Z</time>
      </trkpt>
      <trkpt lat="43.35878" lon="5.44932">
        <ele>171.73</ele>
        <time>2021-05-16T08:11:49.000Z</time>
      </trkpt>
      <trkpt lat="43.35886" lon="5.44908">
        <ele>171.06</ele>
        <time>2021-05-16T08:11:52.000Z</time>
      </trkpt>
      <trkpt lat="43.35893" lon="5.44882">
        <ele>167.91</ele>
        <time>2021-05-16T08:11:56.000Z</time>
      </trkpt>
      <trkpt lat="43.35905" lon="5.44862">
        <ele>165.74</ele>
        <time>2021-05-16T08:12:02.000Z</time>
      </trkpt>
      <trkpt lat="43.35922" lon="5.44854">
        <ele>166.39</ele>
        <time>2021-05-16T08:12:07.000Z</time>
      </trkpt>
      <trkpt lat="43.35944" lon="5.44851">
        <ele>166.93</ele>
        <time>2021-05-16T08:12:13.000Z</time>
      </trkpt>
      <trkpt lat="43.35966" lon="5.44848">
        <ele>167.81</ele>
        <time>2021-05-16T08:12:17.000Z</time>
      </trkpt>
      <trkpt lat="43.35989" lon="5.44841">
        <ele>168.85</ele>
        <time>2021-05-16T08:12:21.000Z</time>
      </trkpt>
      <trkpt lat="43.36012" lon="5.4483">
        <ele>169.61</ele>
        <time>2021-05-16T08:12:25.000Z</time>
      </trkpt>
      <trkpt lat="43.3603" lon="5.44827">
        <ele>170.12</ele>
        <time>2021-05-16T08:12:28.000Z</time>
      </trkpt>
      <trkpt lat="43.36053" lon="5.44819">
        <ele>170.89</ele>
        <time>2021-05-16T08:12:32.000Z</time>
      </trkpt>
      <trkpt lat="43.36072" lon="5.44808">
        <ele>172.05</ele>
        <time>2021-05-16T08:12:37.000Z</time>
      </trkpt>
      <trkpt lat="43.36092" lon="5.44799">
        <ele>173.11</ele>
        <time>2021-05-16T08:12:40.000Z</time>
      </trkpt>
      <trkpt lat="43.36109" lon="5.44788">
        <ele>174.22</ele>
        <time>2021-05-16T08:12:43.000Z</time>
      </trkpt>
      <trkpt lat="43.3613" lon="5.44774">
        <ele>174.87</ele>
        <time>2021-05-16T08:12:47.000Z</time>
      </trkpt>
      <trkpt lat="43.36148" lon="5.44765">
        <ele>175.69</ele>
        <time>2021-05-16T08:12:50.000Z</time>
      </trkpt>
      <trkpt lat="43.36171" lon="5.44759">
        <ele>177.28</ele>
        <time>2021-05-16T08:12:54.000Z</time>
      </trkpt>
      <trkpt lat="43.36194" lon="5.44751">
        <ele>179.16</ele>
        <time>2021-05-16T08:12:58.000Z</time>
      </trkpt>
      <trkpt lat="43.36212" lon="5.44746">
        <ele>179.81</ele>
        <time>2021-05-16T08:13:01.000Z</time>
      </trkpt>
      <trkpt lat="43.3623" lon="5.44745">
        <ele>180.62</ele>
        <time>2021-05-16T08:13:04.000Z</time>
      </trkpt>
      <trkpt lat="43.36248" lon="5.4474">
        <ele>181</ele>
        <time>2021-05-16T08:13:07.000Z</time>
      </trkpt>
      <trkpt lat="43.3627" lon="5.44734">
        <ele>181.9</ele>
        <time>2021-05-16T08:13:11.000Z</time>
      </trkpt>
      <trkpt lat="43.36288" lon="5.44732">
        <ele>182.82</ele>
        <time>2021-05-16T08:13:14.000Z</time>
      </trkpt>
      <trkpt lat="43.36307" lon="5.4473">
        <ele>183.36</ele>
        <time>2021-05-16T08:13:17.000Z</time>
      </trkpt>
      <trkpt lat="43.36325" lon="5.44723">
        <ele>183.7</ele>
        <time>2021-05-16T08:13:20.000Z</time>
      </trkpt>
      <trkpt lat="43.36342" lon="5.44715">
        <ele>184.23</ele>
        <time>2021-05-16T08:13:23.000Z</time>
      </trkpt>
      <trkpt lat="43.3636" lon="5.44706">
        <ele>184.94</ele>
        <time>2021-05-16T08:13:26.000Z</time>
      </trkpt>
      <trkpt lat="43.36378" lon="5.447">
        <ele>185.56</ele>
        <time>2021-05-16T08:13:29.000Z</time>
      </trkpt>
      <trkpt lat="43.36401" lon="5.44703">
        <ele>186.79</ele>
        <time>2021-05-16T08:13:33.000Z</time>
      </trkpt>
      <trkpt lat="43.36419" lon="5.44709">
        <ele>187.71</ele>
        <time>2021-05-16T08:13:36.000Z</time>
      </trkpt>
      <trkpt lat="43.36438" lon="5.44707">
        <ele>188.2</ele>
        <time>2021-05-16T08:13:39.000Z</time>
      </trkpt>
      <trkpt lat="43.36461" lon="5.44704">
        <ele>188.64</ele>
        <time>2021-05-16T08:13:43.000Z</time>
      </trkpt>
      <trkpt lat="43.3648" lon="5.44704">
        <ele>189.27</ele>
        <time>2021-05-16T08:13:46.000Z</time>
      </trkpt>
      <trkpt lat="43.36503" lon="5.44703">
        <ele>190.07</ele>
        <time>2021-05-16T08:13:50.000Z</time>
      </trkpt>
      <trkpt lat="43.36524" lon="5.44698">
        <ele>190.65</ele>
        <time>2021-05-16T08:13:54.000Z</time>
      </trkpt>
      <trkpt lat="43.36536" lon="5.44676">
        <ele>191.39</ele>
        <time>2021-05-16T08:13:57.000Z</time>
      </trkpt>
      <trkpt lat="43.36543" lon="5.44653">
        <ele>192.2</ele>
        <time>2021-05-16T08:14:00.000Z</time>
      </trkpt>
      <trkpt lat="43.3656" lon="5.4464">
        <ele>193.41</ele>
        <time>2021-05-16T08:14:03.000Z</time>
      </trkpt>
      <trkpt lat="43.36582" lon="5.44643">
        <ele>194.76</ele>
        <time>2021-05-16T08:14:07.000Z</time>
      </trkpt>
      <trkpt lat="43.36598" lon="5.44656">
        <ele>195.38</ele>
        <time>2021-05-16T08:14:10.000Z</time>
      </trkpt>
      <trkpt lat="43.3662" lon="5.44671">
        <ele>196.38</ele>
        <time>2021-05-16T08:14:14.000Z</time>
      </trkpt>
      <trkpt lat="43.36641" lon="5.44676">
        <ele>197.84</ele>
        <time>2021-05-16T08:14:18.000Z</time>
      </trkpt>
      <trkpt lat="43.36658" lon="5.44683">
        <ele>198.96</ele>
        <time>2021-05-16T08:14:21.000Z</time>
      </trkpt>
      <trkpt lat="43.36675" lon="5.44696">
        <ele>200.21</ele>
        <time>2021-05-16T08:14:24.000Z</time>
      </trkpt>
      <trkpt lat="43.3669" lon="5.4471">
        <ele>201.22</ele>
        <time>2021-05-16T08:14:27.000Z</time>
      </trkpt>
      <trkpt lat="43.36713" lon="5.44716">
        <ele>202.39</ele>
        <time>2021-05-16T08:14:31.000Z</time>
      </trkpt>
      <trkpt lat="43.36733" lon="5.44728">
        <ele>203.37</ele>
        <time>2021-05-16T08:14:35.000Z</time>
      </trkpt>
      <trkpt lat="43.3675" lon="5.4475">
        <ele>204.64</ele>
        <time>2021-05-16T08:14:39.000Z</time>
      </trkpt>
      <trkpt lat="43.36767" lon="5.44772">
        <ele>205.78</ele>
        <time>2021-05-16T08:14:43.000Z</time>
      </trkpt>
      <trkpt lat="43.36784" lon="5.44795">
        <ele>207.44</ele>
        <time>2021-05-16T08:14:47.000Z</time>
      </trkpt>
      <trkpt lat="43.36806" lon="5.44805">
        <ele>209.31</ele>
        <time>2021-05-16T08:14:51.000Z</time>
      </trkpt>
      <trkpt lat="43.36824" lon="5.44793">
        <ele>211.23</ele>
        <time>2021-05-16T08:14:54.000Z</time>
      </trkpt>
      <trkpt lat="43.36846" lon="5.44802">
        <ele>213.58</ele>
        <time>2021-05-16T08:14:58.000Z</time>
      </trkpt>
      <trkpt lat="43.36862" lon="5.44824">
        <ele>215.45</ele>
        <time>2021-05-16T08:15:02.000Z</time>
      </trkpt>
      <trkpt lat="43.36877" lon="5.44846">
        <ele>216.78</ele>
        <time>2021-05-16T08:15:06.000Z</time>
      </trkpt>
      <trkpt lat="43.36901" lon="5.44852">
        <ele>218.29</ele>
        <time>2021-05-16T08:15:10.000Z</time>
      </trkpt>
      <trkpt lat="43.36923" lon="5.44851">
        <ele>220.17</ele>
        <time>2021-05-16T08:15:14.000Z</time>
      </trkpt>
      <trkpt lat="43.36943" lon="5.44864">
        <ele>220.45</ele>
        <time>2021-05-16T08:15:18.000Z</time>
      </trkpt>
      <trkpt lat="43.36964" lon="5.44871">
        <ele>221.75</ele>
        <time>2021-05-16T08:15:22.000Z</time>
      </trkpt>
      <trkpt lat="43.36984" lon="5.44862">
        <ele>223.39</ele>
        <time>2021-05-16T08:15:26.000Z</time>
      </trkpt>
      <trkpt lat="43.36999" lon="5.44848">
        <ele>224.99</ele>
        <time>2021-05-16T08:15:29.000Z</time>
      </trkpt>
      <trkpt lat="43.37018" lon="5.44838">
        <ele>227.84</ele>
        <time>2021-05-16T08:15:33.000Z</time>
      </trkpt>
      <trkpt lat="43.37037" lon="5.44836">
        <ele>230.93</ele>
        <time>2021-05-16T08:15:37.000Z</time>
      </trkpt>
      <trkpt lat="43.37059" lon="5.44833">
        <ele>234.53</ele>
        <time>2021-05-16T08:15:42.000Z</time>
      </trkpt>
      <trkpt lat="43.3708" lon="5.44827">
        <ele>237.54</ele>
        <time>2021-05-16T08:15:47.000Z</time>
      </trkpt>
      <trkpt lat="43.37099" lon="5.44825">
        <ele>239.97</ele>
        <time>2021-05-16T08:15:51.000Z</time>
      </trkpt>
      <trkpt lat="43.37118" lon="5.44825">
        <ele>242.85</ele>
        <time>2021-05-16T08:15:55.000Z</time>
      </trkpt>
      <trkpt lat="43.3714" lon="5.44829">
        <ele>244.14</ele>
        <time>2021-05-16T08:15:58.000Z</time>
      </trkpt>
      <trkpt lat="43.37163" lon="5.44829">
        <ele>244.81</ele>
        <time>2021-05-16T08:16:01.000Z</time>
      </trkpt>
      <trkpt lat="43.37185" lon="5.44833">
        <ele>245.16</ele>
        <time>2021-05-16T08:16:05.000Z</time>
      </trkpt>
      <trkpt lat="43.37204" lon="5.4484">
        <ele>245.48</ele>
        <time>2021-05-16T08:16:09.000Z</time>
      </trkpt>
      <trkpt lat="43.37224" lon="5.44845">
        <ele>245.99</ele>
        <time>2021-05-16T08:16:16.000Z</time>
      </trkpt>
      <trkpt lat="43.37238" lon="5.44861">
        <ele>245.91</ele>
        <time>2021-05-16T08:16:21.000Z</time>
      </trkpt>
      <trkpt lat="43.37257" lon="5.44867">
        <ele>247.24</ele>
        <time>2021-05-16T08:16:50.000Z</time>
      </trkpt>
      <trkpt lat="43.37275" lon="5.44873">
        <ele>248.75</ele>
        <time>2021-05-16T08:16:55.000Z</time>
      </trkpt>
      <trkpt lat="43.37293" lon="5.44872">
        <ele>250.39</ele>
        <time>2021-05-16T08:16:59.000Z</time>
      </trkpt>
      <trkpt lat="43.37313" lon="5.44868">
        <ele>252.12</ele>
        <time>2021-05-16T08:17:04.000Z</time>
      </trkpt>
      <trkpt lat="43.37331" lon="5.44859">
        <ele>254.01</ele>
        <time>2021-05-16T08:17:08.000Z</time>
      </trkpt>
      <trkpt lat="43.37349" lon="5.44851">
        <ele>256.09</ele>
        <time>2021-05-16T08:17:12.000Z</time>
      </trkpt>
      <trkpt lat="43.37368" lon="5.44846">
        <ele>257.98</ele>
        <time>2021-05-16T08:17:16.000Z</time>
      </trkpt>
      <trkpt lat="43.37387" lon="5.4484">
        <ele>259.75</ele>
        <time>2021-05-16T08:17:20.000Z</time>
      </trkpt>
      <trkpt lat="43.37405" lon="5.44835">
        <ele>261.53</ele>
        <time>2021-05-16T08:17:24.000Z</time>
      </trkpt>
      <trkpt lat="43.37423" lon="5.4483">
        <ele>263.02</ele>
        <time>2021-05-16T08:17:28.000Z</time>
      </trkpt>
      <trkpt lat="43.37441" lon="5.44832">
        <ele>264.73</ele>
        <time>2021-05-16T08:17:32.000Z</time>
      </trkpt>
      <trkpt lat="43.37464" lon="5.44837">
        <ele>266.81</ele>
        <time>2021-05-16T08:17:37.000Z</time>
      </trkpt>
      <trkpt lat="43.37482" lon="5.44839">
        <ele>269.03</ele>
        <time>2021-05-16T08:17:41.000Z</time>
      </trkpt>
      <trkpt lat="43.37504" lon="5.44843">
        <ele>271.47</ele>
        <time>2021-05-16T08:17:46.000Z</time>
      </trkpt>
      <trkpt lat="43.37523" lon="5.44842">
        <ele>274.61</ele>
        <time>2021-05-16T08:17:51.000Z</time>
      </trkpt>
      <trkpt lat="43.37542" lon="5.44842">
        <ele>276.99</ele>
        <time>2021-05-16T08:17:58.000Z</time>
      </trkpt>
      <trkpt lat="43.37562" lon="5.4484">
        <ele>279.8</ele>
        <time>2021-05-16T08:18:05.000Z</time>
      </trkpt>
      <trkpt lat="43.37582" lon="5.44834">
        <ele>282.11</ele>
        <time>2021-05-16T08:18:10.000Z</time>
      </trkpt>
      <trkpt lat="43.37604" lon="5.44838">
        <ele>284.11</ele>
        <time>2021-05-16T08:18:15.000Z</time>
      </trkpt>
      <trkpt lat="43.37621" lon="5.4485">
        <ele>286.71</ele>
        <time>2021-05-16T08:18:20.000Z</time>
      </trkpt>
      <trkpt lat="43.3764" lon="5.4486">
        <ele>290.49</ele>
        <time>2021-05-16T08:18:26.000Z</time>
      </trkpt>
      <trkpt lat="43.37656" lon="5.44873">
        <ele>292.89</ele>
        <time>2021-05-16T08:18:31.000Z</time>
      </trkpt>
      <trkpt lat="43.3767" lon="5.44893">
        <ele>294.99</ele>
        <time>2021-05-16T08:18:36.000Z</time>
      </trkpt>
      <trkpt lat="43.37683" lon="5.44911">
        <ele>297.1</ele>
        <time>2021-05-16T08:18:41.000Z</time>
      </trkpt>
      <trkpt lat="43.37697" lon="5.44933">
        <ele>299.22</ele>
        <time>2021-05-16T08:18:47.000Z</time>
      </trkpt>
      <trkpt lat="43.37709" lon="5.44955">
        <ele>302.07</ele>
        <time>2021-05-16T08:18:53.000Z</time>
      </trkpt>
      <trkpt lat="43.37721" lon="5.44978">
        <ele>304.44</ele>
        <time>2021-05-16T08:18:59.000Z</time>
      </trkpt>
      <trkpt lat="43.37726" lon="5.45006">
        <ele>306.17</ele>
        <time>2021-05-16T08:19:05.000Z</time>
      </trkpt>
      <trkpt lat="43.37732" lon="5.45033">
        <ele>309.52</ele>
        <time>2021-05-16T08:19:11.000Z</time>
      </trkpt>
      <trkpt lat="43.37738" lon="5.45058">
        <ele>312.46</ele>
        <time>2021-05-16T08:19:17.000Z</time>
      </trkpt>
      <trkpt lat="43.37748" lon="5.45083">
        <ele>314.29</ele>
        <time>2021-05-16T08:19:23.000Z</time>
      </trkpt>
      <trkpt lat="43.37756" lon="5.45107">
        <ele>315.5</ele>
        <time>2021-05-16T08:19:29.000Z</time>
      </trkpt>
      <trkpt lat="43.37744" lon="5.45129">
        <ele>317.29</ele>
        <time>2021-05-16T08:19:34.000Z</time>
      </trkpt>
      <trkpt lat="43.37725" lon="5.45133">
        <ele>317.43</ele>
        <time>2021-05-16T08:19:39.000Z</time>
      </trkpt>
      <trkpt lat="43.37707" lon="5.45116">
        <ele>316.84</ele>
        <time>2021-05-16T08:19:43.000Z</time>
      </trkpt>
      <trkpt lat="43.37691" lon="5.45103">
        <ele>315.86</ele>
        <time>2021-05-16T08:19:47.000Z</time>
      </trkpt>
      <trkpt lat="43.37675" lon="5.45088">
        <ele>315.07</ele>
        <time>2021-05-16T08:19:51.000Z</time>
      </trkpt>
      <trkpt lat="43.37666" lon="5.45062">
        <ele>315.8</ele>
        <time>2021-05-16T08:19:57.000Z</time>
      </trkpt>
      <trkpt lat="43.37656" lon="5.45037">
        <ele>316.9</ele>
        <time>2021-05-16T08:20:14.000Z</time>
      </trkpt>
      <trkpt lat="43.37639" lon="5.45019">
        <ele>317.79</ele>
        <time>2021-05-16T08:20:18.000Z</time>
      </trkpt>
      <trkpt lat="43.37619" lon="5.45016">
        <ele>319.98</ele>
        <time>2021-05-16T08:20:22.000Z</time>
      </trkpt>
      <trkpt lat="43.37603" lon="5.45031">
        <ele>320.96</ele>
        <time>2021-05-16T08:20:27.000Z</time>
      </trkpt>
      <trkpt lat="43.37588" lon="5.45049">
        <ele>322.39</ele>
        <time>2021-05-16T08:20:32.000Z</time>
      </trkpt>
      <trkpt lat="43.37573" lon="5.45067">
        <ele>324.36</ele>
        <time>2021-05-16T08:20:37.000Z</time>
      </trkpt>
      <trkpt lat="43.37563" lon="5.45088">
        <ele>325.86</ele>
        <time>2021-05-16T08:20:41.000Z</time>
      </trkpt>
      <trkpt lat="43.37558" lon="5.45114">
        <ele>325.35</ele>
        <time>2021-05-16T08:20:45.000Z</time>
      </trkpt>
      <trkpt lat="43.37567" lon="5.45139">
        <ele>325.84</ele>
        <time>2021-05-16T08:20:50.000Z</time>
      </trkpt>
      <trkpt lat="43.3758" lon="5.45157">
        <ele>326.26</ele>
        <time>2021-05-16T08:20:54.000Z</time>
      </trkpt>
      <trkpt lat="43.37592" lon="5.45182">
        <ele>326.95</ele>
        <time>2021-05-16T08:20:59.000Z</time>
      </trkpt>
      <trkpt lat="43.37596" lon="5.45208">
        <ele>327.93</ele>
        <time>2021-05-16T08:21:04.000Z</time>
      </trkpt>
      <trkpt lat="43.37589" lon="5.45232">
        <ele>330.14</ele>
        <time>2021-05-16T08:21:09.000Z</time>
      </trkpt>
      <trkpt lat="43.37575" lon="5.45253">
        <ele>330.54</ele>
        <time>2021-05-16T08:21:14.000Z</time>
      </trkpt>
      <trkpt lat="43.37563" lon="5.45274">
        <ele>330.17</ele>
        <time>2021-05-16T08:21:18.000Z</time>
      </trkpt>
      <trkpt lat="43.37551" lon="5.45294">
        <ele>329.64</ele>
        <time>2021-05-16T08:21:22.000Z</time>
      </trkpt>
      <trkpt lat="43.37535" lon="5.45306">
        <ele>329.05</ele>
        <time>2021-05-16T08:21:26.000Z</time>
      </trkpt>
      <trkpt lat="43.37516" lon="5.4532">
        <ele>327.04</ele>
        <time>2021-05-16T08:21:30.000Z</time>
      </trkpt>
      <trkpt lat="43.37499" lon="5.45329">
        <ele>325.17</ele>
        <time>2021-05-16T08:21:34.000Z</time>
      </trkpt>
      <trkpt lat="43.37479" lon="5.45334">
        <ele>322.8</ele>
        <time>2021-05-16T08:21:39.000Z</time>
      </trkpt>
      <trkpt lat="43.37457" lon="5.45334">
        <ele>319.55</ele>
        <time>2021-05-16T08:21:45.000Z</time>
      </trkpt>
      <trkpt lat="43.37435" lon="5.45333">
        <ele>316.95</ele>
        <time>2021-05-16T08:21:50.000Z</time>
      </trkpt>
      <trkpt lat="43.37416" lon="5.45328">
        <ele>315.83</ele>
        <time>2021-05-16T08:21:54.000Z</time>
      </trkpt>
      <trkpt lat="43.37423" lon="5.4535">
        <ele>313.91</ele>
        <time>2021-05-16T08:22:09.000Z</time>
      </trkpt>
      <trkpt lat="43.37442" lon="5.45362">
        <ele>312.37</ele>
        <time>2021-05-16T08:22:13.000Z</time>
      </trkpt>
      <trkpt lat="43.37463" lon="5.45373">
        <ele>310.33</ele>
        <time>2021-05-16T08:22:16.000Z</time>
      </trkpt>
      <trkpt lat="43.37482" lon="5.45384">
        <ele>310.09</ele>
        <time>2021-05-16T08:22:19.000Z</time>
      </trkpt>
      <trkpt lat="43.37501" lon="5.45388">
        <ele>312.27</ele>
        <time>2021-05-16T08:22:24.000Z</time>
      </trkpt>
      <trkpt lat="43.37519" lon="5.45379">
        <ele>313.05</ele>
        <time>2021-05-16T08:22:30.000Z</time>
      </trkpt>
      <trkpt lat="43.37541" lon="5.45369">
        <ele>313.35</ele>
        <time>2021-05-16T08:22:35.000Z</time>
      </trkpt>
      <trkpt lat="43.37557" lon="5.45357">
        <ele>314.05</ele>
        <time>2021-05-16T08:22:39.000Z</time>
      </trkpt>
      <trkpt lat="43.37577" lon="5.45347">
        <ele>315.14</ele>
        <time>2021-05-16T08:22:44.000Z</time>
      </trkpt>
      <trkpt lat="43.37596" lon="5.45346">
        <ele>314.82</ele>
        <time>2021-05-16T08:22:48.000Z</time>
      </trkpt>
      <trkpt lat="43.37618" lon="5.45348">
        <ele>315.41</ele>
        <time>2021-05-16T08:22:52.000Z</time>
      </trkpt>
      <trkpt lat="43.37637" lon="5.45354">
        <ele>314.7</ele>
        <time>2021-05-16T08:22:56.000Z</time>
      </trkpt>
      <trkpt lat="43.37657" lon="5.45357">
        <ele>314.36</ele>
        <time>2021-05-16T08:23:00.000Z</time>
      </trkpt>
      <trkpt lat="43.37677" lon="5.45362">
        <ele>314.05</ele>
        <time>2021-05-16T08:23:04.000Z</time>
      </trkpt>
      <trkpt lat="43.37695" lon="5.45365">
        <ele>314.18</ele>
        <time>2021-05-16T08:23:07.000Z</time>
      </trkpt>
      <trkpt lat="43.37719" lon="5.45371">
        <ele>314.95</ele>
        <time>2021-05-16T08:23:12.000Z</time>
      </trkpt>
      <trkpt lat="43.37738" lon="5.45368">
        <ele>315.95</ele>
        <time>2021-05-16T08:23:40.000Z</time>
      </trkpt>
      <trkpt lat="43.37758" lon="5.45356">
        <ele>314.75</ele>
        <time>2021-05-16T08:23:52.000Z</time>
      </trkpt>
      <trkpt lat="43.37772" lon="5.45339">
        <ele>314.22</ele>
        <time>2021-05-16T08:23:57.000Z</time>
      </trkpt>
      <trkpt lat="43.37784" lon="5.4532">
        <ele>314.36</ele>
        <time>2021-05-16T08:24:01.000Z</time>
      </trkpt>
      <trkpt lat="43.378" lon="5.45302">
        <ele>314.41</ele>
        <time>2021-05-16T08:24:05.000Z</time>
      </trkpt>
      <trkpt lat="43.37817" lon="5.45292">
        <ele>314.19</ele>
        <time>2021-05-16T08:24:08.000Z</time>
      </trkpt>
      <trkpt lat="43.3784" lon="5.45289">
        <ele>313.3</ele>
        <time>2021-05-16T08:24:12.000Z</time>
      </trkpt>
      <trkpt lat="43.3786" lon="5.45292">
        <ele>313.42</ele>
        <time>2021-05-16T08:24:15.000Z</time>
      </trkpt>
      <trkpt lat="43.37881" lon="5.45288">
        <ele>314.04</ele>
        <time>2021-05-16T08:24:18.000Z</time>
      </trkpt>
      <trkpt lat="43.37899" lon="5.4529">
        <ele>315.28</ele>
        <time>2021-05-16T08:24:23.000Z</time>
      </trkpt>
      <trkpt lat="43.37887" lon="5.45268">
        <ele>318.84</ele>
        <time>2021-05-16T08:24:31.000Z</time>
      </trkpt>
      <trkpt lat="43.37872" lon="5.45251">
        <ele>322.13</ele>
        <time>2021-05-16T08:24:37.000Z</time>
      </trkpt>
      <trkpt lat="43.37853" lon="5.45247">
        <ele>324.9</ele>
        <time>2021-05-16T08:24:42.000Z</time>
      </trkpt>
      <trkpt lat="43.37834" lon="5.45247">
        <ele>327.11</ele>
        <time>2021-05-16T08:24:45.000Z</time>
      </trkpt>
      <trkpt lat="43.37814" lon="5.4525">
        <ele>329.48</ele>
        <time>2021-05-16T08:24:50.000Z</time>
      </trkpt>
      <trkpt lat="43.37794" lon="5.4525">
        <ele>332.95</ele>
        <time>2021-05-16T08:24:55.000Z</time>
      </trkpt>
      <trkpt lat="43.37775" lon="5.45249">
        <ele>336.04</ele>
        <time>2021-05-16T08:25:00.000Z</time>
      </trkpt>
      <trkpt lat="43.37758" lon="5.45235">
        <ele>337.76</ele>
        <time>2021-05-16T08:25:06.000Z</time>
      </trkpt>
      <trkpt lat="43.37772" lon="5.45219">
        <ele>338.58</ele>
        <time>2021-05-16T08:25:17.000Z</time>
      </trkpt>
      <trkpt lat="43.37797" lon="5.45221">
        <ele>340</ele>
        <time>2021-05-16T08:25:27.000Z</time>
      </trkpt>
      <trkpt lat="43.3782" lon="5.45214">
        <ele>340.24</ele>
        <time>2021-05-16T08:25:31.000Z</time>
      </trkpt>
      <trkpt lat="43.37838" lon="5.4521">
        <ele>340.49</ele>
        <time>2021-05-16T08:25:34.000Z</time>
      </trkpt>
      <trkpt lat="43.37861" lon="5.45213">
        <ele>340.58</ele>
        <time>2021-05-16T08:25:38.000Z</time>
      </trkpt>
      <trkpt lat="43.37879" lon="5.45219">
        <ele>340.78</ele>
        <time>2021-05-16T08:25:41.000Z</time>
      </trkpt>
      <trkpt lat="43.37898" lon="5.45228">
        <ele>340.66</ele>
        <time>2021-05-16T08:25:44.000Z</time>
      </trkpt>
      <trkpt lat="43.37914" lon="5.45238">
        <ele>340.97</ele>
        <time>2021-05-16T08:25:47.000Z</time>
      </trkpt>
      <trkpt lat="43.37932" lon="5.45248">
        <ele>340.78</ele>
        <time>2021-05-16T08:25:50.000Z</time>
      </trkpt>
      <trkpt lat="43.37955" lon="5.45258">
        <ele>340.51</ele>
        <time>2021-05-16T08:25:54.000Z</time>
      </trkpt>
      <trkpt lat="43.37971" lon="5.4527">
        <ele>340.48</ele>
        <time>2021-05-16T08:25:57.000Z</time>
      </trkpt>
      <trkpt lat="43.37984" lon="5.45293">
        <ele>341.12</ele>
        <time>2021-05-16T08:26:01.000Z</time>
      </trkpt>
      <trkpt lat="43.37997" lon="5.4532">
        <ele>341.02</ele>
        <time>2021-05-16T08:26:05.000Z</time>
      </trkpt>
      <trkpt lat="43.38012" lon="5.45344">
        <ele>341.1</ele>
        <time>2021-05-16T08:26:09.000Z</time>
      </trkpt>
      <trkpt lat="43.38027" lon="5.4536">
        <ele>341.14</ele>
        <time>2021-05-16T08:26:12.000Z</time>
      </trkpt>
      <trkpt lat="43.38036" lon="5.45381">
        <ele>341.23</ele>
        <time>2021-05-16T08:26:15.000Z</time>
      </trkpt>
      <trkpt lat="43.38046" lon="5.45407">
        <ele>341.34</ele>
        <time>2021-05-16T08:26:19.000Z</time>
      </trkpt>
      <trkpt lat="43.38058" lon="5.45427">
        <ele>341.49</ele>
        <time>2021-05-16T08:26:24.000Z</time>
      </trkpt>
      <trkpt lat="43.38072" lon="5.45444">
        <ele>341.7</ele>
        <time>2021-05-16T08:26:29.000Z</time>
      </trkpt>
      <trkpt lat="43.38087" lon="5.45459">
        <ele>341.3</ele>
        <time>2021-05-16T08:26:33.000Z</time>
      </trkpt>
      <trkpt lat="43.38107" lon="5.45462">
        <ele>340.75</ele>
        <time>2021-05-16T08:26:37.000Z</time>
      </trkpt>
      <trkpt lat="43.38129" lon="5.45458">
        <ele>340.97</ele>
        <time>2021-05-16T08:26:41.000Z</time>
      </trkpt>
      <trkpt lat="43.3815" lon="5.45452">
        <ele>340.67</ele>
        <time>2021-05-16T08:26:45.000Z</time>
      </trkpt>
      <trkpt lat="43.3817" lon="5.45445">
        <ele>340.52</ele>
        <time>2021-05-16T08:26:49.000Z</time>
      </trkpt>
      <trkpt lat="43.38189" lon="5.45427">
        <ele>340.21</ele>
        <time>2021-05-16T08:26:53.000Z</time>
      </trkpt>
      <trkpt lat="43.38203" lon="5.45409">
        <ele>340.3</ele>
        <time>2021-05-16T08:26:57.000Z</time>
      </trkpt>
      <trkpt lat="43.3822" lon="5.45396">
        <ele>339.83</ele>
        <time>2021-05-16T08:27:00.000Z</time>
      </trkpt>
      <trkpt lat="43.38238" lon="5.45378">
        <ele>339.76</ele>
        <time>2021-05-16T08:27:04.000Z</time>
      </trkpt>
      <trkpt lat="43.38253" lon="5.45359">
        <ele>339.81</ele>
        <time>2021-05-16T08:27:08.000Z</time>
      </trkpt>
      <trkpt lat="43.38273" lon="5.45357">
        <ele>340.24</ele>
        <time>2021-05-16T08:27:18.000Z</time>
      </trkpt>
      <trkpt lat="43.38286" lon="5.45338">
        <ele>342.09</ele>
        <time>2021-05-16T08:27:23.000Z</time>
      </trkpt>
      <trkpt lat="43.38305" lon="5.45322">
        <ele>342.98</ele>
        <time>2021-05-16T08:27:28.000Z</time>
      </trkpt>
      <trkpt lat="43.38324" lon="5.4531">
        <ele>344.56</ele>
        <time>2021-05-16T08:27:33.000Z</time>
      </trkpt>
      <trkpt lat="43.38346" lon="5.45301">
        <ele>346.92</ele>
        <time>2021-05-16T08:27:38.000Z</time>
      </trkpt>
      <trkpt lat="43.38365" lon="5.45297">
        <ele>348.05</ele>
        <time>2021-05-16T08:27:42.000Z</time>
      </trkpt>
      <trkpt lat="43.38382" lon="5.45276">
        <ele>348.87</ele>
        <time>2021-05-16T08:27:46.000Z</time>
      </trkpt>
      <trkpt lat="43.384" lon="5.45257">
        <ele>349</ele>
        <time>2021-05-16T08:27:50.000Z</time>
      </trkpt>
      <trkpt lat="43.38421" lon="5.45244">
        <ele>349.45</ele>
        <time>2021-05-16T08:27:54.000Z</time>
      </trkpt>
      <trkpt lat="43.3844" lon="5.45237">
        <ele>350.75</ele>
        <time>2021-05-16T08:27:58.000Z</time>
      </trkpt>
      <trkpt lat="43.38461" lon="5.45225">
        <ele>351.38</ele>
        <time>2021-05-16T08:28:02.000Z</time>
      </trkpt>
      <trkpt lat="43.38479" lon="5.45222">
        <ele>352.85</ele>
        <time>2021-05-16T08:28:06.000Z</time>
      </trkpt>
      <trkpt lat="43.38501" lon="5.45223">
        <ele>354.83</ele>
        <time>2021-05-16T08:28:11.000Z</time>
      </trkpt>
      <trkpt lat="43.38521" lon="5.45218">
        <ele>355.61</ele>
        <time>2021-05-16T08:28:15.000Z</time>
      </trkpt>
      <trkpt lat="43.3854" lon="5.45208">
        <ele>356.47</ele>
        <time>2021-05-16T08:28:19.000Z</time>
      </trkpt>
      <trkpt lat="43.3856" lon="5.45197">
        <ele>357.51</ele>
        <time>2021-05-16T08:28:23.000Z</time>
      </trkpt>
      <trkpt lat="43.3858" lon="5.45191">
        <ele>358.49</ele>
        <time>2021-05-16T08:28:27.000Z</time>
      </trkpt>
      <trkpt lat="43.38599" lon="5.45178">
        <ele>359.85</ele>
        <time>2021-05-16T08:28:31.000Z</time>
      </trkpt>
      <trkpt lat="43.38615" lon="5.45162">
        <ele>360.66</ele>
        <time>2021-05-16T08:28:35.000Z</time>
      </trkpt>
      <trkpt lat="43.38631" lon="5.45147">
        <ele>361.68</ele>
        <time>2021-05-16T08:28:39.000Z</time>
      </trkpt>
      <trkpt lat="43.38649" lon="5.4514">
        <ele>363.06</ele>
        <time>2021-05-16T08:28:43.000Z</time>
      </trkpt>
      <trkpt lat="43.38667" lon="5.45133">
        <ele>364.08</ele>
        <time>2021-05-16T08:28:47.000Z</time>
      </trkpt>
      <trkpt lat="43.38689" lon="5.4513">
        <ele>364.99</ele>
        <time>2021-05-16T08:28:51.000Z</time>
      </trkpt>
      <trkpt lat="43.38708" lon="5.45125">
        <ele>366.02</ele>
        <time>2021-05-16T08:28:55.000Z</time>
      </trkpt>
      <trkpt lat="43.38729" lon="5.45119">
        <ele>367.75</ele>
        <time>2021-05-16T08:29:00.000Z</time>
      </trkpt>
      <trkpt lat="43.38748" lon="5.45111">
        <ele>369.09</ele>
        <time>2021-05-16T08:29:04.000Z</time>
      </trkpt>
      <trkpt lat="43.38767" lon="5.451">
        <ele>370.31</ele>
        <time>2021-05-16T08:29:08.000Z</time>
      </trkpt>
      <trkpt lat="43.38786" lon="5.45087">
        <ele>371.47</ele>
        <time>2021-05-16T08:29:12.000Z</time>
      </trkpt>
      <trkpt lat="43.38804" lon="5.45074">
        <ele>372.5</ele>
        <time>2021-05-16T08:29:16.000Z</time>
      </trkpt>
      <trkpt lat="43.3882" lon="5.45054">
        <ele>373.19</ele>
        <time>2021-05-16T08:29:20.000Z</time>
      </trkpt>
      <trkpt lat="43.38834" lon="5.45032">
        <ele>373.41</ele>
        <time>2021-05-16T08:29:24.000Z</time>
      </trkpt>
      <trkpt lat="43.38852" lon="5.45011">
        <ele>375.17</ele>
        <time>2021-05-16T08:29:29.000Z</time>
      </trkpt>
      <trkpt lat="43.38869" lon="5.45001">
        <ele>376.51</ele>
        <time>2021-05-16T08:29:33.000Z</time>
      </trkpt>
      <trkpt lat="43.38889" lon="5.44984">
        <ele>378.27</ele>
        <time>2021-05-16T08:29:39.000Z</time>
      </trkpt>
      <trkpt lat="43.38905" lon="5.44963">
        <ele>379.31</ele>
        <time>2021-05-16T08:29:43.000Z</time>
      </trkpt>
      <trkpt lat="43.38921" lon="5.44943">
        <ele>380.68</ele>
        <time>2021-05-16T08:29:48.000Z</time>
      </trkpt>
      <trkpt lat="43.38936" lon="5.44927">
        <ele>383.3</ele>
        <time>2021-05-16T08:29:53.000Z</time>
      </trkpt>
      <trkpt lat="43.3895" lon="5.44908">
        <ele>386.22</ele>
        <time>2021-05-16T08:29:58.000Z</time>
      </trkpt>
      <trkpt lat="43.38964" lon="5.44889">
        <ele>389.15</ele>
        <time>2021-05-16T08:30:03.000Z</time>
      </trkpt>
      <trkpt lat="43.38981" lon="5.44874">
        <ele>391.4</ele>
        <time>2021-05-16T08:30:08.000Z</time>
      </trkpt>
      <trkpt lat="43.38998" lon="5.44863">
        <ele>392.84</ele>
        <time>2021-05-16T08:30:12.000Z</time>
      </trkpt>
      <trkpt lat="43.39015" lon="5.44855">
        <ele>393.02</ele>
        <time>2021-05-16T08:30:16.000Z</time>
      </trkpt>
      <trkpt lat="43.39034" lon="5.44843">
        <ele>393.95</ele>
        <time>2021-05-16T08:30:21.000Z</time>
      </trkpt>
      <trkpt lat="43.39053" lon="5.44835">
        <ele>394.77</ele>
        <time>2021-05-16T08:30:25.000Z</time>
      </trkpt>
      <trkpt lat="43.39074" lon="5.44827">
        <ele>397.86</ele>
        <time>2021-05-16T08:30:30.000Z</time>
      </trkpt>
      <trkpt lat="43.39092" lon="5.4482">
        <ele>400.71</ele>
        <time>2021-05-16T08:30:36.000Z</time>
      </trkpt>
      <trkpt lat="43.3911" lon="5.44821">
        <ele>403.38</ele>
        <time>2021-05-16T08:30:54.000Z</time>
      </trkpt>
      <trkpt lat="43.39087" lon="5.44817">
        <ele>402.14</ele>
        <time>2021-05-16T08:31:20.000Z</time>
      </trkpt>
      <trkpt lat="43.39067" lon="5.4482">
        <ele>402</ele>
        <time>2021-05-16T08:31:24.000Z</time>
      </trkpt>
      <trkpt lat="43.39048" lon="5.44814">
        <ele>402.24</ele>
        <time>2021-05-16T08:31:28.000Z</time>
      </trkpt>
      <trkpt lat="43.39029" lon="5.44803">
        <ele>402.8</ele>
        <time>2021-05-16T08:31:33.000Z</time>
      </trkpt>
      <trkpt lat="43.39018" lon="5.44824">
        <ele>402.78</ele>
        <time>2021-05-16T08:31:37.000Z</time>
      </trkpt>
      <trkpt lat="43.39001" lon="5.44834">
        <ele>402.9</ele>
        <time>2021-05-16T08:31:41.000Z</time>
      </trkpt>
      <trkpt lat="43.3898" lon="5.44842">
        <ele>403.5</ele>
        <time>2021-05-16T08:31:45.000Z</time>
      </trkpt>
      <trkpt lat="43.38959" lon="5.44852">
        <ele>404</ele>
        <time>2021-05-16T08:31:49.000Z</time>
      </trkpt>
      <trkpt lat="43.38937" lon="5.44859">
        <ele>404.58</ele>
        <time>2021-05-16T08:31:53.000Z</time>
      </trkpt>
      <trkpt lat="43.38921" lon="5.4487">
        <ele>405.02</ele>
        <time>2021-05-16T08:31:56.000Z</time>
      </trkpt>
      <trkpt lat="43.389" lon="5.44883">
        <ele>405.48</ele>
        <time>2021-05-16T08:32:00.000Z</time>
      </trkpt>
      <trkpt lat="43.38879" lon="5.44885">
        <ele>405.95</ele>
        <time>2021-05-16T08:32:04.000Z</time>
      </trkpt>
      <trkpt lat="43.38858" lon="5.44893">
        <ele>406.15</ele>
        <time>2021-05-16T08:32:09.000Z</time>
      </trkpt>
      <trkpt lat="43.3885" lon="5.4492">
        <ele>406.5</ele>
        <time>2021-05-16T08:32:14.000Z</time>
      </trkpt>
      <trkpt lat="43.38836" lon="5.44937">
        <ele>407.26</ele>
        <time>2021-05-16T08:32:18.000Z</time>
      </trkpt>
      <trkpt lat="43.38816" lon="5.4495">
        <ele>407.39</ele>
        <time>2021-05-16T08:32:23.000Z</time>
      </trkpt>
      <trkpt lat="43.38798" lon="5.44956">
        <ele>408.49</ele>
        <time>2021-05-16T08:32:27.000Z</time>
      </trkpt>
      <trkpt lat="43.3878" lon="5.44966">
        <ele>408.97</ele>
        <time>2021-05-16T08:32:31.000Z</time>
      </trkpt>
      <trkpt lat="43.38759" lon="5.4498">
        <ele>409.47</ele>
        <time>2021-05-16T08:32:35.000Z</time>
      </trkpt>
      <trkpt lat="43.3874" lon="5.44986">
        <ele>410.12</ele>
        <time>2021-05-16T08:32:38.000Z</time>
      </trkpt>
      <trkpt lat="43.3872" lon="5.44998">
        <ele>411.04</ele>
        <time>2021-05-16T08:32:42.000Z</time>
      </trkpt>
      <trkpt lat="43.38701" lon="5.45005">
        <ele>411.51</ele>
        <time>2021-05-16T08:32:45.000Z</time>
      </trkpt>
      <trkpt lat="43.38683" lon="5.45009">
        <ele>411.98</ele>
        <time>2021-05-16T08:32:48.000Z</time>
      </trkpt>
      <trkpt lat="43.38659" lon="5.45011">
        <ele>411.79</ele>
        <time>2021-05-16T08:32:52.000Z</time>
      </trkpt>
      <trkpt lat="43.38635" lon="5.45013">
        <ele>412.33</ele>
        <time>2021-05-16T08:32:56.000Z</time>
      </trkpt>
      <trkpt lat="43.38616" lon="5.45015">
        <ele>412.85</ele>
        <time>2021-05-16T08:32:59.000Z</time>
      </trkpt>
      <trkpt lat="43.38593" lon="5.45015">
        <ele>412.77</ele>
        <time>2021-05-16T08:33:03.000Z</time>
      </trkpt>
      <trkpt lat="43.3857" lon="5.45021">
        <ele>413.54</ele>
        <time>2021-05-16T08:33:07.000Z</time>
      </trkpt>
      <trkpt lat="43.38551" lon="5.45026">
        <ele>413.92</ele>
        <time>2021-05-16T08:33:10.000Z</time>
      </trkpt>
      <trkpt lat="43.38533" lon="5.45028">
        <ele>414.71</ele>
        <time>2021-05-16T08:33:13.000Z</time>
      </trkpt>
      <trkpt lat="43.38514" lon="5.45024">
        <ele>415.21</ele>
        <time>2021-05-16T08:33:16.000Z</time>
      </trkpt>
      <trkpt lat="43.38496" lon="5.45015">
        <ele>415.38</ele>
        <time>2021-05-16T08:33:19.000Z</time>
      </trkpt>
      <trkpt lat="43.38478" lon="5.4501">
        <ele>415.66</ele>
        <time>2021-05-16T08:33:22.000Z</time>
      </trkpt>
      <trkpt lat="43.3846" lon="5.45005">
        <ele>415.78</ele>
        <time>2021-05-16T08:33:25.000Z</time>
      </trkpt>
      <trkpt lat="43.38438" lon="5.45004">
        <ele>416.55</ele>
        <time>2021-05-16T08:33:29.000Z</time>
      </trkpt>
      <trkpt lat="43.38428" lon="5.44982">
        <ele>416.42</ele>
        <time>2021-05-16T08:33:34.000Z</time>
      </trkpt>
      <trkpt lat="43.38442" lon="5.44954">
        <ele>414.44</ele>
        <time>2021-05-16T08:33:38.000Z</time>
      </trkpt>
      <trkpt lat="43.38451" lon="5.4493">
        <ele>413.26</ele>
        <time>2021-05-16T08:33:41.000Z</time>
      </trkpt>
      <trkpt lat="43.38459" lon="5.44903">
        <ele>412.01</ele>
        <time>2021-05-16T08:33:44.000Z</time>
      </trkpt>
      <trkpt lat="43.3846" lon="5.44875">
        <ele>411.47</ele>
        <time>2021-05-16T08:33:47.000Z</time>
      </trkpt>
      <trkpt lat="43.38451" lon="5.44849">
        <ele>410.81</ele>
        <time>2021-05-16T08:33:50.000Z</time>
      </trkpt>
      <trkpt lat="43.3844" lon="5.44825">
        <ele>409.82</ele>
        <time>2021-05-16T08:33:53.000Z</time>
      </trkpt>
      <trkpt lat="43.3843" lon="5.44799">
        <ele>408.33</ele>
        <time>2021-05-16T08:33:56.000Z</time>
      </trkpt>
      <trkpt lat="43.38429" lon="5.44767">
        <ele>407.2</ele>
        <time>2021-05-16T08:33:59.000Z</time>
      </trkpt>
      <trkpt lat="43.38434" lon="5.44737">
        <ele>406.27</ele>
        <time>2021-05-16T08:34:02.000Z</time>
      </trkpt>
      <trkpt lat="43.38444" lon="5.44714">
        <ele>406.24</ele>
        <time>2021-05-16T08:34:05.000Z</time>
      </trkpt>
      <trkpt lat="43.38454" lon="5.44692">
        <ele>406.49</ele>
        <time>2021-05-16T08:34:08.000Z</time>
      </trkpt>
      <trkpt lat="43.38468" lon="5.44667">
        <ele>407.4</ele>
        <time>2021-05-16T08:34:12.000Z</time>
      </trkpt>
      <trkpt lat="43.3848" lon="5.44648">
        <ele>407.79</ele>
        <time>2021-05-16T08:34:15.000Z</time>
      </trkpt>
      <trkpt lat="43.38494" lon="5.44624">
        <ele>408.27</ele>
        <time>2021-05-16T08:34:19.000Z</time>
      </trkpt>
      <trkpt lat="43.38507" lon="5.44603">
        <ele>408.83</ele>
        <time>2021-05-16T08:34:23.000Z</time>
      </trkpt>
      <trkpt lat="43.38522" lon="5.44584">
        <ele>408.99</ele>
        <time>2021-05-16T08:34:27.000Z</time>
      </trkpt>
      <trkpt lat="43.38536" lon="5.44562">
        <ele>408.82</ele>
        <time>2021-05-16T08:34:31.000Z</time>
      </trkpt>
      <trkpt lat="43.38516" lon="5.44551">
        <ele>408.32</ele>
        <time>2021-05-16T08:34:37.000Z</time>
      </trkpt>
      <trkpt lat="43.38495" lon="5.44556">
        <ele>408.01</ele>
        <time>2021-05-16T08:34:41.000Z</time>
      </trkpt>
      <trkpt lat="43.38477" lon="5.44562">
        <ele>407.68</ele>
        <time>2021-05-16T08:34:44.000Z</time>
      </trkpt>
      <trkpt lat="43.38458" lon="5.44569">
        <ele>407.88</ele>
        <time>2021-05-16T08:34:47.000Z</time>
      </trkpt>
      <trkpt lat="43.38439" lon="5.44573">
        <ele>407.82</ele>
        <time>2021-05-16T08:34:50.000Z</time>
      </trkpt>
      <trkpt lat="43.38419" lon="5.44577">
        <ele>407.62</ele>
        <time>2021-05-16T08:34:53.000Z</time>
      </trkpt>
      <trkpt lat="43.38399" lon="5.44583">
        <ele>407.42</ele>
        <time>2021-05-16T08:34:56.000Z</time>
      </trkpt>
      <trkpt lat="43.3838" lon="5.44593">
        <ele>407.05</ele>
        <time>2021-05-16T08:34:59.000Z</time>
      </trkpt>
      <trkpt lat="43.3836" lon="5.44589">
        <ele>406.66</ele>
        <time>2021-05-16T08:35:02.000Z</time>
      </trkpt>
      <trkpt lat="43.38352" lon="5.44564">
        <ele>406.22</ele>
        <time>2021-05-16T08:35:06.000Z</time>
      </trkpt>
      <trkpt lat="43.38353" lon="5.44532">
        <ele>406.64</ele>
        <time>2021-05-16T08:35:10.000Z</time>
      </trkpt>
      <trkpt lat="43.38351" lon="5.44499">
        <ele>406.08</ele>
        <time>2021-05-16T08:35:14.000Z</time>
      </trkpt>
      <trkpt lat="43.38348" lon="5.44474">
        <ele>406.02</ele>
        <time>2021-05-16T08:35:17.000Z</time>
      </trkpt>
      <trkpt lat="43.38345" lon="5.44448">
        <ele>405.89</ele>
        <time>2021-05-16T08:35:20.000Z</time>
      </trkpt>
      <trkpt lat="43.38343" lon="5.44423">
        <ele>405.67</ele>
        <time>2021-05-16T08:35:23.000Z</time>
      </trkpt>
      <trkpt lat="43.38336" lon="5.44398">
        <ele>405.42</ele>
        <time>2021-05-16T08:35:26.000Z</time>
      </trkpt>
      <trkpt lat="43.38317" lon="5.4438">
        <ele>405.18</ele>
        <time>2021-05-16T08:35:30.000Z</time>
      </trkpt>
      <trkpt lat="43.38298" lon="5.44375">
        <ele>404.89</ele>
        <time>2021-05-16T08:35:33.000Z</time>
      </trkpt>
      <trkpt lat="43.38279" lon="5.4438">
        <ele>404.95</ele>
        <time>2021-05-16T08:35:36.000Z</time>
      </trkpt>
      <trkpt lat="43.3826" lon="5.44391">
        <ele>404.67</ele>
        <time>2021-05-16T08:35:39.000Z</time>
      </trkpt>
      <trkpt lat="43.38242" lon="5.44401">
        <ele>404.58</ele>
        <time>2021-05-16T08:35:42.000Z</time>
      </trkpt>
      <trkpt lat="43.38223" lon="5.44398">
        <ele>404.39</ele>
        <time>2021-05-16T08:35:45.000Z</time>
      </trkpt>
      <trkpt lat="43.38204" lon="5.44381">
        <ele>403.81</ele>
        <time>2021-05-16T08:35:49.000Z</time>
      </trkpt>
      <trkpt lat="43.38194" lon="5.44359">
        <ele>403.66</ele>
        <time>2021-05-16T08:35:52.000Z</time>
      </trkpt>
      <trkpt lat="43.38188" lon="5.44335">
        <ele>403.23</ele>
        <time>2021-05-16T08:35:55.000Z</time>
      </trkpt>
      <trkpt lat="43.3819" lon="5.44309">
        <ele>403.13</ele>
        <time>2021-05-16T08:35:58.000Z</time>
      </trkpt>
      <trkpt lat="43.38196" lon="5.44283">
        <ele>402.74</ele>
        <time>2021-05-16T08:36:01.000Z</time>
      </trkpt>
      <trkpt lat="43.38202" lon="5.44256">
        <ele>402.4</ele>
        <time>2021-05-16T08:36:04.000Z</time>
      </trkpt>
      <trkpt lat="43.382" lon="5.44229">
        <ele>401.7</ele>
        <time>2021-05-16T08:36:07.000Z</time>
      </trkpt>
      <trkpt lat="43.38193" lon="5.44204">
        <ele>401.03</ele>
        <time>2021-05-16T08:36:10.000Z</time>
      </trkpt>
      <trkpt lat="43.3818" lon="5.44184">
        <ele>401.07</ele>
        <time>2021-05-16T08:36:13.000Z</time>
      </trkpt>
      <trkpt lat="43.38158" lon="5.44182">
        <ele>400.35</ele>
        <time>2021-05-16T08:36:16.000Z</time>
      </trkpt>
      <trkpt lat="43.38139" lon="5.44188">
        <ele>400.03</ele>
        <time>2021-05-16T08:36:19.000Z</time>
      </trkpt>
      <trkpt lat="43.38119" lon="5.44184">
        <ele>399.94</ele>
        <time>2021-05-16T08:36:23.000Z</time>
      </trkpt>
      <trkpt lat="43.38117" lon="5.44154">
        <ele>399.75</ele>
        <time>2021-05-16T08:36:30.000Z</time>
      </trkpt>
      <trkpt lat="43.38129" lon="5.44126">
        <ele>399.84</ele>
        <time>2021-05-16T08:36:34.000Z</time>
      </trkpt>
      <trkpt lat="43.3814" lon="5.44104">
        <ele>399.29</ele>
        <time>2021-05-16T08:36:37.000Z</time>
      </trkpt>
      <trkpt lat="43.38147" lon="5.44077">
        <ele>398.64</ele>
        <time>2021-05-16T08:36:40.000Z</time>
      </trkpt>
      <trkpt lat="43.38157" lon="5.44054">
        <ele>398.05</ele>
        <time>2021-05-16T08:36:43.000Z</time>
      </trkpt>
      <trkpt lat="43.38175" lon="5.44046">
        <ele>397.48</ele>
        <time>2021-05-16T08:36:46.000Z</time>
      </trkpt>
      <trkpt lat="43.38191" lon="5.44034">
        <ele>397.24</ele>
        <time>2021-05-16T08:36:49.000Z</time>
      </trkpt>
      <trkpt lat="43.38209" lon="5.44024">
        <ele>396.18</ele>
        <time>2021-05-16T08:36:52.000Z</time>
      </trkpt>
      <trkpt lat="43.38229" lon="5.44017">
        <ele>395.53</ele>
        <time>2021-05-16T08:36:55.000Z</time>
      </trkpt>
      <trkpt lat="43.38249" lon="5.44004">
        <ele>394.88</ele>
        <time>2021-05-16T08:36:58.000Z</time>
      </trkpt>
      <trkpt lat="43.38268" lon="5.43993">
        <ele>394.28</ele>
        <time>2021-05-16T08:37:01.000Z</time>
      </trkpt>
      <trkpt lat="43.38287" lon="5.43989">
        <ele>393.39</ele>
        <time>2021-05-16T08:37:04.000Z</time>
      </trkpt>
      <trkpt lat="43.38293" lon="5.43965">
        <ele>392.12</ele>
        <time>2021-05-16T08:37:09.000Z</time>
      </trkpt>
      <trkpt lat="43.38275" lon="5.43956">
        <ele>391.81</ele>
        <time>2021-05-16T08:37:13.000Z</time>
      </trkpt>
      <trkpt lat="43.38252" lon="5.43946">
        <ele>391.59</ele>
        <time>2021-05-16T08:37:17.000Z</time>
      </trkpt>
      <trkpt lat="43.38235" lon="5.43938">
        <ele>390.86</ele>
        <time>2021-05-16T08:37:20.000Z</time>
      </trkpt>
      <trkpt lat="43.38217" lon="5.43925">
        <ele>390.72</ele>
        <time>2021-05-16T08:37:23.000Z</time>
      </trkpt>
      <trkpt lat="43.38201" lon="5.43911">
        <ele>390.27</ele>
        <time>2021-05-16T08:37:26.000Z</time>
      </trkpt>
      <trkpt lat="43.38185" lon="5.43893">
        <ele>389.83</ele>
        <time>2021-05-16T08:37:29.000Z</time>
      </trkpt>
      <trkpt lat="43.38169" lon="5.43874">
        <ele>389.31</ele>
        <time>2021-05-16T08:37:32.000Z</time>
      </trkpt>
      <trkpt lat="43.38155" lon="5.43852">
        <ele>389.21</ele>
        <time>2021-05-16T08:37:35.000Z</time>
      </trkpt>
      <trkpt lat="43.38139" lon="5.43835">
        <ele>388.34</ele>
        <time>2021-05-16T08:37:38.000Z</time>
      </trkpt>
      <trkpt lat="43.38122" lon="5.43822">
        <ele>386.94</ele>
        <time>2021-05-16T08:37:41.000Z</time>
      </trkpt>
      <trkpt lat="43.38115" lon="5.43794">
        <ele>386.66</ele>
        <time>2021-05-16T08:37:45.000Z</time>
      </trkpt>
      <trkpt lat="43.38121" lon="5.4377">
        <ele>386.31</ele>
        <time>2021-05-16T08:37:48.000Z</time>
      </trkpt>
      <trkpt lat="43.38125" lon="5.43745">
        <ele>385.61</ele>
        <time>2021-05-16T08:37:51.000Z</time>
      </trkpt>
      <trkpt lat="43.3813" lon="5.43717">
        <ele>384.89</ele>
        <time>2021-05-16T08:37:54.000Z</time>
      </trkpt>
      <trkpt lat="43.38129" lon="5.43691">
        <ele>384.38</ele>
        <time>2021-05-16T08:37:57.000Z</time>
      </trkpt>
      <trkpt lat="43.38111" lon="5.43677">
        <ele>382.98</ele>
        <time>2021-05-16T08:38:03.000Z</time>
      </trkpt>
      <trkpt lat="43.38095" lon="5.43691">
        <ele>382.39</ele>
        <time>2021-05-16T08:38:06.000Z</time>
      </trkpt>
      <trkpt lat="43.38075" lon="5.4369">
        <ele>381.83</ele>
        <time>2021-05-16T08:38:10.000Z</time>
      </trkpt>
      <trkpt lat="43.38054" lon="5.43677">
        <ele>380.98</ele>
        <time>2021-05-16T08:38:14.000Z</time>
      </trkpt>
      <trkpt lat="43.38036" lon="5.43671">
        <ele>380.51</ele>
        <time>2021-05-16T08:38:17.000Z</time>
      </trkpt>
      <trkpt lat="43.38016" lon="5.43676">
        <ele>380.65</ele>
        <time>2021-05-16T08:38:20.000Z</time>
      </trkpt>
      <trkpt lat="43.37997" lon="5.43677">
        <ele>380.03</ele>
        <time>2021-05-16T08:38:23.000Z</time>
      </trkpt>
      <trkpt lat="43.37977" lon="5.43671">
        <ele>379.63</ele>
        <time>2021-05-16T08:38:26.000Z</time>
      </trkpt>
      <trkpt lat="43.37956" lon="5.43664">
        <ele>379.22</ele>
        <time>2021-05-16T08:38:29.000Z</time>
      </trkpt>
      <trkpt lat="43.37937" lon="5.43655">
        <ele>378.55</ele>
        <time>2021-05-16T08:38:32.000Z</time>
      </trkpt>
      <trkpt lat="43.3792" lon="5.43642">
        <ele>377.81</ele>
        <time>2021-05-16T08:38:35.000Z</time>
      </trkpt>
      <trkpt lat="43.3791" lon="5.4362">
        <ele>377.71</ele>
        <time>2021-05-16T08:38:38.000Z</time>
      </trkpt>
      <trkpt lat="43.37907" lon="5.43592">
        <ele>377.17</ele>
        <time>2021-05-16T08:38:41.000Z</time>
      </trkpt>
      <trkpt lat="43.37905" lon="5.43564">
        <ele>377.01</ele>
        <time>2021-05-16T08:38:44.000Z</time>
      </trkpt>
      <trkpt lat="43.37908" lon="5.43537">
        <ele>375.97</ele>
        <time>2021-05-16T08:38:47.000Z</time>
      </trkpt>
      <trkpt lat="43.37914" lon="5.43512">
        <ele>375.58</ele>
        <time>2021-05-16T08:38:50.000Z</time>
      </trkpt>
      <trkpt lat="43.37922" lon="5.43487">
        <ele>374.76</ele>
        <time>2021-05-16T08:38:53.000Z</time>
      </trkpt>
      <trkpt lat="43.37923" lon="5.4346">
        <ele>374.13</ele>
        <time>2021-05-16T08:38:57.000Z</time>
      </trkpt>
      <trkpt lat="43.37901" lon="5.4345">
        <ele>373.37</ele>
        <time>2021-05-16T08:39:01.000Z</time>
      </trkpt>
      <trkpt lat="43.3788" lon="5.43438">
        <ele>372.7</ele>
        <time>2021-05-16T08:39:05.000Z</time>
      </trkpt>
      <trkpt lat="43.37865" lon="5.43411">
        <ele>372.44</ele>
        <time>2021-05-16T08:39:09.000Z</time>
      </trkpt>
      <trkpt lat="43.37859" lon="5.4338">
        <ele>371.79</ele>
        <time>2021-05-16T08:39:13.000Z</time>
      </trkpt>
      <trkpt lat="43.37859" lon="5.43355">
        <ele>371.51</ele>
        <time>2021-05-16T08:39:16.000Z</time>
      </trkpt>
      <trkpt lat="43.37864" lon="5.43324">
        <ele>371.19</ele>
        <time>2021-05-16T08:39:20.000Z</time>
      </trkpt>
      <trkpt lat="43.37855" lon="5.43294">
        <ele>370.09</ele>
        <time>2021-05-16T08:39:24.000Z</time>
      </trkpt>
      <trkpt lat="43.37835" lon="5.43292">
        <ele>370.66</ele>
        <time>2021-05-16T08:39:28.000Z</time>
      </trkpt>
      <trkpt lat="43.37815" lon="5.43293">
        <ele>373.16</ele>
        <time>2021-05-16T08:39:33.000Z</time>
      </trkpt>
      <trkpt lat="43.37819" lon="5.43265">
        <ele>377.2</ele>
        <time>2021-05-16T08:39:40.000Z</time>
      </trkpt>
      <trkpt lat="43.37825" lon="5.43241">
        <ele>380.08</ele>
        <time>2021-05-16T08:39:45.000Z</time>
      </trkpt>
      <trkpt lat="43.37835" lon="5.43217">
        <ele>381.52</ele>
        <time>2021-05-16T08:39:50.000Z</time>
      </trkpt>
      <trkpt lat="43.37848" lon="5.43194">
        <ele>384.22</ele>
        <time>2021-05-16T08:39:55.000Z</time>
      </trkpt>
      <trkpt lat="43.37862" lon="5.43172">
        <ele>386.72</ele>
        <time>2021-05-16T08:40:00.000Z</time>
      </trkpt>
      <trkpt lat="43.37875" lon="5.43148">
        <ele>388.42</ele>
        <time>2021-05-16T08:40:05.000Z</time>
      </trkpt>
      <trkpt lat="43.37887" lon="5.43125">
        <ele>390.43</ele>
        <time>2021-05-16T08:40:10.000Z</time>
      </trkpt>
      <trkpt lat="43.37898" lon="5.43103">
        <ele>393.26</ele>
        <time>2021-05-16T08:40:15.000Z</time>
      </trkpt>
      <trkpt lat="43.37908" lon="5.4308">
        <ele>394.79</ele>
        <time>2021-05-16T08:40:20.000Z</time>
      </trkpt>
      <trkpt lat="43.37923" lon="5.43061">
        <ele>396.53</ele>
        <time>2021-05-16T08:40:25.000Z</time>
      </trkpt>
      <trkpt lat="43.3794" lon="5.43052">
        <ele>398.06</ele>
        <time>2021-05-16T08:40:30.000Z</time>
      </trkpt>
      <trkpt lat="43.3796" lon="5.43057">
        <ele>399.33</ele>
        <time>2021-05-16T08:40:35.000Z</time>
      </trkpt>
      <trkpt lat="43.37979" lon="5.43064">
        <ele>401.07</ele>
        <time>2021-05-16T08:40:40.000Z</time>
      </trkpt>
      <trkpt lat="43.37999" lon="5.43063">
        <ele>401.99</ele>
        <time>2021-05-16T08:40:45.000Z</time>
      </trkpt>
      <trkpt lat="43.38016" lon="5.43051">
        <ele>403.64</ele>
        <time>2021-05-16T08:40:50.000Z</time>
      </trkpt>
      <trkpt lat="43.38032" lon="5.43033">
        <ele>406.6</ele>
        <time>2021-05-16T08:40:56.000Z</time>
      </trkpt>
      <trkpt lat="43.38045" lon="5.43013">
        <ele>408.38</ele>
        <time>2021-05-16T08:41:01.000Z</time>
      </trkpt>
      <trkpt lat="43.38059" lon="5.42994">
        <ele>410.89</ele>
        <time>2021-05-16T08:41:07.000Z</time>
      </trkpt>
      <trkpt lat="43.38064" lon="5.42965">
        <ele>412.99</ele>
        <time>2021-05-16T08:41:13.000Z</time>
      </trkpt>
      <trkpt lat="43.38061" lon="5.42938">
        <ele>413.92</ele>
        <time>2021-05-16T08:41:18.000Z</time>
      </trkpt>
      <trkpt lat="43.38042" lon="5.42926">
        <ele>416.93</ele>
        <time>2021-05-16T08:41:23.000Z</time>
      </trkpt>
      <trkpt lat="43.38021" lon="5.4292">
        <ele>419.02</ele>
        <time>2021-05-16T08:41:28.000Z</time>
      </trkpt>
      <trkpt lat="43.38002" lon="5.42909">
        <ele>419.02</ele>
        <time>2021-05-16T08:41:32.000Z</time>
      </trkpt>
      <trkpt lat="43.37983" lon="5.42895">
        <ele>420.26</ele>
        <time>2021-05-16T08:41:37.000Z</time>
      </trkpt>
      <trkpt lat="43.37963" lon="5.42882">
        <ele>421.42</ele>
        <time>2021-05-16T08:41:42.000Z</time>
      </trkpt>
      <trkpt lat="43.37945" lon="5.42868">
        <ele>422.75</ele>
        <time>2021-05-16T08:41:47.000Z</time>
      </trkpt>
      <trkpt lat="43.37929" lon="5.42857">
        <ele>423.26</ele>
        <time>2021-05-16T08:41:51.000Z</time>
      </trkpt>
      <trkpt lat="43.37913" lon="5.42843">
        <ele>424.37</ele>
        <time>2021-05-16T08:41:55.000Z</time>
      </trkpt>
      <trkpt lat="43.379" lon="5.42821">
        <ele>425.3</ele>
        <time>2021-05-16T08:42:00.000Z</time>
      </trkpt>
      <trkpt lat="43.37908" lon="5.42797">
        <ele>427.48</ele>
        <time>2021-05-16T08:42:06.000Z</time>
      </trkpt>
      <trkpt lat="43.37928" lon="5.42783">
        <ele>428.62</ele>
        <time>2021-05-16T08:42:11.000Z</time>
      </trkpt>
      <trkpt lat="43.37946" lon="5.4277">
        <ele>430.63</ele>
        <time>2021-05-16T08:42:16.000Z</time>
      </trkpt>
      <trkpt lat="43.37962" lon="5.42749">
        <ele>431.65</ele>
        <time>2021-05-16T08:42:21.000Z</time>
      </trkpt>
      <trkpt lat="43.37971" lon="5.42722">
        <ele>433.04</ele>
        <time>2021-05-16T08:42:26.000Z</time>
      </trkpt>
      <trkpt lat="43.37979" lon="5.42699">
        <ele>434.35</ele>
        <time>2021-05-16T08:42:30.000Z</time>
      </trkpt>
      <trkpt lat="43.37986" lon="5.42674">
        <ele>434.94</ele>
        <time>2021-05-16T08:42:34.000Z</time>
      </trkpt>
      <trkpt lat="43.37995" lon="5.42652">
        <ele>435.7</ele>
        <time>2021-05-16T08:42:38.000Z</time>
      </trkpt>
      <trkpt lat="43.3801" lon="5.42636">
        <ele>435.67</ele>
        <time>2021-05-16T08:42:42.000Z</time>
      </trkpt>
      <trkpt lat="43.38028" lon="5.42627">
        <ele>436.01</ele>
        <time>2021-05-16T08:42:46.000Z</time>
      </trkpt>
      <trkpt lat="43.38043" lon="5.42612">
        <ele>436.8</ele>
        <time>2021-05-16T08:42:50.000Z</time>
      </trkpt>
      <trkpt lat="43.38059" lon="5.42597">
        <ele>437.77</ele>
        <time>2021-05-16T08:42:54.000Z</time>
      </trkpt>
      <trkpt lat="43.38077" lon="5.42589">
        <ele>438.22</ele>
        <time>2021-05-16T08:42:58.000Z</time>
      </trkpt>
      <trkpt lat="43.38087" lon="5.42567">
        <ele>438.81</ele>
        <time>2021-05-16T08:43:02.000Z</time>
      </trkpt>
      <trkpt lat="43.38086" lon="5.42536">
        <ele>439.05</ele>
        <time>2021-05-16T08:43:06.000Z</time>
      </trkpt>
      <trkpt lat="43.38084" lon="5.42507">
        <ele>439.5</ele>
        <time>2021-05-16T08:43:10.000Z</time>
      </trkpt>
      <trkpt lat="43.38076" lon="5.42485">
        <ele>438.98</ele>
        <time>2021-05-16T08:43:13.000Z</time>
      </trkpt>
      <trkpt lat="43.38058" lon="5.42464">
        <ele>439.33</ele>
        <time>2021-05-16T08:43:17.000Z</time>
      </trkpt>
      <trkpt lat="43.38039" lon="5.42445">
        <ele>439.53</ele>
        <time>2021-05-16T08:43:21.000Z</time>
      </trkpt>
      <trkpt lat="43.38019" lon="5.42431">
        <ele>440.28</ele>
        <time>2021-05-16T08:43:25.000Z</time>
      </trkpt>
      <trkpt lat="43.38002" lon="5.42413">
        <ele>440.84</ele>
        <time>2021-05-16T08:43:29.000Z</time>
      </trkpt>
      <trkpt lat="43.37983" lon="5.42397">
        <ele>440.99</ele>
        <time>2021-05-16T08:43:33.000Z</time>
      </trkpt>
      <trkpt lat="43.37966" lon="5.42376">
        <ele>440.8</ele>
        <time>2021-05-16T08:43:37.000Z</time>
      </trkpt>
      <trkpt lat="43.37952" lon="5.42358">
        <ele>440.42</ele>
        <time>2021-05-16T08:43:40.000Z</time>
      </trkpt>
      <trkpt lat="43.37943" lon="5.42333">
        <ele>440.32</ele>
        <time>2021-05-16T08:43:44.000Z</time>
      </trkpt>
      <trkpt lat="43.37945" lon="5.42302">
        <ele>440.13</ele>
        <time>2021-05-16T08:43:48.000Z</time>
      </trkpt>
      <trkpt lat="43.3795" lon="5.42273">
        <ele>441.19</ele>
        <time>2021-05-16T08:43:52.000Z</time>
      </trkpt>
      <trkpt lat="43.37962" lon="5.42249">
        <ele>442.3</ele>
        <time>2021-05-16T08:43:56.000Z</time>
      </trkpt>
      <trkpt lat="43.37978" lon="5.42232">
        <ele>443.93</ele>
        <time>2021-05-16T08:44:00.000Z</time>
      </trkpt>
      <trkpt lat="43.37994" lon="5.42213">
        <ele>444.79</ele>
        <time>2021-05-16T08:44:04.000Z</time>
      </trkpt>
      <trkpt lat="43.38006" lon="5.42189">
        <ele>446.55</ele>
        <time>2021-05-16T08:44:08.000Z</time>
      </trkpt>
      <trkpt lat="43.38014" lon="5.42163">
        <ele>447.53</ele>
        <time>2021-05-16T08:44:12.000Z</time>
      </trkpt>
      <trkpt lat="43.38017" lon="5.42133">
        <ele>448</ele>
        <time>2021-05-16T08:44:16.000Z</time>
      </trkpt>
      <trkpt lat="43.38019" lon="5.42104">
        <ele>448.37</ele>
        <time>2021-05-16T08:44:20.000Z</time>
      </trkpt>
      <trkpt lat="43.38019" lon="5.42075">
        <ele>448.72</ele>
        <time>2021-05-16T08:44:24.000Z</time>
      </trkpt>
      <trkpt lat="43.38023" lon="5.42049">
        <ele>450.1</ele>
        <time>2021-05-16T08:44:28.000Z</time>
      </trkpt>
      <trkpt lat="43.38031" lon="5.42027">
        <ele>450.56</ele>
        <time>2021-05-16T08:44:33.000Z</time>
      </trkpt>
      <trkpt lat="43.38047" lon="5.42013">
        <ele>452.3</ele>
        <time>2021-05-16T08:44:39.000Z</time>
      </trkpt>
      <trkpt lat="43.38069" lon="5.42007">
        <ele>453.48</ele>
        <time>2021-05-16T08:44:44.000Z</time>
      </trkpt>
      <trkpt lat="43.38089" lon="5.42011">
        <ele>455.59</ele>
        <time>2021-05-16T08:44:49.000Z</time>
      </trkpt>
      <trkpt lat="43.38109" lon="5.42019">
        <ele>457.33</ele>
        <time>2021-05-16T08:44:54.000Z</time>
      </trkpt>
      <trkpt lat="43.38128" lon="5.42031">
        <ele>458.77</ele>
        <time>2021-05-16T08:44:59.000Z</time>
      </trkpt>
      <trkpt lat="43.38144" lon="5.42046">
        <ele>460.16</ele>
        <time>2021-05-16T08:45:04.000Z</time>
      </trkpt>
      <trkpt lat="43.38159" lon="5.42061">
        <ele>461.29</ele>
        <time>2021-05-16T08:45:09.000Z</time>
      </trkpt>
      <trkpt lat="43.38173" lon="5.42078">
        <ele>463.25</ele>
        <time>2021-05-16T08:45:14.000Z</time>
      </trkpt>
      <trkpt lat="43.38193" lon="5.42078">
        <ele>464.8</ele>
        <time>2021-05-16T08:45:19.000Z</time>
      </trkpt>
      <trkpt lat="43.38212" lon="5.4207">
        <ele>466.31</ele>
        <time>2021-05-16T08:45:24.000Z</time>
      </trkpt>
      <trkpt lat="43.38232" lon="5.42062">
        <ele>468.3</ele>
        <time>2021-05-16T08:45:29.000Z</time>
      </trkpt>
      <trkpt lat="43.38251" lon="5.42051">
        <ele>470.3</ele>
        <time>2021-05-16T08:45:34.000Z</time>
      </trkpt>
      <trkpt lat="43.3827" lon="5.42043">
        <ele>471.87</ele>
        <time>2021-05-16T08:45:39.000Z</time>
      </trkpt>
      <trkpt lat="43.3829" lon="5.42045">
        <ele>473.93</ele>
        <time>2021-05-16T08:45:45.000Z</time>
      </trkpt>
      <trkpt lat="43.38307" lon="5.42055">
        <ele>475.54</ele>
        <time>2021-05-16T08:45:50.000Z</time>
      </trkpt>
      <trkpt lat="43.38326" lon="5.42065">
        <ele>477.59</ele>
        <time>2021-05-16T08:45:56.000Z</time>
      </trkpt>
      <trkpt lat="43.38338" lon="5.42084">
        <ele>480.01</ele>
        <time>2021-05-16T08:46:01.000Z</time>
      </trkpt>
      <trkpt lat="43.38349" lon="5.42103">
        <ele>482.2</ele>
        <time>2021-05-16T08:46:06.000Z</time>
      </trkpt>
      <trkpt lat="43.38358" lon="5.42125">
        <ele>483.77</ele>
        <time>2021-05-16T08:46:11.000Z</time>
      </trkpt>
      <trkpt lat="43.38364" lon="5.4215">
        <ele>485.89</ele>
        <time>2021-05-16T08:46:16.000Z</time>
      </trkpt>
      <trkpt lat="43.38369" lon="5.42174">
        <ele>486.91</ele>
        <time>2021-05-16T08:46:21.000Z</time>
      </trkpt>
      <trkpt lat="43.38375" lon="5.42199">
        <ele>488.71</ele>
        <time>2021-05-16T08:46:26.000Z</time>
      </trkpt>
      <trkpt lat="43.38391" lon="5.4221">
        <ele>490.56</ele>
        <time>2021-05-16T08:46:31.000Z</time>
      </trkpt>
      <trkpt lat="43.38409" lon="5.42195">
        <ele>492.53</ele>
        <time>2021-05-16T08:46:36.000Z</time>
      </trkpt>
      <trkpt lat="43.38424" lon="5.42178">
        <ele>494.14</ele>
        <time>2021-05-16T08:46:41.000Z</time>
      </trkpt>
      <trkpt lat="43.38442" lon="5.42166">
        <ele>495.69</ele>
        <time>2021-05-16T08:46:46.000Z</time>
      </trkpt>
      <trkpt lat="43.38453" lon="5.42142">
        <ele>496.9</ele>
        <time>2021-05-16T08:46:51.000Z</time>
      </trkpt>
      <trkpt lat="43.38457" lon="5.42112">
        <ele>498.68</ele>
        <time>2021-05-16T08:46:56.000Z</time>
      </trkpt>
      <trkpt lat="43.38471" lon="5.42089">
        <ele>500.48</ele>
        <time>2021-05-16T08:47:01.000Z</time>
      </trkpt>
      <trkpt lat="43.38484" lon="5.42069">
        <ele>503.7</ele>
        <time>2021-05-16T08:47:06.000Z</time>
      </trkpt>
      <trkpt lat="43.38489" lon="5.42042">
        <ele>505.24</ele>
        <time>2021-05-16T08:47:11.000Z</time>
      </trkpt>
      <trkpt lat="43.38486" lon="5.42013">
        <ele>506.72</ele>
        <time>2021-05-16T08:47:16.000Z</time>
      </trkpt>
      <trkpt lat="43.38485" lon="5.41985">
        <ele>508.27</ele>
        <time>2021-05-16T08:47:21.000Z</time>
      </trkpt>
      <trkpt lat="43.38489" lon="5.41959">
        <ele>510.03</ele>
        <time>2021-05-16T08:47:26.000Z</time>
      </trkpt>
      <trkpt lat="43.38497" lon="5.41935">
        <ele>512.04</ele>
        <time>2021-05-16T08:47:31.000Z</time>
      </trkpt>
      <trkpt lat="43.38515" lon="5.41925">
        <ele>513.26</ele>
        <time>2021-05-16T08:47:36.000Z</time>
      </trkpt>
      <trkpt lat="43.38533" lon="5.41938">
        <ele>515.04</ele>
        <time>2021-05-16T08:47:41.000Z</time>
      </trkpt>
      <trkpt lat="43.38543" lon="5.41963">
        <ele>517.23</ele>
        <time>2021-05-16T08:47:46.000Z</time>
      </trkpt>
      <trkpt lat="43.38559" lon="5.41977">
        <ele>518.69</ele>
        <time>2021-05-16T08:47:50.000Z</time>
      </trkpt>
      <trkpt lat="43.38577" lon="5.4198">
        <ele>520.29</ele>
        <time>2021-05-16T08:47:55.000Z</time>
      </trkpt>
      <trkpt lat="43.38596" lon="5.41975">
        <ele>521.65</ele>
        <time>2021-05-16T08:48:02.000Z</time>
      </trkpt>
      <trkpt lat="43.38615" lon="5.41974">
        <ele>524</ele>
        <time>2021-05-16T08:48:13.000Z</time>
      </trkpt>
      <trkpt lat="43.38629" lon="5.41956">
        <ele>524.11</ele>
        <time>2021-05-16T08:49:23.000Z</time>
      </trkpt>
      <trkpt lat="43.38644" lon="5.41941">
        <ele>525.16</ele>
        <time>2021-05-16T08:53:54.000Z</time>
      </trkpt>
      <trkpt lat="43.38659" lon="5.41926">
        <ele>525.27</ele>
        <time>2021-05-16T08:54:00.000Z</time>
      </trkpt>
      <trkpt lat="43.38672" lon="5.41909">
        <ele>525.19</ele>
        <time>2021-05-16T08:54:05.000Z</time>
      </trkpt>
      <trkpt lat="43.38684" lon="5.4189">
        <ele>524.87</ele>
        <time>2021-05-16T08:54:09.000Z</time>
      </trkpt>
      <trkpt lat="43.38698" lon="5.4187">
        <ele>524.47</ele>
        <time>2021-05-16T08:54:13.000Z</time>
      </trkpt>
      <trkpt lat="43.38712" lon="5.4185">
        <ele>524.08</ele>
        <time>2021-05-16T08:54:17.000Z</time>
      </trkpt>
      <trkpt lat="43.38728" lon="5.41827">
        <ele>522.79</ele>
        <time>2021-05-16T08:54:21.000Z</time>
      </trkpt>
      <trkpt lat="43.38743" lon="5.41809">
        <ele>521.88</ele>
        <time>2021-05-16T08:54:24.000Z</time>
      </trkpt>
      <trkpt lat="43.38757" lon="5.4179">
        <ele>521.4</ele>
        <time>2021-05-16T08:54:27.000Z</time>
      </trkpt>
      <trkpt lat="43.38774" lon="5.4177">
        <ele>519.31</ele>
        <time>2021-05-16T08:54:30.000Z</time>
      </trkpt>
      <trkpt lat="43.38788" lon="5.4175">
        <ele>518.78</ele>
        <time>2021-05-16T08:54:33.000Z</time>
      </trkpt>
      <trkpt lat="43.38805" lon="5.41738">
        <ele>518.77</ele>
        <time>2021-05-16T08:54:36.000Z</time>
      </trkpt>
      <trkpt lat="43.38823" lon="5.41721">
        <ele>519.01</ele>
        <time>2021-05-16T08:54:40.000Z</time>
      </trkpt>
      <trkpt lat="43.38838" lon="5.41703">
        <ele>519.87</ele>
        <time>2021-05-16T08:54:45.000Z</time>
      </trkpt>
      <trkpt lat="43.38846" lon="5.41676">
        <ele>522.68</ele>
        <time>2021-05-16T08:54:51.000Z</time>
      </trkpt>
      <trkpt lat="43.38853" lon="5.4165">
        <ele>525.23</ele>
        <time>2021-05-16T08:54:56.000Z</time>
      </trkpt>
      <trkpt lat="43.3887" lon="5.41632">
        <ele>527.27</ele>
        <time>2021-05-16T08:55:01.000Z</time>
      </trkpt>
      <trkpt lat="43.38888" lon="5.41624">
        <ele>528.81</ele>
        <time>2021-05-16T08:55:05.000Z</time>
      </trkpt>
      <trkpt lat="43.38902" lon="5.41604">
        <ele>530.3</ele>
        <time>2021-05-16T08:55:10.000Z</time>
      </trkpt>
      <trkpt lat="43.38912" lon="5.41583">
        <ele>532.06</ele>
        <time>2021-05-16T08:55:16.000Z</time>
      </trkpt>
      <trkpt lat="43.38922" lon="5.4156">
        <ele>531.55</ele>
        <time>2021-05-16T08:55:23.000Z</time>
      </trkpt>
      <trkpt lat="43.38933" lon="5.41537">
        <ele>530.04</ele>
        <time>2021-05-16T08:55:28.000Z</time>
      </trkpt>
      <trkpt lat="43.3894" lon="5.41512">
        <ele>527.53</ele>
        <time>2021-05-16T08:55:32.000Z</time>
      </trkpt>
      <trkpt lat="43.38939" lon="5.41485">
        <ele>526.36</ele>
        <time>2021-05-16T08:55:36.000Z</time>
      </trkpt>
      <trkpt lat="43.38946" lon="5.41459">
        <ele>525.09</ele>
        <time>2021-05-16T08:55:40.000Z</time>
      </trkpt>
      <trkpt lat="43.38956" lon="5.41433">
        <ele>523.28</ele>
        <time>2021-05-16T08:55:44.000Z</time>
      </trkpt>
      <trkpt lat="43.38967" lon="5.41409">
        <ele>520.54</ele>
        <time>2021-05-16T08:55:48.000Z</time>
      </trkpt>
      <trkpt lat="43.38976" lon="5.41386">
        <ele>518.12</ele>
        <time>2021-05-16T08:55:51.000Z</time>
      </trkpt>
      <trkpt lat="43.38989" lon="5.41366">
        <ele>516.36</ele>
        <time>2021-05-16T08:55:54.000Z</time>
      </trkpt>
      <trkpt lat="43.39004" lon="5.41349">
        <ele>515.91</ele>
        <time>2021-05-16T08:55:57.000Z</time>
      </trkpt>
      <trkpt lat="43.39012" lon="5.41325">
        <ele>515.57</ele>
        <time>2021-05-16T08:56:01.000Z</time>
      </trkpt>
      <trkpt lat="43.3902" lon="5.413">
        <ele>515.47</ele>
        <time>2021-05-16T08:56:06.000Z</time>
      </trkpt>
      <trkpt lat="43.39021" lon="5.41274">
        <ele>515.72</ele>
        <time>2021-05-16T08:56:11.000Z</time>
      </trkpt>
      <trkpt lat="43.39019" lon="5.41245">
        <ele>514.09</ele>
        <time>2021-05-16T08:56:16.000Z</time>
      </trkpt>
      <trkpt lat="43.39009" lon="5.41218">
        <ele>513.04</ele>
        <time>2021-05-16T08:56:21.000Z</time>
      </trkpt>
      <trkpt lat="43.39004" lon="5.41194">
        <ele>511.93</ele>
        <time>2021-05-16T08:56:25.000Z</time>
      </trkpt>
      <trkpt lat="43.39003" lon="5.41168">
        <ele>512.49</ele>
        <time>2021-05-16T08:56:30.000Z</time>
      </trkpt>
      <trkpt lat="43.39004" lon="5.4114">
        <ele>515.76</ele>
        <time>2021-05-16T08:56:38.000Z</time>
      </trkpt>
      <trkpt lat="43.39012" lon="5.41113">
        <ele>519.09</ele>
        <time>2021-05-16T08:56:45.000Z</time>
      </trkpt>
      <trkpt lat="43.3902" lon="5.41088">
        <ele>520.98</ele>
        <time>2021-05-16T08:56:51.000Z</time>
      </trkpt>
      <trkpt lat="43.39028" lon="5.41065">
        <ele>521.8</ele>
        <time>2021-05-16T08:56:57.000Z</time>
      </trkpt>
      <trkpt lat="43.39027" lon="5.41039">
        <ele>522.99</ele>
        <time>2021-05-16T08:57:04.000Z</time>
      </trkpt>
      <trkpt lat="43.39023" lon="5.41011">
        <ele>525.03</ele>
        <time>2021-05-16T08:57:11.000Z</time>
      </trkpt>
      <trkpt lat="43.39027" lon="5.40982">
        <ele>525.11</ele>
        <time>2021-05-16T08:57:18.000Z</time>
      </trkpt>
      <trkpt lat="43.39034" lon="5.40954">
        <ele>525.54</ele>
        <time>2021-05-16T08:57:24.000Z</time>
      </trkpt>
      <trkpt lat="43.39042" lon="5.4093">
        <ele>526.58</ele>
        <time>2021-05-16T08:57:30.000Z</time>
      </trkpt>
      <trkpt lat="43.39048" lon="5.40905">
        <ele>528.71</ele>
        <time>2021-05-16T08:57:39.000Z</time>
      </trkpt>
      <trkpt lat="43.39056" lon="5.4088">
        <ele>531.62</ele>
        <time>2021-05-16T08:57:47.000Z</time>
      </trkpt>
      <trkpt lat="43.39063" lon="5.40857">
        <ele>532.64</ele>
        <time>2021-05-16T08:57:54.000Z</time>
      </trkpt>
      <trkpt lat="43.39072" lon="5.40832">
        <ele>535.27</ele>
        <time>2021-05-16T08:58:03.000Z</time>
      </trkpt>
      <trkpt lat="43.39082" lon="5.4081">
        <ele>537.66</ele>
        <time>2021-05-16T08:58:12.000Z</time>
      </trkpt>
      <trkpt lat="43.39099" lon="5.40797">
        <ele>535.58</ele>
        <time>2021-05-16T08:58:23.000Z</time>
      </trkpt>
      <trkpt lat="43.39117" lon="5.40784">
        <ele>530.39</ele>
        <time>2021-05-16T08:58:32.000Z</time>
      </trkpt>
      <trkpt lat="43.39134" lon="5.40769">
        <ele>525.85</ele>
        <time>2021-05-16T08:58:39.000Z</time>
      </trkpt>
      <trkpt lat="43.39151" lon="5.40756">
        <ele>521.55</ele>
        <time>2021-05-16T08:58:44.000Z</time>
      </trkpt>
      <trkpt lat="43.39168" lon="5.40741">
        <ele>516.94</ele>
        <time>2021-05-16T08:58:49.000Z</time>
      </trkpt>
      <trkpt lat="43.39185" lon="5.4072">
        <ele>512.37</ele>
        <time>2021-05-16T08:58:53.000Z</time>
      </trkpt>
      <trkpt lat="43.39207" lon="5.40711">
        <ele>507.05</ele>
        <time>2021-05-16T08:58:58.000Z</time>
      </trkpt>
      <trkpt lat="43.3923" lon="5.40716">
        <ele>502.64</ele>
        <time>2021-05-16T08:59:02.000Z</time>
      </trkpt>
      <trkpt lat="43.39248" lon="5.40717">
        <ele>500.11</ele>
        <time>2021-05-16T08:59:05.000Z</time>
      </trkpt>
      <trkpt lat="43.39267" lon="5.40715">
        <ele>497.86</ele>
        <time>2021-05-16T08:59:08.000Z</time>
      </trkpt>
      <trkpt lat="43.39286" lon="5.4071">
        <ele>496.66</ele>
        <time>2021-05-16T08:59:12.000Z</time>
      </trkpt>
      <trkpt lat="43.39305" lon="5.40705">
        <ele>494.6</ele>
        <time>2021-05-16T08:59:17.000Z</time>
      </trkpt>
      <trkpt lat="43.39325" lon="5.407">
        <ele>490.24</ele>
        <time>2021-05-16T08:59:34.000Z</time>
      </trkpt>
      <trkpt lat="43.39345" lon="5.40702">
        <ele>485.5</ele>
        <time>2021-05-16T08:59:38.000Z</time>
      </trkpt>
      <trkpt lat="43.39367" lon="5.40714">
        <ele>480.04</ele>
        <time>2021-05-16T08:59:42.000Z</time>
      </trkpt>
      <trkpt lat="43.39387" lon="5.40716">
        <ele>473.8</ele>
        <time>2021-05-16T08:59:45.000Z</time>
      </trkpt>
      <trkpt lat="43.39412" lon="5.40712">
        <ele>468.33</ele>
        <time>2021-05-16T08:59:48.000Z</time>
      </trkpt>
      <trkpt lat="43.39433" lon="5.40713">
        <ele>463.98</ele>
        <time>2021-05-16T08:59:51.000Z</time>
      </trkpt>
      <trkpt lat="43.3944" lon="5.40689">
        <ele>459.34</ele>
        <time>2021-05-16T09:00:04.000Z</time>
      </trkpt>
      <trkpt lat="43.39424" lon="5.40673">
        <ele>458.16</ele>
        <time>2021-05-16T09:00:13.000Z</time>
      </trkpt>
      <trkpt lat="43.39409" lon="5.40654">
        <ele>456.53</ele>
        <time>2021-05-16T09:00:20.000Z</time>
      </trkpt>
      <trkpt lat="43.39396" lon="5.40634">
        <ele>454.66</ele>
        <time>2021-05-16T09:00:26.000Z</time>
      </trkpt>
      <trkpt lat="43.39389" lon="5.4061">
        <ele>451.79</ele>
        <time>2021-05-16T09:00:32.000Z</time>
      </trkpt>
      <trkpt lat="43.39383" lon="5.40584">
        <ele>449.1</ele>
        <time>2021-05-16T09:00:38.000Z</time>
      </trkpt>
      <trkpt lat="43.39372" lon="5.40557">
        <ele>447.59</ele>
        <time>2021-05-16T09:00:42.000Z</time>
      </trkpt>
      <trkpt lat="43.39358" lon="5.4054">
        <ele>444.78</ele>
        <time>2021-05-16T09:00:46.000Z</time>
      </trkpt>
      <trkpt lat="43.3934" lon="5.40529">
        <ele>442.67</ele>
        <time>2021-05-16T09:00:50.000Z</time>
      </trkpt>
      <trkpt lat="43.39321" lon="5.40519">
        <ele>440.04</ele>
        <time>2021-05-16T09:00:54.000Z</time>
      </trkpt>
      <trkpt lat="43.39301" lon="5.4051">
        <ele>437.37</ele>
        <time>2021-05-16T09:00:58.000Z</time>
      </trkpt>
      <trkpt lat="43.39279" lon="5.40505">
        <ele>434.31</ele>
        <time>2021-05-16T09:01:02.000Z</time>
      </trkpt>
      <trkpt lat="43.39261" lon="5.40492">
        <ele>431.12</ele>
        <time>2021-05-16T09:01:06.000Z</time>
      </trkpt>
      <trkpt lat="43.39241" lon="5.40475">
        <ele>428.24</ele>
        <time>2021-05-16T09:01:10.000Z</time>
      </trkpt>
      <trkpt lat="43.39224" lon="5.40468">
        <ele>425.79</ele>
        <time>2021-05-16T09:01:13.000Z</time>
      </trkpt>
      <trkpt lat="43.39212" lon="5.40448">
        <ele>423.07</ele>
        <time>2021-05-16T09:01:16.000Z</time>
      </trkpt>
      <trkpt lat="43.39194" lon="5.40429">
        <ele>420.14</ele>
        <time>2021-05-16T09:01:20.000Z</time>
      </trkpt>
      <trkpt lat="43.39175" lon="5.40421">
        <ele>417.49</ele>
        <time>2021-05-16T09:01:24.000Z</time>
      </trkpt>
      <trkpt lat="43.39165" lon="5.40397">
        <ele>416.66</ele>
        <time>2021-05-16T09:01:27.000Z</time>
      </trkpt>
      <trkpt lat="43.39149" lon="5.40377">
        <ele>416.6</ele>
        <time>2021-05-16T09:01:32.000Z</time>
      </trkpt>
      <trkpt lat="43.3913" lon="5.40366">
        <ele>417.87</ele>
        <time>2021-05-16T09:01:38.000Z</time>
      </trkpt>
      <trkpt lat="43.39109" lon="5.40361">
        <ele>418.99</ele>
        <time>2021-05-16T09:01:43.000Z</time>
      </trkpt>
      <trkpt lat="43.39093" lon="5.40346">
        <ele>420.21</ele>
        <time>2021-05-16T09:01:49.000Z</time>
      </trkpt>
      <trkpt lat="43.39077" lon="5.40328">
        <ele>421.24</ele>
        <time>2021-05-16T09:01:55.000Z</time>
      </trkpt>
      <trkpt lat="43.39061" lon="5.4031">
        <ele>421.61</ele>
        <time>2021-05-16T09:02:01.000Z</time>
      </trkpt>
      <trkpt lat="43.39046" lon="5.40296">
        <ele>422.64</ele>
        <time>2021-05-16T09:02:07.000Z</time>
      </trkpt>
      <trkpt lat="43.39027" lon="5.40291">
        <ele>423.02</ele>
        <time>2021-05-16T09:02:13.000Z</time>
      </trkpt>
      <trkpt lat="43.39009" lon="5.40305">
        <ele>424.11</ele>
        <time>2021-05-16T09:02:20.000Z</time>
      </trkpt>
      <trkpt lat="43.38998" lon="5.40327">
        <ele>425.42</ele>
        <time>2021-05-16T09:02:27.000Z</time>
      </trkpt>
      <trkpt lat="43.38984" lon="5.40345">
        <ele>427.38</ele>
        <time>2021-05-16T09:02:35.000Z</time>
      </trkpt>
      <trkpt lat="43.38971" lon="5.40361">
        <ele>429.49</ele>
        <time>2021-05-16T09:02:43.000Z</time>
      </trkpt>
      <trkpt lat="43.38955" lon="5.40377">
        <ele>430.55</ele>
        <time>2021-05-16T09:02:52.000Z</time>
      </trkpt>
      <trkpt lat="43.38938" lon="5.40391">
        <ele>432.06</ele>
        <time>2021-05-16T09:03:01.000Z</time>
      </trkpt>
      <trkpt lat="43.38921" lon="5.40405">
        <ele>433.04</ele>
        <time>2021-05-16T09:03:10.000Z</time>
      </trkpt>
      <trkpt lat="43.38903" lon="5.40416">
        <ele>434.26</ele>
        <time>2021-05-16T09:03:19.000Z</time>
      </trkpt>
      <trkpt lat="43.38884" lon="5.40413">
        <ele>434.94</ele>
        <time>2021-05-16T09:03:28.000Z</time>
      </trkpt>
      <trkpt lat="43.38865" lon="5.40407">
        <ele>436.54</ele>
        <time>2021-05-16T09:03:38.000Z</time>
      </trkpt>
      <trkpt lat="43.38867" lon="5.40433">
        <ele>437.6</ele>
        <time>2021-05-16T09:03:51.000Z</time>
      </trkpt>
      <trkpt lat="43.38877" lon="5.40456">
        <ele>438.4</ele>
        <time>2021-05-16T09:04:00.000Z</time>
      </trkpt>
      <trkpt lat="43.38884" lon="5.40479">
        <ele>439.46</ele>
        <time>2021-05-16T09:04:09.000Z</time>
      </trkpt>
      <trkpt lat="43.38895" lon="5.40502">
        <ele>440.92</ele>
        <time>2021-05-16T09:04:19.000Z</time>
      </trkpt>
      <trkpt lat="43.38904" lon="5.40523">
        <ele>442.68</ele>
        <time>2021-05-16T09:04:28.000Z</time>
      </trkpt>
      <trkpt lat="43.38909" lon="5.40549">
        <ele>444.24</ele>
        <time>2021-05-16T09:04:37.000Z</time>
      </trkpt>
      <trkpt lat="43.38911" lon="5.40576">
        <ele>446.29</ele>
        <time>2021-05-16T09:04:47.000Z</time>
      </trkpt>
      <trkpt lat="43.38913" lon="5.40603">
        <ele>448.04</ele>
        <time>2021-05-16T09:04:57.000Z</time>
      </trkpt>
      <trkpt lat="43.38913" lon="5.40628">
        <ele>449.83</ele>
        <time>2021-05-16T09:05:07.000Z</time>
      </trkpt>
      <trkpt lat="43.38913" lon="5.40654">
        <ele>451.69</ele>
        <time>2021-05-16T09:05:16.000Z</time>
      </trkpt>
      <trkpt lat="43.38913" lon="5.4068">
        <ele>453.25</ele>
        <time>2021-05-16T09:05:25.000Z</time>
      </trkpt>
      <trkpt lat="43.38917" lon="5.40705">
        <ele>454.45</ele>
        <time>2021-05-16T09:05:34.000Z</time>
      </trkpt>
      <trkpt lat="43.38922" lon="5.4073">
        <ele>456.18</ele>
        <time>2021-05-16T09:05:44.000Z</time>
      </trkpt>
      <trkpt lat="43.38926" lon="5.40754">
        <ele>457.8</ele>
        <time>2021-05-16T09:05:54.000Z</time>
      </trkpt>
      <trkpt lat="43.38929" lon="5.40779">
        <ele>459.78</ele>
        <time>2021-05-16T09:06:04.000Z</time>
      </trkpt>
      <trkpt lat="43.3893" lon="5.40805">
        <ele>461.95</ele>
        <time>2021-05-16T09:06:15.000Z</time>
      </trkpt>
      <trkpt lat="43.38928" lon="5.4083">
        <ele>463.58</ele>
        <time>2021-05-16T09:06:25.000Z</time>
      </trkpt>
      <trkpt lat="43.38921" lon="5.40854">
        <ele>465.69</ele>
        <time>2021-05-16T09:06:35.000Z</time>
      </trkpt>
      <trkpt lat="43.38907" lon="5.4087">
        <ele>467.2</ele>
        <time>2021-05-16T09:06:45.000Z</time>
      </trkpt>
      <trkpt lat="43.38887" lon="5.40875">
        <ele>469.29</ele>
        <time>2021-05-16T09:06:56.000Z</time>
      </trkpt>
      <trkpt lat="43.3887" lon="5.40886">
        <ele>471.07</ele>
        <time>2021-05-16T09:07:08.000Z</time>
      </trkpt>
      <trkpt lat="43.38857" lon="5.40908">
        <ele>472.32</ele>
        <time>2021-05-16T09:07:18.000Z</time>
      </trkpt>
      <trkpt lat="43.38851" lon="5.40931">
        <ele>473.58</ele>
        <time>2021-05-16T09:07:28.000Z</time>
      </trkpt>
      <trkpt lat="43.38849" lon="5.40957">
        <ele>475.19</ele>
        <time>2021-05-16T09:07:41.000Z</time>
      </trkpt>
      <trkpt lat="43.38845" lon="5.40983">
        <ele>476.67</ele>
        <time>2021-05-16T09:07:53.000Z</time>
      </trkpt>
      <trkpt lat="43.38839" lon="5.41008">
        <ele>478.26</ele>
        <time>2021-05-16T09:08:03.000Z</time>
      </trkpt>
      <trkpt lat="43.3882" lon="5.41015">
        <ele>479.26</ele>
        <time>2021-05-16T09:08:10.000Z</time>
      </trkpt>
      <trkpt lat="43.38801" lon="5.41006">
        <ele>479.9</ele>
        <time>2021-05-16T09:08:16.000Z</time>
      </trkpt>
      <trkpt lat="43.38786" lon="5.40992">
        <ele>480.24</ele>
        <time>2021-05-16T09:08:21.000Z</time>
      </trkpt>
      <trkpt lat="43.38771" lon="5.40974">
        <ele>480.78</ele>
        <time>2021-05-16T09:08:26.000Z</time>
      </trkpt>
      <trkpt lat="43.38755" lon="5.40957">
        <ele>481.42</ele>
        <time>2021-05-16T09:08:31.000Z</time>
      </trkpt>
      <trkpt lat="43.38741" lon="5.40938">
        <ele>482.38</ele>
        <time>2021-05-16T09:08:37.000Z</time>
      </trkpt>
      <trkpt lat="43.38727" lon="5.40916">
        <ele>482.68</ele>
        <time>2021-05-16T09:08:43.000Z</time>
      </trkpt>
      <trkpt lat="43.38714" lon="5.40896">
        <ele>483.36</ele>
        <time>2021-05-16T09:08:49.000Z</time>
      </trkpt>
      <trkpt lat="43.38699" lon="5.40877">
        <ele>483.82</ele>
        <time>2021-05-16T09:08:55.000Z</time>
      </trkpt>
      <trkpt lat="43.38686" lon="5.40856">
        <ele>484.37</ele>
        <time>2021-05-16T09:09:01.000Z</time>
      </trkpt>
      <trkpt lat="43.38674" lon="5.40835">
        <ele>485.12</ele>
        <time>2021-05-16T09:09:07.000Z</time>
      </trkpt>
      <trkpt lat="43.38658" lon="5.40817">
        <ele>485.23</ele>
        <time>2021-05-16T09:09:13.000Z</time>
      </trkpt>
      <trkpt lat="43.38641" lon="5.40805">
        <ele>485.45</ele>
        <time>2021-05-16T09:09:18.000Z</time>
      </trkpt>
      <trkpt lat="43.38623" lon="5.40809">
        <ele>486.66</ele>
        <time>2021-05-16T09:09:24.000Z</time>
      </trkpt>
      <trkpt lat="43.3861" lon="5.40826">
        <ele>487.86</ele>
        <time>2021-05-16T09:09:31.000Z</time>
      </trkpt>
      <trkpt lat="43.38593" lon="5.4084">
        <ele>489.11</ele>
        <time>2021-05-16T09:09:39.000Z</time>
      </trkpt>
      <trkpt lat="43.38575" lon="5.4085">
        <ele>489.48</ele>
        <time>2021-05-16T09:09:46.000Z</time>
      </trkpt>
      <trkpt lat="43.38557" lon="5.40861">
        <ele>490.05</ele>
        <time>2021-05-16T09:09:53.000Z</time>
      </trkpt>
      <trkpt lat="43.38538" lon="5.4087">
        <ele>490.62</ele>
        <time>2021-05-16T09:10:00.000Z</time>
      </trkpt>
      <trkpt lat="43.3852" lon="5.40875">
        <ele>491.74</ele>
        <time>2021-05-16T09:10:08.000Z</time>
      </trkpt>
      <trkpt lat="43.38501" lon="5.40877">
        <ele>492.31</ele>
        <time>2021-05-16T09:10:15.000Z</time>
      </trkpt>
      <trkpt lat="43.38482" lon="5.40878">
        <ele>493.07</ele>
        <time>2021-05-16T09:10:22.000Z</time>
      </trkpt>
      <trkpt lat="43.38471" lon="5.40898">
        <ele>493.66</ele>
        <time>2021-05-16T09:10:29.000Z</time>
      </trkpt>
      <trkpt lat="43.38465" lon="5.40923">
        <ele>495.12</ele>
        <time>2021-05-16T09:10:37.000Z</time>
      </trkpt>
      <trkpt lat="43.38459" lon="5.40948">
        <ele>495.27</ele>
        <time>2021-05-16T09:10:45.000Z</time>
      </trkpt>
      <trkpt lat="43.3845" lon="5.4097">
        <ele>495.99</ele>
        <time>2021-05-16T09:10:52.000Z</time>
      </trkpt>
      <trkpt lat="43.38439" lon="5.40992">
        <ele>496.51</ele>
        <time>2021-05-16T09:11:00.000Z</time>
      </trkpt>
      <trkpt lat="43.38428" lon="5.41013">
        <ele>497.23</ele>
        <time>2021-05-16T09:11:07.000Z</time>
      </trkpt>
      <trkpt lat="43.38421" lon="5.41039">
        <ele>498.21</ele>
        <time>2021-05-16T09:11:15.000Z</time>
      </trkpt>
      <trkpt lat="43.38431" lon="5.4106">
        <ele>498.19</ele>
        <time>2021-05-16T09:17:42.000Z</time>
      </trkpt>
      <trkpt lat="43.38451" lon="5.41064">
        <ele>499.36</ele>
        <time>2021-05-16T09:17:51.000Z</time>
      </trkpt>
      <trkpt lat="43.38473" lon="5.41065">
        <ele>499.56</ele>
        <time>2021-05-16T09:17:57.000Z</time>
      </trkpt>
      <trkpt lat="43.38492" lon="5.41069">
        <ele>499.69</ele>
        <time>2021-05-16T09:18:02.000Z</time>
      </trkpt>
      <trkpt lat="43.38512" lon="5.41073">
        <ele>500.13</ele>
        <time>2021-05-16T09:18:07.000Z</time>
      </trkpt>
      <trkpt lat="43.38531" lon="5.41073">
        <ele>500.57</ele>
        <time>2021-05-16T09:18:12.000Z</time>
      </trkpt>
      <trkpt lat="43.3855" lon="5.41074">
        <ele>500.58</ele>
        <time>2021-05-16T09:18:17.000Z</time>
      </trkpt>
      <trkpt lat="43.38572" lon="5.41076">
        <ele>500.28</ele>
        <time>2021-05-16T09:18:22.000Z</time>
      </trkpt>
      <trkpt lat="43.3859" lon="5.41082">
        <ele>500.27</ele>
        <time>2021-05-16T09:18:26.000Z</time>
      </trkpt>
      <trkpt lat="43.38609" lon="5.41092">
        <ele>500.82</ele>
        <time>2021-05-16T09:18:31.000Z</time>
      </trkpt>
      <trkpt lat="43.38627" lon="5.41106">
        <ele>501.5</ele>
        <time>2021-05-16T09:18:37.000Z</time>
      </trkpt>
      <trkpt lat="43.38643" lon="5.41126">
        <ele>502.26</ele>
        <time>2021-05-16T09:18:43.000Z</time>
      </trkpt>
      <trkpt lat="43.3865" lon="5.41153">
        <ele>502.63</ele>
        <time>2021-05-16T09:18:49.000Z</time>
      </trkpt>
      <trkpt lat="43.38654" lon="5.41181">
        <ele>503.39</ele>
        <time>2021-05-16T09:18:55.000Z</time>
      </trkpt>
      <trkpt lat="43.38653" lon="5.41206">
        <ele>503.94</ele>
        <time>2021-05-16T09:19:01.000Z</time>
      </trkpt>
      <trkpt lat="43.38653" lon="5.41234">
        <ele>504.48</ele>
        <time>2021-05-16T09:19:07.000Z</time>
      </trkpt>
      <trkpt lat="43.38662" lon="5.41258">
        <ele>505.09</ele>
        <time>2021-05-16T09:19:13.000Z</time>
      </trkpt>
      <trkpt lat="43.38678" lon="5.41273">
        <ele>505.02</ele>
        <time>2021-05-16T09:19:19.000Z</time>
      </trkpt>
      <trkpt lat="43.38697" lon="5.41279">
        <ele>505.19</ele>
        <time>2021-05-16T09:19:25.000Z</time>
      </trkpt>
      <trkpt lat="43.38715" lon="5.41288">
        <ele>505.5</ele>
        <time>2021-05-16T09:19:31.000Z</time>
      </trkpt>
      <trkpt lat="43.38732" lon="5.41297">
        <ele>505.72</ele>
        <time>2021-05-16T09:19:37.000Z</time>
      </trkpt>
      <trkpt lat="43.38747" lon="5.41312">
        <ele>506.87</ele>
        <time>2021-05-16T09:19:43.000Z</time>
      </trkpt>
      <trkpt lat="43.3876" lon="5.41332">
        <ele>507.82</ele>
        <time>2021-05-16T09:19:50.000Z</time>
      </trkpt>
      <trkpt lat="43.38777" lon="5.41341">
        <ele>508.37</ele>
        <time>2021-05-16T09:19:57.000Z</time>
      </trkpt>
      <trkpt lat="43.38796" lon="5.41337">
        <ele>508.96</ele>
        <time>2021-05-16T09:20:04.000Z</time>
      </trkpt>
      <trkpt lat="43.38815" lon="5.41339">
        <ele>509.95</ele>
        <time>2021-05-16T09:20:11.000Z</time>
      </trkpt>
      <trkpt lat="43.38827" lon="5.41361">
        <ele>511.2</ele>
        <time>2021-05-16T09:20:18.000Z</time>
      </trkpt>
      <trkpt lat="43.38829" lon="5.41388">
        <ele>511.75</ele>
        <time>2021-05-16T09:20:25.000Z</time>
      </trkpt>
      <trkpt lat="43.38831" lon="5.41413">
        <ele>512.57</ele>
        <time>2021-05-16T09:20:32.000Z</time>
      </trkpt>
      <trkpt lat="43.38836" lon="5.4144">
        <ele>513.39</ele>
        <time>2021-05-16T09:20:40.000Z</time>
      </trkpt>
      <trkpt lat="43.38846" lon="5.41461">
        <ele>513.92</ele>
        <time>2021-05-16T09:20:48.000Z</time>
      </trkpt>
      <trkpt lat="43.38858" lon="5.41481">
        <ele>514.76</ele>
        <time>2021-05-16T09:20:56.000Z</time>
      </trkpt>
      <trkpt lat="43.38865" lon="5.41506">
        <ele>516.14</ele>
        <time>2021-05-16T09:21:05.000Z</time>
      </trkpt>
      <trkpt lat="43.38862" lon="5.41533">
        <ele>517.32</ele>
        <time>2021-05-16T09:21:14.000Z</time>
      </trkpt>
      <trkpt lat="43.38857" lon="5.41559">
        <ele>517.93</ele>
        <time>2021-05-16T09:21:24.000Z</time>
      </trkpt>
      <trkpt lat="43.38845" lon="5.41581">
        <ele>518.65</ele>
        <time>2021-05-16T09:21:33.000Z</time>
      </trkpt>
      <trkpt lat="43.38832" lon="5.41601">
        <ele>519.03</ele>
        <time>2021-05-16T09:21:41.000Z</time>
      </trkpt>
      <trkpt lat="43.38825" lon="5.41627">
        <ele>519.63</ele>
        <time>2021-05-16T09:21:49.000Z</time>
      </trkpt>
      <trkpt lat="43.38824" lon="5.41653">
        <ele>520.07</ele>
        <time>2021-05-16T09:21:56.000Z</time>
      </trkpt>
      <trkpt lat="43.38823" lon="5.41681">
        <ele>520.6</ele>
        <time>2021-05-16T09:22:03.000Z</time>
      </trkpt>
      <trkpt lat="43.38816" lon="5.41706">
        <ele>521.22</ele>
        <time>2021-05-16T09:22:10.000Z</time>
      </trkpt>
      <trkpt lat="43.38808" lon="5.41732">
        <ele>521.96</ele>
        <time>2021-05-16T09:22:18.000Z</time>
      </trkpt>
      <trkpt lat="43.38793" lon="5.41749">
        <ele>522.3</ele>
        <time>2021-05-16T09:22:25.000Z</time>
      </trkpt>
      <trkpt lat="43.38778" lon="5.41764">
        <ele>522.23</ele>
        <time>2021-05-16T09:22:32.000Z</time>
      </trkpt>
      <trkpt lat="43.38765" lon="5.41783">
        <ele>522.66</ele>
        <time>2021-05-16T09:22:39.000Z</time>
      </trkpt>
      <trkpt lat="43.38749" lon="5.41801">
        <ele>524.11</ele>
        <time>2021-05-16T09:22:47.000Z</time>
      </trkpt>
      <trkpt lat="43.38735" lon="5.41819">
        <ele>525.32</ele>
        <time>2021-05-16T09:22:54.000Z</time>
      </trkpt>
      <trkpt lat="43.38721" lon="5.41836">
        <ele>526.67</ele>
        <time>2021-05-16T09:23:03.000Z</time>
      </trkpt>
      <trkpt lat="43.38708" lon="5.41856">
        <ele>527.56</ele>
        <time>2021-05-16T09:23:12.000Z</time>
      </trkpt>
      <trkpt lat="43.38696" lon="5.41874">
        <ele>528.09</ele>
        <time>2021-05-16T09:23:20.000Z</time>
      </trkpt>
      <trkpt lat="43.38684" lon="5.41893">
        <ele>528.89</ele>
        <time>2021-05-16T09:23:27.000Z</time>
      </trkpt>
      <trkpt lat="43.3867" lon="5.41912">
        <ele>529.16</ele>
        <time>2021-05-16T09:23:34.000Z</time>
      </trkpt>
      <trkpt lat="43.38654" lon="5.4193">
        <ele>529.17</ele>
        <time>2021-05-16T09:23:41.000Z</time>
      </trkpt>
      <trkpt lat="43.38639" lon="5.41947">
        <ele>529.08</ele>
        <time>2021-05-16T09:23:48.000Z</time>
      </trkpt>
      <trkpt lat="43.38623" lon="5.41964">
        <ele>529</ele>
        <time>2021-05-16T09:23:56.000Z</time>
      </trkpt>
      <trkpt lat="43.38603" lon="5.41969">
        <ele>527.33</ele>
        <time>2021-05-16T09:24:05.000Z</time>
      </trkpt>
      <trkpt lat="43.38585" lon="5.41978">
        <ele>526.2</ele>
        <time>2021-05-16T09:24:12.000Z</time>
      </trkpt>
      <trkpt lat="43.38565" lon="5.41978">
        <ele>524.99</ele>
        <time>2021-05-16T09:24:16.000Z</time>
      </trkpt>
      <trkpt lat="43.38545" lon="5.41966">
        <ele>523.1</ele>
        <time>2021-05-16T09:24:20.000Z</time>
      </trkpt>
      <trkpt lat="43.38532" lon="5.41942">
        <ele>520.55</ele>
        <time>2021-05-16T09:24:24.000Z</time>
      </trkpt>
      <trkpt lat="43.38513" lon="5.41929">
        <ele>518.13</ele>
        <time>2021-05-16T09:24:28.000Z</time>
      </trkpt>
      <trkpt lat="43.38493" lon="5.41938">
        <ele>516.23</ele>
        <time>2021-05-16T09:24:33.000Z</time>
      </trkpt>
      <trkpt lat="43.38485" lon="5.41967">
        <ele>514.79</ele>
        <time>2021-05-16T09:24:38.000Z</time>
      </trkpt>
      <trkpt lat="43.38481" lon="5.41997">
        <ele>512.22</ele>
        <time>2021-05-16T09:24:42.000Z</time>
      </trkpt>
      <trkpt lat="43.38485" lon="5.42029">
        <ele>510.88</ele>
        <time>2021-05-16T09:24:46.000Z</time>
      </trkpt>
      <trkpt lat="43.38487" lon="5.42055">
        <ele>509.31</ele>
        <time>2021-05-16T09:24:49.000Z</time>
      </trkpt>
      <trkpt lat="43.38474" lon="5.4208">
        <ele>507.36</ele>
        <time>2021-05-16T09:24:52.000Z</time>
      </trkpt>
      <trkpt lat="43.3846" lon="5.42103">
        <ele>504.64</ele>
        <time>2021-05-16T09:24:55.000Z</time>
      </trkpt>
      <trkpt lat="43.38451" lon="5.42129">
        <ele>502.97</ele>
        <time>2021-05-16T09:24:58.000Z</time>
      </trkpt>
      <trkpt lat="43.38444" lon="5.42157">
        <ele>501.04</ele>
        <time>2021-05-16T09:25:01.000Z</time>
      </trkpt>
      <trkpt lat="43.38426" lon="5.42174">
        <ele>499.75</ele>
        <time>2021-05-16T09:25:04.000Z</time>
      </trkpt>
      <trkpt lat="43.38408" lon="5.42188">
        <ele>498.3</ele>
        <time>2021-05-16T09:25:07.000Z</time>
      </trkpt>
      <trkpt lat="43.38393" lon="5.42203">
        <ele>496.42</ele>
        <time>2021-05-16T09:25:10.000Z</time>
      </trkpt>
      <trkpt lat="43.38374" lon="5.42194">
        <ele>494.34</ele>
        <time>2021-05-16T09:25:14.000Z</time>
      </trkpt>
      <trkpt lat="43.38367" lon="5.42162">
        <ele>491.51</ele>
        <time>2021-05-16T09:25:18.000Z</time>
      </trkpt>
      <trkpt lat="43.38362" lon="5.42135">
        <ele>489.24</ele>
        <time>2021-05-16T09:25:21.000Z</time>
      </trkpt>
      <trkpt lat="43.38353" lon="5.42111">
        <ele>487.55</ele>
        <time>2021-05-16T09:25:24.000Z</time>
      </trkpt>
      <trkpt lat="43.38339" lon="5.42088">
        <ele>484.64</ele>
        <time>2021-05-16T09:25:28.000Z</time>
      </trkpt>
      <trkpt lat="43.38325" lon="5.4207">
        <ele>482.09</ele>
        <time>2021-05-16T09:25:31.000Z</time>
      </trkpt>
      <trkpt lat="43.38308" lon="5.42059">
        <ele>480.18</ele>
        <time>2021-05-16T09:25:34.000Z</time>
      </trkpt>
      <trkpt lat="43.38289" lon="5.42046">
        <ele>477.8</ele>
        <time>2021-05-16T09:25:38.000Z</time>
      </trkpt>
      <trkpt lat="43.38266" lon="5.42043">
        <ele>475.38</ele>
        <time>2021-05-16T09:25:42.000Z</time>
      </trkpt>
      <trkpt lat="43.38243" lon="5.42053">
        <ele>473.69</ele>
        <time>2021-05-16T09:25:46.000Z</time>
      </trkpt>
      <trkpt lat="43.38224" lon="5.42063">
        <ele>472.04</ele>
        <time>2021-05-16T09:25:49.000Z</time>
      </trkpt>
      <trkpt lat="43.38206" lon="5.42071">
        <ele>470.72</ele>
        <time>2021-05-16T09:25:52.000Z</time>
      </trkpt>
      <trkpt lat="43.38188" lon="5.42078">
        <ele>469.23</ele>
        <time>2021-05-16T09:25:55.000Z</time>
      </trkpt>
      <trkpt lat="43.38169" lon="5.42075">
        <ele>467.69</ele>
        <time>2021-05-16T09:25:58.000Z</time>
      </trkpt>
      <trkpt lat="43.38152" lon="5.42054">
        <ele>465.71</ele>
        <time>2021-05-16T09:26:02.000Z</time>
      </trkpt>
      <trkpt lat="43.38136" lon="5.4204">
        <ele>463.74</ele>
        <time>2021-05-16T09:26:05.000Z</time>
      </trkpt>
      <trkpt lat="43.38118" lon="5.42028">
        <ele>462.18</ele>
        <time>2021-05-16T09:26:08.000Z</time>
      </trkpt>
      <trkpt lat="43.38099" lon="5.42018">
        <ele>460.17</ele>
        <time>2021-05-16T09:26:11.000Z</time>
      </trkpt>
      <trkpt lat="43.38078" lon="5.4201">
        <ele>458.45</ele>
        <time>2021-05-16T09:26:15.000Z</time>
      </trkpt>
      <trkpt lat="43.38055" lon="5.42011">
        <ele>455.99</ele>
        <time>2021-05-16T09:26:19.000Z</time>
      </trkpt>
      <trkpt lat="43.38036" lon="5.42021">
        <ele>454.68</ele>
        <time>2021-05-16T09:26:23.000Z</time>
      </trkpt>
      <trkpt lat="43.3802" lon="5.4204">
        <ele>453.41</ele>
        <time>2021-05-16T09:26:28.000Z</time>
      </trkpt>
      <trkpt lat="43.38019" lon="5.42066">
        <ele>453.25</ele>
        <time>2021-05-16T09:26:33.000Z</time>
      </trkpt>
      <trkpt lat="43.38017" lon="5.42095">
        <ele>452.39</ele>
        <time>2021-05-16T09:26:38.000Z</time>
      </trkpt>
      <trkpt lat="43.38016" lon="5.42121">
        <ele>451.9</ele>
        <time>2021-05-16T09:26:43.000Z</time>
      </trkpt>
      <trkpt lat="43.38013" lon="5.42149">
        <ele>451.68</ele>
        <time>2021-05-16T09:26:49.000Z</time>
      </trkpt>
      <trkpt lat="43.38008" lon="5.42177">
        <ele>450.85</ele>
        <time>2021-05-16T09:26:54.000Z</time>
      </trkpt>
      <trkpt lat="43.37999" lon="5.42199">
        <ele>450.02</ele>
        <time>2021-05-16T09:26:58.000Z</time>
      </trkpt>
      <trkpt lat="43.37987" lon="5.42221">
        <ele>448.06</ele>
        <time>2021-05-16T09:27:02.000Z</time>
      </trkpt>
      <trkpt lat="43.37971" lon="5.42237">
        <ele>447.03</ele>
        <time>2021-05-16T09:27:06.000Z</time>
      </trkpt>
      <trkpt lat="43.37956" lon="5.42254">
        <ele>445.68</ele>
        <time>2021-05-16T09:27:10.000Z</time>
      </trkpt>
      <trkpt lat="43.37945" lon="5.42279">
        <ele>444.84</ele>
        <time>2021-05-16T09:27:14.000Z</time>
      </trkpt>
      <trkpt lat="43.37941" lon="5.42309">
        <ele>443.47</ele>
        <time>2021-05-16T09:27:18.000Z</time>
      </trkpt>
      <trkpt lat="43.3794" lon="5.42335">
        <ele>442.93</ele>
        <time>2021-05-16T09:27:22.000Z</time>
      </trkpt>
      <trkpt lat="43.3795" lon="5.4236">
        <ele>443.61</ele>
        <time>2021-05-16T09:27:28.000Z</time>
      </trkpt>
      <trkpt lat="43.37964" lon="5.42377">
        <ele>443.81</ele>
        <time>2021-05-16T09:27:32.000Z</time>
      </trkpt>
      <trkpt lat="43.37981" lon="5.42393">
        <ele>444.15</ele>
        <time>2021-05-16T09:27:37.000Z</time>
      </trkpt>
      <trkpt lat="43.37999" lon="5.42409">
        <ele>444.22</ele>
        <time>2021-05-16T09:27:42.000Z</time>
      </trkpt>
      <trkpt lat="43.38016" lon="5.42424">
        <ele>444.12</ele>
        <time>2021-05-16T09:27:47.000Z</time>
      </trkpt>
      <trkpt lat="43.38033" lon="5.42436">
        <ele>443.67</ele>
        <time>2021-05-16T09:27:51.000Z</time>
      </trkpt>
      <trkpt lat="43.38051" lon="5.42452">
        <ele>442.92</ele>
        <time>2021-05-16T09:27:55.000Z</time>
      </trkpt>
      <trkpt lat="43.38066" lon="5.42469">
        <ele>443.15</ele>
        <time>2021-05-16T09:27:59.000Z</time>
      </trkpt>
      <trkpt lat="43.3808" lon="5.4249">
        <ele>442.77</ele>
        <time>2021-05-16T09:28:03.000Z</time>
      </trkpt>
      <trkpt lat="43.38086" lon="5.42517">
        <ele>442.67</ele>
        <time>2021-05-16T09:28:08.000Z</time>
      </trkpt>
      <trkpt lat="43.38089" lon="5.42548">
        <ele>442.24</ele>
        <time>2021-05-16T09:28:13.000Z</time>
      </trkpt>
      <trkpt lat="43.38086" lon="5.42576">
        <ele>442.32</ele>
        <time>2021-05-16T09:28:18.000Z</time>
      </trkpt>
      <trkpt lat="43.3807" lon="5.42589">
        <ele>441.65</ele>
        <time>2021-05-16T09:28:22.000Z</time>
      </trkpt>
      <trkpt lat="43.38054" lon="5.426">
        <ele>441.49</ele>
        <time>2021-05-16T09:28:26.000Z</time>
      </trkpt>
      <trkpt lat="43.38036" lon="5.42618">
        <ele>440.3</ele>
        <time>2021-05-16T09:28:30.000Z</time>
      </trkpt>
      <trkpt lat="43.38015" lon="5.42631">
        <ele>439.28</ele>
        <time>2021-05-16T09:28:34.000Z</time>
      </trkpt>
      <trkpt lat="43.37997" lon="5.42646">
        <ele>438.78</ele>
        <time>2021-05-16T09:28:38.000Z</time>
      </trkpt>
      <trkpt lat="43.37987" lon="5.4267">
        <ele>438.85</ele>
        <time>2021-05-16T09:28:42.000Z</time>
      </trkpt>
      <trkpt lat="43.37979" lon="5.42694">
        <ele>438.27</ele>
        <time>2021-05-16T09:28:46.000Z</time>
      </trkpt>
      <trkpt lat="43.37972" lon="5.42718">
        <ele>437.85</ele>
        <time>2021-05-16T09:28:50.000Z</time>
      </trkpt>
      <trkpt lat="43.37961" lon="5.42745">
        <ele>436.52</ele>
        <time>2021-05-16T09:28:54.000Z</time>
      </trkpt>
      <trkpt lat="43.37948" lon="5.42764">
        <ele>435.65</ele>
        <time>2021-05-16T09:28:57.000Z</time>
      </trkpt>
      <trkpt lat="43.3793" lon="5.42779">
        <ele>434.03</ele>
        <time>2021-05-16T09:29:00.000Z</time>
      </trkpt>
      <trkpt lat="43.37911" lon="5.42794">
        <ele>432.1</ele>
        <time>2021-05-16T09:29:03.000Z</time>
      </trkpt>
      <trkpt lat="43.37895" lon="5.42814">
        <ele>430.22</ele>
        <time>2021-05-16T09:29:07.000Z</time>
      </trkpt>
      <trkpt lat="43.37904" lon="5.42839">
        <ele>430.04</ele>
        <time>2021-05-16T09:29:11.000Z</time>
      </trkpt>
      <trkpt lat="43.37923" lon="5.42855">
        <ele>428.78</ele>
        <time>2021-05-16T09:29:15.000Z</time>
      </trkpt>
      <trkpt lat="43.37942" lon="5.42867">
        <ele>428.15</ele>
        <time>2021-05-16T09:29:19.000Z</time>
      </trkpt>
      <trkpt lat="43.37961" lon="5.42881">
        <ele>427.16</ele>
        <time>2021-05-16T09:29:23.000Z</time>
      </trkpt>
      <trkpt lat="43.37982" lon="5.42895">
        <ele>425.46</ele>
        <time>2021-05-16T09:29:27.000Z</time>
      </trkpt>
      <trkpt lat="43.37998" lon="5.42907">
        <ele>425.15</ele>
        <time>2021-05-16T09:29:30.000Z</time>
      </trkpt>
      <trkpt lat="43.38015" lon="5.42919">
        <ele>423.93</ele>
        <time>2021-05-16T09:29:33.000Z</time>
      </trkpt>
      <trkpt lat="43.38037" lon="5.4293">
        <ele>423.53</ele>
        <time>2021-05-16T09:29:37.000Z</time>
      </trkpt>
      <trkpt lat="43.38054" lon="5.42938">
        <ele>421.15</ele>
        <time>2021-05-16T09:29:40.000Z</time>
      </trkpt>
      <trkpt lat="43.38066" lon="5.42958">
        <ele>419.44</ele>
        <time>2021-05-16T09:29:43.000Z</time>
      </trkpt>
      <trkpt lat="43.38064" lon="5.4299">
        <ele>417</ele>
        <time>2021-05-16T09:29:47.000Z</time>
      </trkpt>
      <trkpt lat="43.3805" lon="5.43007">
        <ele>414.77</ele>
        <time>2021-05-16T09:29:50.000Z</time>
      </trkpt>
      <trkpt lat="43.38036" lon="5.43028">
        <ele>412.04</ele>
        <time>2021-05-16T09:29:53.000Z</time>
      </trkpt>
      <trkpt lat="43.38023" lon="5.43046">
        <ele>410.44</ele>
        <time>2021-05-16T09:29:56.000Z</time>
      </trkpt>
      <trkpt lat="43.38006" lon="5.43058">
        <ele>408.25</ele>
        <time>2021-05-16T09:29:59.000Z</time>
      </trkpt>
      <trkpt lat="43.37984" lon="5.43062">
        <ele>406.43</ele>
        <time>2021-05-16T09:30:02.000Z</time>
      </trkpt>
      <trkpt lat="43.37965" lon="5.43061">
        <ele>404.7</ele>
        <time>2021-05-16T09:30:05.000Z</time>
      </trkpt>
      <trkpt lat="43.37946" lon="5.43054">
        <ele>403.12</ele>
        <time>2021-05-16T09:30:08.000Z</time>
      </trkpt>
      <trkpt lat="43.37925" lon="5.43058">
        <ele>401.77</ele>
        <time>2021-05-16T09:30:12.000Z</time>
      </trkpt>
      <trkpt lat="43.37908" lon="5.4308">
        <ele>399.8</ele>
        <time>2021-05-16T09:30:16.000Z</time>
      </trkpt>
      <trkpt lat="43.37895" lon="5.43106">
        <ele>397.89</ele>
        <time>2021-05-16T09:30:20.000Z</time>
      </trkpt>
      <trkpt lat="43.37882" lon="5.43131">
        <ele>395.72</ele>
        <time>2021-05-16T09:30:24.000Z</time>
      </trkpt>
      <trkpt lat="43.37869" lon="5.43155">
        <ele>392.8</ele>
        <time>2021-05-16T09:30:28.000Z</time>
      </trkpt>
      <trkpt lat="43.37856" lon="5.43177">
        <ele>390.63</ele>
        <time>2021-05-16T09:30:32.000Z</time>
      </trkpt>
      <trkpt lat="43.37843" lon="5.43202">
        <ele>388.88</ele>
        <time>2021-05-16T09:30:36.000Z</time>
      </trkpt>
      <trkpt lat="43.3783" lon="5.43227">
        <ele>386.1</ele>
        <time>2021-05-16T09:30:40.000Z</time>
      </trkpt>
      <trkpt lat="43.3782" lon="5.43253">
        <ele>384.3</ele>
        <time>2021-05-16T09:30:44.000Z</time>
      </trkpt>
      <trkpt lat="43.37811" lon="5.43278">
        <ele>381.92</ele>
        <time>2021-05-16T09:30:48.000Z</time>
      </trkpt>
      <trkpt lat="43.37822" lon="5.43301">
        <ele>377.62</ele>
        <time>2021-05-16T09:30:55.000Z</time>
      </trkpt>
      <trkpt lat="43.37846" lon="5.43295">
        <ele>375.25</ele>
        <time>2021-05-16T09:30:59.000Z</time>
      </trkpt>
      <trkpt lat="43.37863" lon="5.43312">
        <ele>374.44</ele>
        <time>2021-05-16T09:31:03.000Z</time>
      </trkpt>
      <trkpt lat="43.37862" lon="5.43337">
        <ele>375.03</ele>
        <time>2021-05-16T09:31:08.000Z</time>
      </trkpt>
      <trkpt lat="43.37857" lon="5.43364">
        <ele>375.54</ele>
        <time>2021-05-16T09:31:13.000Z</time>
      </trkpt>
      <trkpt lat="43.37858" lon="5.43389">
        <ele>375.65</ele>
        <time>2021-05-16T09:31:18.000Z</time>
      </trkpt>
      <trkpt lat="43.37862" lon="5.43416">
        <ele>376.13</ele>
        <time>2021-05-16T09:31:24.000Z</time>
      </trkpt>
      <trkpt lat="43.37872" lon="5.43437">
        <ele>376.61</ele>
        <time>2021-05-16T09:31:29.000Z</time>
      </trkpt>
      <trkpt lat="43.37891" lon="5.43448">
        <ele>377.29</ele>
        <time>2021-05-16T09:31:34.000Z</time>
      </trkpt>
      <trkpt lat="43.37909" lon="5.43454">
        <ele>377.42</ele>
        <time>2021-05-16T09:31:39.000Z</time>
      </trkpt>
      <trkpt lat="43.37926" lon="5.43465">
        <ele>377.52</ele>
        <time>2021-05-16T09:31:44.000Z</time>
      </trkpt>
      <trkpt lat="43.37921" lon="5.43494">
        <ele>378.31</ele>
        <time>2021-05-16T09:31:52.000Z</time>
      </trkpt>
      <trkpt lat="43.37913" lon="5.43518">
        <ele>379.37</ele>
        <time>2021-05-16T09:31:57.000Z</time>
      </trkpt>
      <trkpt lat="43.37906" lon="5.43542">
        <ele>379.47</ele>
        <time>2021-05-16T09:32:02.000Z</time>
      </trkpt>
      <trkpt lat="43.37904" lon="5.43569">
        <ele>379.85</ele>
        <time>2021-05-16T09:32:09.000Z</time>
      </trkpt>
      <trkpt lat="43.37905" lon="5.43595">
        <ele>380.42</ele>
        <time>2021-05-16T09:32:16.000Z</time>
      </trkpt>
      <trkpt lat="43.37908" lon="5.43624">
        <ele>381.17</ele>
        <time>2021-05-16T09:32:22.000Z</time>
      </trkpt>
      <trkpt lat="43.37918" lon="5.43645">
        <ele>381.21</ele>
        <time>2021-05-16T09:32:28.000Z</time>
      </trkpt>
      <trkpt lat="43.37937" lon="5.43658">
        <ele>382.11</ele>
        <time>2021-05-16T09:32:34.000Z</time>
      </trkpt>
      <trkpt lat="43.37954" lon="5.43665">
        <ele>382.09</ele>
        <time>2021-05-16T09:32:39.000Z</time>
      </trkpt>
      <trkpt lat="43.37973" lon="5.43674">
        <ele>382.65</ele>
        <time>2021-05-16T09:32:45.000Z</time>
      </trkpt>
      <trkpt lat="43.37993" lon="5.43681">
        <ele>383.24</ele>
        <time>2021-05-16T09:32:51.000Z</time>
      </trkpt>
      <trkpt lat="43.38013" lon="5.43678">
        <ele>383.62</ele>
        <time>2021-05-16T09:32:57.000Z</time>
      </trkpt>
      <trkpt lat="43.38033" lon="5.43672">
        <ele>383.83</ele>
        <time>2021-05-16T09:33:03.000Z</time>
      </trkpt>
      <trkpt lat="43.38054" lon="5.43675">
        <ele>384.38</ele>
        <time>2021-05-16T09:33:09.000Z</time>
      </trkpt>
      <trkpt lat="43.3807" lon="5.43689">
        <ele>384.48</ele>
        <time>2021-05-16T09:33:14.000Z</time>
      </trkpt>
      <trkpt lat="43.38088" lon="5.43697">
        <ele>385.22</ele>
        <time>2021-05-16T09:33:19.000Z</time>
      </trkpt>
      <trkpt lat="43.38105" lon="5.43691">
        <ele>385.32</ele>
        <time>2021-05-16T09:33:24.000Z</time>
      </trkpt>
      <trkpt lat="43.38123" lon="5.43677">
        <ele>385.84</ele>
        <time>2021-05-16T09:33:30.000Z</time>
      </trkpt>
      <trkpt lat="43.3813" lon="5.437">
        <ele>387.22</ele>
        <time>2021-05-16T09:33:37.000Z</time>
      </trkpt>
      <trkpt lat="43.38126" lon="5.43729">
        <ele>388.13</ele>
        <time>2021-05-16T09:33:42.000Z</time>
      </trkpt>
      <trkpt lat="43.38121" lon="5.43759">
        <ele>388.49</ele>
        <time>2021-05-16T09:33:47.000Z</time>
      </trkpt>
      <trkpt lat="43.38116" lon="5.43783">
        <ele>388.71</ele>
        <time>2021-05-16T09:33:51.000Z</time>
      </trkpt>
      <trkpt lat="43.38111" lon="5.43812">
        <ele>389.55</ele>
        <time>2021-05-16T09:33:56.000Z</time>
      </trkpt>
      <trkpt lat="43.38125" lon="5.43831">
        <ele>390.31</ele>
        <time>2021-05-16T09:34:01.000Z</time>
      </trkpt>
      <trkpt lat="43.38143" lon="5.43843">
        <ele>390.76</ele>
        <time>2021-05-16T09:34:05.000Z</time>
      </trkpt>
      <trkpt lat="43.38158" lon="5.4386">
        <ele>391.39</ele>
        <time>2021-05-16T09:34:09.000Z</time>
      </trkpt>
      <trkpt lat="43.38171" lon="5.43879">
        <ele>391.47</ele>
        <time>2021-05-16T09:34:13.000Z</time>
      </trkpt>
      <trkpt lat="43.38186" lon="5.43896">
        <ele>391.98</ele>
        <time>2021-05-16T09:34:17.000Z</time>
      </trkpt>
      <trkpt lat="43.38202" lon="5.4391">
        <ele>392.35</ele>
        <time>2021-05-16T09:34:21.000Z</time>
      </trkpt>
      <trkpt lat="43.3822" lon="5.43926">
        <ele>393.03</ele>
        <time>2021-05-16T09:34:25.000Z</time>
      </trkpt>
      <trkpt lat="43.38241" lon="5.43938">
        <ele>393.52</ele>
        <time>2021-05-16T09:34:29.000Z</time>
      </trkpt>
      <trkpt lat="43.38262" lon="5.43947">
        <ele>394.23</ele>
        <time>2021-05-16T09:34:33.000Z</time>
      </trkpt>
      <trkpt lat="43.38283" lon="5.43959">
        <ele>394.72</ele>
        <time>2021-05-16T09:34:37.000Z</time>
      </trkpt>
      <trkpt lat="43.38296" lon="5.43978">
        <ele>395.08</ele>
        <time>2021-05-16T09:34:42.000Z</time>
      </trkpt>
      <trkpt lat="43.38276" lon="5.43988">
        <ele>395.47</ele>
        <time>2021-05-16T09:34:47.000Z</time>
      </trkpt>
      <trkpt lat="43.38253" lon="5.43999">
        <ele>396.13</ele>
        <time>2021-05-16T09:34:51.000Z</time>
      </trkpt>
      <trkpt lat="43.38233" lon="5.44014">
        <ele>397.48</ele>
        <time>2021-05-16T09:34:55.000Z</time>
      </trkpt>
      <trkpt lat="43.38213" lon="5.44021">
        <ele>398.32</ele>
        <time>2021-05-16T09:34:59.000Z</time>
      </trkpt>
      <trkpt lat="43.38193" lon="5.44031">
        <ele>398.96</ele>
        <time>2021-05-16T09:35:03.000Z</time>
      </trkpt>
      <trkpt lat="43.38176" lon="5.44042">
        <ele>399.25</ele>
        <time>2021-05-16T09:35:06.000Z</time>
      </trkpt>
      <trkpt lat="43.38155" lon="5.44053">
        <ele>399.75</ele>
        <time>2021-05-16T09:35:10.000Z</time>
      </trkpt>
      <trkpt lat="43.38143" lon="5.4408">
        <ele>400.56</ele>
        <time>2021-05-16T09:35:14.000Z</time>
      </trkpt>
      <trkpt lat="43.38134" lon="5.4411">
        <ele>401.3</ele>
        <time>2021-05-16T09:35:18.000Z</time>
      </trkpt>
      <trkpt lat="43.38126" lon="5.44132">
        <ele>402.09</ele>
        <time>2021-05-16T09:35:22.000Z</time>
      </trkpt>
      <trkpt lat="43.38116" lon="5.44155">
        <ele>402.63</ele>
        <time>2021-05-16T09:35:26.000Z</time>
      </trkpt>
      <trkpt lat="43.38113" lon="5.4418">
        <ele>403.02</ele>
        <time>2021-05-16T09:35:30.000Z</time>
      </trkpt>
      <trkpt lat="43.38134" lon="5.44192">
        <ele>403.1</ele>
        <time>2021-05-16T09:35:35.000Z</time>
      </trkpt>
      <trkpt lat="43.38156" lon="5.44185">
        <ele>403.4</ele>
        <time>2021-05-16T09:35:39.000Z</time>
      </trkpt>
      <trkpt lat="43.38174" lon="5.44183">
        <ele>403.67</ele>
        <time>2021-05-16T09:35:42.000Z</time>
      </trkpt>
      <trkpt lat="43.38189" lon="5.44205">
        <ele>403.78</ele>
        <time>2021-05-16T09:35:46.000Z</time>
      </trkpt>
      <trkpt lat="43.38196" lon="5.44236">
        <ele>403.87</ele>
        <time>2021-05-16T09:35:50.000Z</time>
      </trkpt>
      <trkpt lat="43.38198" lon="5.44265">
        <ele>404.49</ele>
        <time>2021-05-16T09:35:54.000Z</time>
      </trkpt>
      <trkpt lat="43.38192" lon="5.44289">
        <ele>404.71</ele>
        <time>2021-05-16T09:35:57.000Z</time>
      </trkpt>
      <trkpt lat="43.38187" lon="5.4432">
        <ele>405.34</ele>
        <time>2021-05-16T09:36:01.000Z</time>
      </trkpt>
      <trkpt lat="43.38189" lon="5.44351">
        <ele>406.19</ele>
        <time>2021-05-16T09:36:05.000Z</time>
      </trkpt>
      <trkpt lat="43.38197" lon="5.44373">
        <ele>406.1</ele>
        <time>2021-05-16T09:36:08.000Z</time>
      </trkpt>
      <trkpt lat="43.38213" lon="5.44395">
        <ele>406.84</ele>
        <time>2021-05-16T09:36:12.000Z</time>
      </trkpt>
      <trkpt lat="43.38236" lon="5.44403">
        <ele>407.1</ele>
        <time>2021-05-16T09:36:16.000Z</time>
      </trkpt>
      <trkpt lat="43.38254" lon="5.44397">
        <ele>407.24</ele>
        <time>2021-05-16T09:36:19.000Z</time>
      </trkpt>
      <trkpt lat="43.38273" lon="5.44383">
        <ele>407.28</ele>
        <time>2021-05-16T09:36:23.000Z</time>
      </trkpt>
      <trkpt lat="43.38295" lon="5.44374">
        <ele>407.69</ele>
        <time>2021-05-16T09:36:27.000Z</time>
      </trkpt>
      <trkpt lat="43.38316" lon="5.44379">
        <ele>407.57</ele>
        <time>2021-05-16T09:36:33.000Z</time>
      </trkpt>
      <trkpt lat="43.38333" lon="5.44397">
        <ele>407.86</ele>
        <time>2021-05-16T09:36:37.000Z</time>
      </trkpt>
      <trkpt lat="43.38339" lon="5.44421">
        <ele>407.96</ele>
        <time>2021-05-16T09:36:40.000Z</time>
      </trkpt>
      <trkpt lat="43.38344" lon="5.44452">
        <ele>408.42</ele>
        <time>2021-05-16T09:36:44.000Z</time>
      </trkpt>
      <trkpt lat="43.38348" lon="5.44476">
        <ele>408.67</ele>
        <time>2021-05-16T09:36:47.000Z</time>
      </trkpt>
      <trkpt lat="43.38352" lon="5.44508">
        <ele>408.77</ele>
        <time>2021-05-16T09:36:51.000Z</time>
      </trkpt>
      <trkpt lat="43.38351" lon="5.4454">
        <ele>408.85</ele>
        <time>2021-05-16T09:36:55.000Z</time>
      </trkpt>
      <trkpt lat="43.38351" lon="5.44571">
        <ele>409</ele>
        <time>2021-05-16T09:36:59.000Z</time>
      </trkpt>
      <trkpt lat="43.38364" lon="5.44591">
        <ele>409.63</ele>
        <time>2021-05-16T09:37:03.000Z</time>
      </trkpt>
      <trkpt lat="43.38385" lon="5.44591">
        <ele>410.43</ele>
        <time>2021-05-16T09:37:07.000Z</time>
      </trkpt>
      <trkpt lat="43.38406" lon="5.44582">
        <ele>410.51</ele>
        <time>2021-05-16T09:37:11.000Z</time>
      </trkpt>
      <trkpt lat="43.38427" lon="5.44575">
        <ele>411.03</ele>
        <time>2021-05-16T09:37:15.000Z</time>
      </trkpt>
      <trkpt lat="43.38445" lon="5.44572">
        <ele>411.17</ele>
        <time>2021-05-16T09:37:18.000Z</time>
      </trkpt>
      <trkpt lat="43.38468" lon="5.44566">
        <ele>411.44</ele>
        <time>2021-05-16T09:37:22.000Z</time>
      </trkpt>
      <trkpt lat="43.38492" lon="5.44559">
        <ele>411.18</ele>
        <time>2021-05-16T09:37:26.000Z</time>
      </trkpt>
      <trkpt lat="43.38513" lon="5.44551">
        <ele>411.51</ele>
        <time>2021-05-16T09:37:30.000Z</time>
      </trkpt>
      <trkpt lat="43.38532" lon="5.44553">
        <ele>411.69</ele>
        <time>2021-05-16T09:37:34.000Z</time>
      </trkpt>
      <trkpt lat="43.38525" lon="5.44579">
        <ele>412.01</ele>
        <time>2021-05-16T09:37:39.000Z</time>
      </trkpt>
      <trkpt lat="43.38508" lon="5.446">
        <ele>412.05</ele>
        <time>2021-05-16T09:37:43.000Z</time>
      </trkpt>
      <trkpt lat="43.38494" lon="5.44618">
        <ele>411.72</ele>
        <time>2021-05-16T09:37:46.000Z</time>
      </trkpt>
      <trkpt lat="43.38484" lon="5.44638">
        <ele>411.28</ele>
        <time>2021-05-16T09:37:49.000Z</time>
      </trkpt>
      <trkpt lat="43.38471" lon="5.44662">
        <ele>410.89</ele>
        <time>2021-05-16T09:37:52.000Z</time>
      </trkpt>
      <trkpt lat="43.38459" lon="5.44681">
        <ele>410.43</ele>
        <time>2021-05-16T09:37:55.000Z</time>
      </trkpt>
      <trkpt lat="43.38448" lon="5.44704">
        <ele>409.89</ele>
        <time>2021-05-16T09:37:58.000Z</time>
      </trkpt>
      <trkpt lat="43.38437" lon="5.44726">
        <ele>409.42</ele>
        <time>2021-05-16T09:38:01.000Z</time>
      </trkpt>
      <trkpt lat="43.38428" lon="5.4475">
        <ele>408.97</ele>
        <time>2021-05-16T09:38:05.000Z</time>
      </trkpt>
      <trkpt lat="43.38427" lon="5.44775">
        <ele>409.48</ele>
        <time>2021-05-16T09:38:18.000Z</time>
      </trkpt>
      <trkpt lat="43.38428" lon="5.44803">
        <ele>411.01</ele>
        <time>2021-05-16T09:38:32.000Z</time>
      </trkpt>
      <trkpt lat="43.38437" lon="5.44826">
        <ele>412.4</ele>
        <time>2021-05-16T09:38:39.000Z</time>
      </trkpt>
      <trkpt lat="43.3845" lon="5.44848">
        <ele>413.68</ele>
        <time>2021-05-16T09:38:45.000Z</time>
      </trkpt>
      <trkpt lat="43.38459" lon="5.44871">
        <ele>413.6</ele>
        <time>2021-05-16T09:38:50.000Z</time>
      </trkpt>
      <trkpt lat="43.3846" lon="5.44897">
        <ele>414.04</ele>
        <time>2021-05-16T09:38:55.000Z</time>
      </trkpt>
      <trkpt lat="43.38455" lon="5.44923">
        <ele>414.82</ele>
        <time>2021-05-16T09:39:00.000Z</time>
      </trkpt>
      <trkpt lat="43.38446" lon="5.44948">
        <ele>415.86</ele>
        <time>2021-05-16T09:39:05.000Z</time>
      </trkpt>
      <trkpt lat="43.38434" lon="5.44967">
        <ele>416.6</ele>
        <time>2021-05-16T09:39:08.000Z</time>
      </trkpt>
      <trkpt lat="43.38424" lon="5.44989">
        <ele>417.66</ele>
        <time>2021-05-16T09:39:12.000Z</time>
      </trkpt>
      <trkpt lat="43.3844" lon="5.45009">
        <ele>418.98</ele>
        <time>2021-05-16T09:39:19.000Z</time>
      </trkpt>
      <trkpt lat="43.38461" lon="5.45011">
        <ele>418.97</ele>
        <time>2021-05-16T09:39:23.000Z</time>
      </trkpt>
      <trkpt lat="43.38484" lon="5.45014">
        <ele>418.79</ele>
        <time>2021-05-16T09:39:27.000Z</time>
      </trkpt>
      <trkpt lat="43.38506" lon="5.45022">
        <ele>418.46</ele>
        <time>2021-05-16T09:39:31.000Z</time>
      </trkpt>
      <trkpt lat="43.38524" lon="5.45029">
        <ele>418.31</ele>
        <time>2021-05-16T09:39:34.000Z</time>
      </trkpt>
      <trkpt lat="43.38543" lon="5.45027">
        <ele>417.85</ele>
        <time>2021-05-16T09:39:37.000Z</time>
      </trkpt>
      <trkpt lat="43.38561" lon="5.45023">
        <ele>417.23</ele>
        <time>2021-05-16T09:39:40.000Z</time>
      </trkpt>
      <trkpt lat="43.38579" lon="5.45019">
        <ele>417</ele>
        <time>2021-05-16T09:39:43.000Z</time>
      </trkpt>
      <trkpt lat="43.38597" lon="5.45014">
        <ele>416.35</ele>
        <time>2021-05-16T09:39:46.000Z</time>
      </trkpt>
      <trkpt lat="43.38615" lon="5.45013">
        <ele>416.05</ele>
        <time>2021-05-16T09:39:49.000Z</time>
      </trkpt>
      <trkpt lat="43.38634" lon="5.45011">
        <ele>415.73</ele>
        <time>2021-05-16T09:39:52.000Z</time>
      </trkpt>
      <trkpt lat="43.38658" lon="5.45008">
        <ele>415.32</ele>
        <time>2021-05-16T09:39:56.000Z</time>
      </trkpt>
      <trkpt lat="43.38682" lon="5.45005">
        <ele>414.86</ele>
        <time>2021-05-16T09:40:00.000Z</time>
      </trkpt>
      <trkpt lat="43.38701" lon="5.45">
        <ele>414.34</ele>
        <time>2021-05-16T09:40:03.000Z</time>
      </trkpt>
      <trkpt lat="43.38719" lon="5.44995">
        <ele>414.08</ele>
        <time>2021-05-16T09:40:06.000Z</time>
      </trkpt>
      <trkpt lat="43.38736" lon="5.44987">
        <ele>413.37</ele>
        <time>2021-05-16T09:40:09.000Z</time>
      </trkpt>
      <trkpt lat="43.38754" lon="5.4498">
        <ele>412.75</ele>
        <time>2021-05-16T09:40:12.000Z</time>
      </trkpt>
      <trkpt lat="43.38771" lon="5.44971">
        <ele>412.63</ele>
        <time>2021-05-16T09:40:15.000Z</time>
      </trkpt>
      <trkpt lat="43.38792" lon="5.44955">
        <ele>411.96</ele>
        <time>2021-05-16T09:40:19.000Z</time>
      </trkpt>
      <trkpt lat="43.38814" lon="5.44947">
        <ele>411.27</ele>
        <time>2021-05-16T09:40:23.000Z</time>
      </trkpt>
      <trkpt lat="43.38831" lon="5.44935">
        <ele>410.61</ele>
        <time>2021-05-16T09:40:26.000Z</time>
      </trkpt>
      <trkpt lat="43.38848" lon="5.44914">
        <ele>410.03</ele>
        <time>2021-05-16T09:40:30.000Z</time>
      </trkpt>
      <trkpt lat="43.38855" lon="5.44886">
        <ele>409</ele>
        <time>2021-05-16T09:40:34.000Z</time>
      </trkpt>
      <trkpt lat="43.38874" lon="5.4488">
        <ele>408.83</ele>
        <time>2021-05-16T09:40:38.000Z</time>
      </trkpt>
      <trkpt lat="43.38892" lon="5.44879">
        <ele>409.1</ele>
        <time>2021-05-16T09:40:42.000Z</time>
      </trkpt>
      <trkpt lat="43.38911" lon="5.4487">
        <ele>408.46</ele>
        <time>2021-05-16T09:40:46.000Z</time>
      </trkpt>
      <trkpt lat="43.3893" lon="5.44856">
        <ele>407.78</ele>
        <time>2021-05-16T09:40:50.000Z</time>
      </trkpt>
      <trkpt lat="43.38951" lon="5.44851">
        <ele>407.04</ele>
        <time>2021-05-16T09:40:54.000Z</time>
      </trkpt>
      <trkpt lat="43.38972" lon="5.44843">
        <ele>406.81</ele>
        <time>2021-05-16T09:40:58.000Z</time>
      </trkpt>
      <trkpt lat="43.38992" lon="5.44832">
        <ele>406.19</ele>
        <time>2021-05-16T09:41:02.000Z</time>
      </trkpt>
      <trkpt lat="43.39012" lon="5.44823">
        <ele>406.24</ele>
        <time>2021-05-16T09:41:06.000Z</time>
      </trkpt>
      <trkpt lat="43.39026" lon="5.44804">
        <ele>405.67</ele>
        <time>2021-05-16T09:41:10.000Z</time>
      </trkpt>
      <trkpt lat="43.39044" lon="5.44811">
        <ele>405.4</ele>
        <time>2021-05-16T09:41:16.000Z</time>
      </trkpt>
      <trkpt lat="43.39066" lon="5.44816">
        <ele>404.79</ele>
        <time>2021-05-16T09:41:20.000Z</time>
      </trkpt>
      <trkpt lat="43.39084" lon="5.44816">
        <ele>404.48</ele>
        <time>2021-05-16T09:41:24.000Z</time>
      </trkpt>
      <trkpt lat="43.39104" lon="5.44819">
        <ele>405.46</ele>
        <time>2021-05-16T09:41:29.000Z</time>
      </trkpt>
      <trkpt lat="43.39123" lon="5.44822">
        <ele>407.45</ele>
        <time>2021-05-16T09:41:36.000Z</time>
      </trkpt>
      <trkpt lat="43.39141" lon="5.44822">
        <ele>408.59</ele>
        <time>2021-05-16T09:41:41.000Z</time>
      </trkpt>
      <trkpt lat="43.39141" lon="5.44846">
        <ele>408.56</ele>
        <time>2021-05-16T09:41:50.000Z</time>
      </trkpt>
      <trkpt lat="43.39119" lon="5.44853">
        <ele>408.72</ele>
        <time>2021-05-16T09:41:53.000Z</time>
      </trkpt>
      <trkpt lat="43.39102" lon="5.44864">
        <ele>410.1</ele>
        <time>2021-05-16T09:41:57.000Z</time>
      </trkpt>
      <trkpt lat="43.39082" lon="5.44878">
        <ele>411.26</ele>
        <time>2021-05-16T09:42:02.000Z</time>
      </trkpt>
      <trkpt lat="43.39068" lon="5.44895">
        <ele>413.58</ele>
        <time>2021-05-16T09:42:07.000Z</time>
      </trkpt>
      <trkpt lat="43.39056" lon="5.44914">
        <ele>415.53</ele>
        <time>2021-05-16T09:42:13.000Z</time>
      </trkpt>
      <trkpt lat="43.39045" lon="5.44937">
        <ele>418.18</ele>
        <time>2021-05-16T09:42:21.000Z</time>
      </trkpt>
      <trkpt lat="43.39034" lon="5.44958">
        <ele>422.1</ele>
        <time>2021-05-16T09:42:30.000Z</time>
      </trkpt>
      <trkpt lat="43.39025" lon="5.44981">
        <ele>425.49</ele>
        <time>2021-05-16T09:42:39.000Z</time>
      </trkpt>
      <trkpt lat="43.39015" lon="5.45005">
        <ele>428.63</ele>
        <time>2021-05-16T09:42:48.000Z</time>
      </trkpt>
      <trkpt lat="43.39007" lon="5.45028">
        <ele>432.13</ele>
        <time>2021-05-16T09:42:58.000Z</time>
      </trkpt>
      <trkpt lat="43.38996" lon="5.45049">
        <ele>433.98</ele>
        <time>2021-05-16T09:43:05.000Z</time>
      </trkpt>
      <trkpt lat="43.38983" lon="5.45066">
        <ele>436.09</ele>
        <time>2021-05-16T09:43:13.000Z</time>
      </trkpt>
      <trkpt lat="43.38974" lon="5.45089">
        <ele>438.28</ele>
        <time>2021-05-16T09:43:23.000Z</time>
      </trkpt>
      <trkpt lat="43.38979" lon="5.45115">
        <ele>441.26</ele>
        <time>2021-05-16T09:43:33.000Z</time>
      </trkpt>
      <trkpt lat="43.38995" lon="5.4513">
        <ele>444.77</ele>
        <time>2021-05-16T09:43:44.000Z</time>
      </trkpt>
      <trkpt lat="43.39009" lon="5.45146">
        <ele>447.58</ele>
        <time>2021-05-16T09:43:54.000Z</time>
      </trkpt>
      <trkpt lat="43.39025" lon="5.4516">
        <ele>450.1</ele>
        <time>2021-05-16T09:44:04.000Z</time>
      </trkpt>
      <trkpt lat="43.39043" lon="5.45171">
        <ele>452.89</ele>
        <time>2021-05-16T09:44:14.000Z</time>
      </trkpt>
      <trkpt lat="43.39059" lon="5.45182">
        <ele>455.99</ele>
        <time>2021-05-16T09:44:23.000Z</time>
      </trkpt>
      <trkpt lat="43.39078" lon="5.45189">
        <ele>459.2</ele>
        <time>2021-05-16T09:44:33.000Z</time>
      </trkpt>
      <trkpt lat="43.39097" lon="5.45193">
        <ele>461.55</ele>
        <time>2021-05-16T09:44:43.000Z</time>
      </trkpt>
      <trkpt lat="43.39115" lon="5.45199">
        <ele>464.26</ele>
        <time>2021-05-16T09:44:53.000Z</time>
      </trkpt>
      <trkpt lat="43.39134" lon="5.45207">
        <ele>466.9</ele>
        <time>2021-05-16T09:45:03.000Z</time>
      </trkpt>
      <trkpt lat="43.39152" lon="5.45213">
        <ele>469.7</ele>
        <time>2021-05-16T09:45:12.000Z</time>
      </trkpt>
      <trkpt lat="43.3917" lon="5.45219">
        <ele>473.06</ele>
        <time>2021-05-16T09:45:21.000Z</time>
      </trkpt>
      <trkpt lat="43.39187" lon="5.45225">
        <ele>476.01</ele>
        <time>2021-05-16T09:45:29.000Z</time>
      </trkpt>
      <trkpt lat="43.39207" lon="5.45232">
        <ele>478.47</ele>
        <time>2021-05-16T09:45:37.000Z</time>
      </trkpt>
      <trkpt lat="43.39227" lon="5.4524">
        <ele>481.77</ele>
        <time>2021-05-16T09:45:45.000Z</time>
      </trkpt>
      <trkpt lat="43.39243" lon="5.45255">
        <ele>482.96</ele>
        <time>2021-05-16T09:45:52.000Z</time>
      </trkpt>
      <trkpt lat="43.39244" lon="5.45282">
        <ele>484.44</ele>
        <time>2021-05-16T09:45:59.000Z</time>
      </trkpt>
      <trkpt lat="43.39234" lon="5.45304">
        <ele>487</ele>
        <time>2021-05-16T09:46:06.000Z</time>
      </trkpt>
      <trkpt lat="43.39223" lon="5.45327">
        <ele>489.37</ele>
        <time>2021-05-16T09:46:13.000Z</time>
      </trkpt>
      <trkpt lat="43.39215" lon="5.45351">
        <ele>491.67</ele>
        <time>2021-05-16T09:46:20.000Z</time>
      </trkpt>
      <trkpt lat="43.39207" lon="5.45373">
        <ele>494.09</ele>
        <time>2021-05-16T09:46:27.000Z</time>
      </trkpt>
      <trkpt lat="43.39201" lon="5.45399">
        <ele>497</ele>
        <time>2021-05-16T09:46:34.000Z</time>
      </trkpt>
      <trkpt lat="43.39194" lon="5.45423">
        <ele>499.57</ele>
        <time>2021-05-16T09:46:41.000Z</time>
      </trkpt>
      <trkpt lat="43.39185" lon="5.45447">
        <ele>501.86</ele>
        <time>2021-05-16T09:46:49.000Z</time>
      </trkpt>
      <trkpt lat="43.39177" lon="5.45469">
        <ele>504.38</ele>
        <time>2021-05-16T09:46:57.000Z</time>
      </trkpt>
      <trkpt lat="43.39166" lon="5.45491">
        <ele>507</ele>
        <time>2021-05-16T09:47:05.000Z</time>
      </trkpt>
      <trkpt lat="43.39154" lon="5.4551">
        <ele>509.5</ele>
        <time>2021-05-16T09:47:13.000Z</time>
      </trkpt>
      <trkpt lat="43.39142" lon="5.4553">
        <ele>511.91</ele>
        <time>2021-05-16T09:47:21.000Z</time>
      </trkpt>
      <trkpt lat="43.39131" lon="5.4555">
        <ele>514.92</ele>
        <time>2021-05-16T09:47:29.000Z</time>
      </trkpt>
      <trkpt lat="43.3912" lon="5.45572">
        <ele>517.55</ele>
        <time>2021-05-16T09:47:38.000Z</time>
      </trkpt>
      <trkpt lat="43.39136" lon="5.45581">
        <ele>518.99</ele>
        <time>2021-05-16T09:53:49.000Z</time>
      </trkpt>
      <trkpt lat="43.39155" lon="5.45575">
        <ele>517.84</ele>
        <time>2021-05-16T09:53:56.000Z</time>
      </trkpt>
      <trkpt lat="43.39176" lon="5.45577">
        <ele>515.79</ele>
        <time>2021-05-16T09:54:02.000Z</time>
      </trkpt>
      <trkpt lat="43.39196" lon="5.45576">
        <ele>513.31</ele>
        <time>2021-05-16T09:54:08.000Z</time>
      </trkpt>
      <trkpt lat="43.39216" lon="5.45575">
        <ele>512.37</ele>
        <time>2021-05-16T09:54:13.000Z</time>
      </trkpt>
      <trkpt lat="43.39234" lon="5.45574">
        <ele>511.21</ele>
        <time>2021-05-16T09:54:17.000Z</time>
      </trkpt>
      <trkpt lat="43.39255" lon="5.4557">
        <ele>510.24</ele>
        <time>2021-05-16T09:54:22.000Z</time>
      </trkpt>
      <trkpt lat="43.39273" lon="5.45568">
        <ele>510.1</ele>
        <time>2021-05-16T09:54:26.000Z</time>
      </trkpt>
      <trkpt lat="43.39291" lon="5.45566">
        <ele>509.77</ele>
        <time>2021-05-16T09:54:30.000Z</time>
      </trkpt>
      <trkpt lat="43.39312" lon="5.45565">
        <ele>509.26</ele>
        <time>2021-05-16T09:54:35.000Z</time>
      </trkpt>
      <trkpt lat="43.39333" lon="5.45562">
        <ele>508.83</ele>
        <time>2021-05-16T09:54:40.000Z</time>
      </trkpt>
      <trkpt lat="43.39355" lon="5.4556">
        <ele>508.58</ele>
        <time>2021-05-16T09:54:45.000Z</time>
      </trkpt>
      <trkpt lat="43.39373" lon="5.45558">
        <ele>508.29</ele>
        <time>2021-05-16T09:54:49.000Z</time>
      </trkpt>
      <trkpt lat="43.39395" lon="5.45558">
        <ele>507.73</ele>
        <time>2021-05-16T09:54:54.000Z</time>
      </trkpt>
      <trkpt lat="43.39416" lon="5.45556">
        <ele>507.52</ele>
        <time>2021-05-16T09:54:59.000Z</time>
      </trkpt>
      <trkpt lat="43.39434" lon="5.45557">
        <ele>507.35</ele>
        <time>2021-05-16T09:55:03.000Z</time>
      </trkpt>
      <trkpt lat="43.39456" lon="5.45561">
        <ele>507.36</ele>
        <time>2021-05-16T09:55:08.000Z</time>
      </trkpt>
      <trkpt lat="43.39473" lon="5.45575">
        <ele>506.65</ele>
        <time>2021-05-16T09:55:14.000Z</time>
      </trkpt>
      <trkpt lat="43.3946" lon="5.45597">
        <ele>506.78</ele>
        <time>2021-05-16T09:55:20.000Z</time>
      </trkpt>
      <trkpt lat="43.3944" lon="5.45608">
        <ele>506.33</ele>
        <time>2021-05-16T09:55:25.000Z</time>
      </trkpt>
      <trkpt lat="43.39425" lon="5.45623">
        <ele>506.26</ele>
        <time>2021-05-16T09:55:29.000Z</time>
      </trkpt>
      <trkpt lat="43.39408" lon="5.45637">
        <ele>505.95</ele>
        <time>2021-05-16T09:55:33.000Z</time>
      </trkpt>
      <trkpt lat="43.39392" lon="5.45655">
        <ele>504.97</ele>
        <time>2021-05-16T09:55:38.000Z</time>
      </trkpt>
      <trkpt lat="43.39375" lon="5.4567">
        <ele>504.65</ele>
        <time>2021-05-16T09:55:42.000Z</time>
      </trkpt>
      <trkpt lat="43.39357" lon="5.45689">
        <ele>503.92</ele>
        <time>2021-05-16T09:55:46.000Z</time>
      </trkpt>
      <trkpt lat="43.3934" lon="5.45707">
        <ele>502.85</ele>
        <time>2021-05-16T09:55:50.000Z</time>
      </trkpt>
      <trkpt lat="43.39321" lon="5.45723">
        <ele>502</ele>
        <time>2021-05-16T09:55:54.000Z</time>
      </trkpt>
      <trkpt lat="43.39303" lon="5.45738">
        <ele>501.24</ele>
        <time>2021-05-16T09:55:58.000Z</time>
      </trkpt>
      <trkpt lat="43.39285" lon="5.45752">
        <ele>499.7</ele>
        <time>2021-05-16T09:56:02.000Z</time>
      </trkpt>
      <trkpt lat="43.39269" lon="5.45768">
        <ele>497.99</ele>
        <time>2021-05-16T09:56:06.000Z</time>
      </trkpt>
      <trkpt lat="43.39254" lon="5.45792">
        <ele>496.93</ele>
        <time>2021-05-16T09:56:10.000Z</time>
      </trkpt>
      <trkpt lat="43.39245" lon="5.45822">
        <ele>496.24</ele>
        <time>2021-05-16T09:56:14.000Z</time>
      </trkpt>
      <trkpt lat="43.39246" lon="5.45853">
        <ele>495.95</ele>
        <time>2021-05-16T09:56:18.000Z</time>
      </trkpt>
      <trkpt lat="43.39255" lon="5.45875">
        <ele>496.59</ele>
        <time>2021-05-16T09:56:22.000Z</time>
      </trkpt>
      <trkpt lat="43.39269" lon="5.45895">
        <ele>496.82</ele>
        <time>2021-05-16T09:56:26.000Z</time>
      </trkpt>
      <trkpt lat="43.39285" lon="5.45908">
        <ele>496.75</ele>
        <time>2021-05-16T09:56:30.000Z</time>
      </trkpt>
      <trkpt lat="43.39301" lon="5.45923">
        <ele>496.4</ele>
        <time>2021-05-16T09:56:34.000Z</time>
      </trkpt>
      <trkpt lat="43.39316" lon="5.45939">
        <ele>496.84</ele>
        <time>2021-05-16T09:56:38.000Z</time>
      </trkpt>
      <trkpt lat="43.39331" lon="5.45962">
        <ele>497.86</ele>
        <time>2021-05-16T09:56:43.000Z</time>
      </trkpt>
      <trkpt lat="43.39325" lon="5.45986">
        <ele>498.11</ele>
        <time>2021-05-16T09:56:48.000Z</time>
      </trkpt>
      <trkpt lat="43.3931" lon="5.46003">
        <ele>498.12</ele>
        <time>2021-05-16T09:56:52.000Z</time>
      </trkpt>
      <trkpt lat="43.39294" lon="5.46017">
        <ele>498.03</ele>
        <time>2021-05-16T09:56:56.000Z</time>
      </trkpt>
      <trkpt lat="43.39277" lon="5.46029">
        <ele>498.03</ele>
        <time>2021-05-16T09:57:00.000Z</time>
      </trkpt>
      <trkpt lat="43.39259" lon="5.4604">
        <ele>498.17</ele>
        <time>2021-05-16T09:57:04.000Z</time>
      </trkpt>
      <trkpt lat="43.39242" lon="5.46051">
        <ele>498.44</ele>
        <time>2021-05-16T09:57:08.000Z</time>
      </trkpt>
      <trkpt lat="43.39224" lon="5.46064">
        <ele>498.78</ele>
        <time>2021-05-16T09:57:12.000Z</time>
      </trkpt>
      <trkpt lat="43.39212" lon="5.46085">
        <ele>498.72</ele>
        <time>2021-05-16T09:57:16.000Z</time>
      </trkpt>
      <trkpt lat="43.39207" lon="5.4611">
        <ele>499.46</ele>
        <time>2021-05-16T09:57:20.000Z</time>
      </trkpt>
      <trkpt lat="43.39203" lon="5.4614">
        <ele>500.17</ele>
        <time>2021-05-16T09:57:25.000Z</time>
      </trkpt>
      <trkpt lat="43.39199" lon="5.4617">
        <ele>500.66</ele>
        <time>2021-05-16T09:57:30.000Z</time>
      </trkpt>
      <trkpt lat="43.39197" lon="5.46195">
        <ele>501.04</ele>
        <time>2021-05-16T09:57:34.000Z</time>
      </trkpt>
      <trkpt lat="43.39205" lon="5.4622">
        <ele>500.76</ele>
        <time>2021-05-16T09:57:38.000Z</time>
      </trkpt>
      <trkpt lat="43.39222" lon="5.46237">
        <ele>500.54</ele>
        <time>2021-05-16T09:57:42.000Z</time>
      </trkpt>
      <trkpt lat="43.39241" lon="5.46255">
        <ele>499.96</ele>
        <time>2021-05-16T09:57:46.000Z</time>
      </trkpt>
      <trkpt lat="43.39261" lon="5.46272">
        <ele>499.38</ele>
        <time>2021-05-16T09:57:50.000Z</time>
      </trkpt>
      <trkpt lat="43.39279" lon="5.46291">
        <ele>499.35</ele>
        <time>2021-05-16T09:57:54.000Z</time>
      </trkpt>
      <trkpt lat="43.39289" lon="5.46311">
        <ele>500.08</ele>
        <time>2021-05-16T09:57:58.000Z</time>
      </trkpt>
      <trkpt lat="43.39283" lon="5.46339">
        <ele>499.45</ele>
        <time>2021-05-16T09:58:03.000Z</time>
      </trkpt>
      <trkpt lat="43.39268" lon="5.46362">
        <ele>498.59</ele>
        <time>2021-05-16T09:58:07.000Z</time>
      </trkpt>
      <trkpt lat="43.39254" lon="5.46388">
        <ele>496.81</ele>
        <time>2021-05-16T09:58:11.000Z</time>
      </trkpt>
      <trkpt lat="43.39239" lon="5.46405">
        <ele>495.36</ele>
        <time>2021-05-16T09:58:14.000Z</time>
      </trkpt>
      <trkpt lat="43.39226" lon="5.46425">
        <ele>493.41</ele>
        <time>2021-05-16T09:58:17.000Z</time>
      </trkpt>
      <trkpt lat="43.39215" lon="5.46445">
        <ele>491.64</ele>
        <time>2021-05-16T09:58:20.000Z</time>
      </trkpt>
      <trkpt lat="43.39206" lon="5.46468">
        <ele>490.32</ele>
        <time>2021-05-16T09:58:23.000Z</time>
      </trkpt>
      <trkpt lat="43.39203" lon="5.46492">
        <ele>488.36</ele>
        <time>2021-05-16T09:58:26.000Z</time>
      </trkpt>
      <trkpt lat="43.39199" lon="5.46524">
        <ele>486.57</ele>
        <time>2021-05-16T09:58:30.000Z</time>
      </trkpt>
      <trkpt lat="43.39188" lon="5.46546">
        <ele>485.14</ele>
        <time>2021-05-16T09:58:34.000Z</time>
      </trkpt>
      <trkpt lat="43.39169" lon="5.46554">
        <ele>483.57</ele>
        <time>2021-05-16T09:58:38.000Z</time>
      </trkpt>
      <trkpt lat="43.39145" lon="5.46552">
        <ele>481.09</ele>
        <time>2021-05-16T09:58:42.000Z</time>
      </trkpt>
      <trkpt lat="43.39125" lon="5.46548">
        <ele>479.07</ele>
        <time>2021-05-16T09:58:45.000Z</time>
      </trkpt>
      <trkpt lat="43.39107" lon="5.46543">
        <ele>477.26</ele>
        <time>2021-05-16T09:58:48.000Z</time>
      </trkpt>
      <trkpt lat="43.39089" lon="5.4654">
        <ele>475.13</ele>
        <time>2021-05-16T09:58:51.000Z</time>
      </trkpt>
      <trkpt lat="43.39066" lon="5.4654">
        <ele>473.39</ele>
        <time>2021-05-16T09:58:55.000Z</time>
      </trkpt>
      <trkpt lat="43.39051" lon="5.46555">
        <ele>470.06</ele>
        <time>2021-05-16T09:59:00.000Z</time>
      </trkpt>
      <trkpt lat="43.39056" lon="5.46584">
        <ele>467.42</ele>
        <time>2021-05-16T09:59:05.000Z</time>
      </trkpt>
      <trkpt lat="43.39064" lon="5.46611">
        <ele>465.57</ele>
        <time>2021-05-16T09:59:10.000Z</time>
      </trkpt>
      <trkpt lat="43.39074" lon="5.46638">
        <ele>462.94</ele>
        <time>2021-05-16T09:59:15.000Z</time>
      </trkpt>
      <trkpt lat="43.39075" lon="5.46663">
        <ele>459.67</ele>
        <time>2021-05-16T09:59:21.000Z</time>
      </trkpt>
      <trkpt lat="43.39064" lon="5.46642">
        <ele>459.06</ele>
        <time>2021-05-16T09:59:55.000Z</time>
      </trkpt>
      <trkpt lat="43.39049" lon="5.46624">
        <ele>457.98</ele>
        <time>2021-05-16T10:00:03.000Z</time>
      </trkpt>
      <trkpt lat="43.39035" lon="5.46606">
        <ele>456.84</ele>
        <time>2021-05-16T10:00:11.000Z</time>
      </trkpt>
      <trkpt lat="43.3902" lon="5.4659">
        <ele>455.6</ele>
        <time>2021-05-16T10:00:18.000Z</time>
      </trkpt>
      <trkpt lat="43.39005" lon="5.46572">
        <ele>453.76</ele>
        <time>2021-05-16T10:00:27.000Z</time>
      </trkpt>
      <trkpt lat="43.38989" lon="5.46556">
        <ele>451.44</ele>
        <time>2021-05-16T10:00:33.000Z</time>
      </trkpt>
      <trkpt lat="43.38974" lon="5.46537">
        <ele>448.41</ele>
        <time>2021-05-16T10:00:38.000Z</time>
      </trkpt>
      <trkpt lat="43.3896" lon="5.4652">
        <ele>445.98</ele>
        <time>2021-05-16T10:00:43.000Z</time>
      </trkpt>
      <trkpt lat="43.38955" lon="5.46493">
        <ele>443.84</ele>
        <time>2021-05-16T10:00:49.000Z</time>
      </trkpt>
      <trkpt lat="43.38972" lon="5.4648">
        <ele>443.06</ele>
        <time>2021-05-16T10:00:54.000Z</time>
      </trkpt>
      <trkpt lat="43.3899" lon="5.46474">
        <ele>441.72</ele>
        <time>2021-05-16T10:00:59.000Z</time>
      </trkpt>
      <trkpt lat="43.39009" lon="5.46462">
        <ele>440.08</ele>
        <time>2021-05-16T10:01:06.000Z</time>
      </trkpt>
      <trkpt lat="43.39026" lon="5.46448">
        <ele>439.02</ele>
        <time>2021-05-16T10:01:11.000Z</time>
      </trkpt>
      <trkpt lat="43.39043" lon="5.46438">
        <ele>438.93</ele>
        <time>2021-05-16T10:01:16.000Z</time>
      </trkpt>
      <trkpt lat="43.39061" lon="5.46432">
        <ele>439.32</ele>
        <time>2021-05-16T10:01:22.000Z</time>
      </trkpt>
      <trkpt lat="43.39079" lon="5.4643">
        <ele>439.37</ele>
        <time>2021-05-16T10:01:29.000Z</time>
      </trkpt>
      <trkpt lat="43.39096" lon="5.46421">
        <ele>438.35</ele>
        <time>2021-05-16T10:01:37.000Z</time>
      </trkpt>
      <trkpt lat="43.39094" lon="5.46394">
        <ele>437.2</ele>
        <time>2021-05-16T10:01:45.000Z</time>
      </trkpt>
      <trkpt lat="43.39078" lon="5.46384">
        <ele>436.53</ele>
        <time>2021-05-16T10:01:52.000Z</time>
      </trkpt>
      <trkpt lat="43.39059" lon="5.46388">
        <ele>435.63</ele>
        <time>2021-05-16T10:01:59.000Z</time>
      </trkpt>
      <trkpt lat="43.39041" lon="5.46383">
        <ele>433.72</ele>
        <time>2021-05-16T10:02:06.000Z</time>
      </trkpt>
      <trkpt lat="43.39023" lon="5.46373">
        <ele>430.46</ele>
        <time>2021-05-16T10:02:14.000Z</time>
      </trkpt>
      <trkpt lat="43.39006" lon="5.4636">
        <ele>427.78</ele>
        <time>2021-05-16T10:02:22.000Z</time>
      </trkpt>
      <trkpt lat="43.38993" lon="5.46341">
        <ele>426.08</ele>
        <time>2021-05-16T10:02:30.000Z</time>
      </trkpt>
      <trkpt lat="43.3899" lon="5.46314">
        <ele>424.02</ele>
        <time>2021-05-16T10:02:38.000Z</time>
      </trkpt>
      <trkpt lat="43.38992" lon="5.46287">
        <ele>421.91</ele>
        <time>2021-05-16T10:02:46.000Z</time>
      </trkpt>
      <trkpt lat="43.38998" lon="5.46262">
        <ele>419.87</ele>
        <time>2021-05-16T10:02:54.000Z</time>
      </trkpt>
      <trkpt lat="43.39002" lon="5.46236">
        <ele>417.72</ele>
        <time>2021-05-16T10:03:03.000Z</time>
      </trkpt>
      <trkpt lat="43.38986" lon="5.46253">
        <ele>416.14</ele>
        <time>2021-05-16T10:03:14.000Z</time>
      </trkpt>
      <trkpt lat="43.38981" lon="5.46278">
        <ele>415.66</ele>
        <time>2021-05-16T10:03:22.000Z</time>
      </trkpt>
      <trkpt lat="43.38968" lon="5.46299">
        <ele>413.44</ele>
        <time>2021-05-16T10:03:31.000Z</time>
      </trkpt>
      <trkpt lat="43.38955" lon="5.46319">
        <ele>412.14</ele>
        <time>2021-05-16T10:03:38.000Z</time>
      </trkpt>
      <trkpt lat="43.38944" lon="5.46339">
        <ele>410.17</ele>
        <time>2021-05-16T10:03:45.000Z</time>
      </trkpt>
      <trkpt lat="43.38932" lon="5.46358">
        <ele>408.55</ele>
        <time>2021-05-16T10:03:54.000Z</time>
      </trkpt>
      <trkpt lat="43.38914" lon="5.46361">
        <ele>407.01</ele>
        <time>2021-05-16T10:04:01.000Z</time>
      </trkpt>
      <trkpt lat="43.38899" lon="5.46347">
        <ele>406.9</ele>
        <time>2021-05-16T10:04:08.000Z</time>
      </trkpt>
      <trkpt lat="43.38879" lon="5.46352">
        <ele>406.74</ele>
        <time>2021-05-16T10:04:18.000Z</time>
      </trkpt>
      <trkpt lat="43.38863" lon="5.46362">
        <ele>406.93</ele>
        <time>2021-05-16T10:04:26.000Z</time>
      </trkpt>
      <trkpt lat="43.38845" lon="5.46377">
        <ele>406.67</ele>
        <time>2021-05-16T10:04:34.000Z</time>
      </trkpt>
      <trkpt lat="43.38829" lon="5.46391">
        <ele>406.15</ele>
        <time>2021-05-16T10:04:40.000Z</time>
      </trkpt>
      <trkpt lat="43.38813" lon="5.46406">
        <ele>405.76</ele>
        <time>2021-05-16T10:04:46.000Z</time>
      </trkpt>
      <trkpt lat="43.38792" lon="5.46406">
        <ele>405.71</ele>
        <time>2021-05-16T10:04:53.000Z</time>
      </trkpt>
      <trkpt lat="43.38776" lon="5.46421">
        <ele>405.86</ele>
        <time>2021-05-16T10:05:03.000Z</time>
      </trkpt>
      <trkpt lat="43.38769" lon="5.46444">
        <ele>406.79</ele>
        <time>2021-05-16T10:05:10.000Z</time>
      </trkpt>
      <trkpt lat="43.38755" lon="5.46464">
        <ele>409.45</ele>
        <time>2021-05-16T10:05:18.000Z</time>
      </trkpt>
      <trkpt lat="43.38735" lon="5.46465">
        <ele>411.5</ele>
        <time>2021-05-16T10:05:26.000Z</time>
      </trkpt>
      <trkpt lat="43.38719" lon="5.46476">
        <ele>413.77</ele>
        <time>2021-05-16T10:05:34.000Z</time>
      </trkpt>
      <trkpt lat="43.38704" lon="5.46492">
        <ele>413.01</ele>
        <time>2021-05-16T10:05:42.000Z</time>
      </trkpt>
      <trkpt lat="43.38688" lon="5.46504">
        <ele>410.94</ele>
        <time>2021-05-16T10:05:48.000Z</time>
      </trkpt>
      <trkpt lat="43.38671" lon="5.46515">
        <ele>411.33</ele>
        <time>2021-05-16T10:05:55.000Z</time>
      </trkpt>
      <trkpt lat="43.38654" lon="5.4653">
        <ele>411.5</ele>
        <time>2021-05-16T10:06:01.000Z</time>
      </trkpt>
      <trkpt lat="43.38637" lon="5.46538">
        <ele>410.45</ele>
        <time>2021-05-16T10:06:30.000Z</time>
      </trkpt>
      <trkpt lat="43.38625" lon="5.46559">
        <ele>409.2</ele>
        <time>2021-05-16T10:06:37.000Z</time>
      </trkpt>
      <trkpt lat="43.3861" lon="5.46579">
        <ele>407.12</ele>
        <time>2021-05-16T10:06:43.000Z</time>
      </trkpt>
      <trkpt lat="43.38594" lon="5.46595">
        <ele>406.88</ele>
        <time>2021-05-16T10:06:48.000Z</time>
      </trkpt>
      <trkpt lat="43.38575" lon="5.46605">
        <ele>408.17</ele>
        <time>2021-05-16T10:06:54.000Z</time>
      </trkpt>
      <trkpt lat="43.38556" lon="5.46617">
        <ele>408.63</ele>
        <time>2021-05-16T10:07:01.000Z</time>
      </trkpt>
      <trkpt lat="43.3854" lon="5.46635">
        <ele>407.17</ele>
        <time>2021-05-16T10:07:08.000Z</time>
      </trkpt>
      <trkpt lat="43.38525" lon="5.46654">
        <ele>404.76</ele>
        <time>2021-05-16T10:07:15.000Z</time>
      </trkpt>
      <trkpt lat="43.38512" lon="5.46675">
        <ele>402.61</ele>
        <time>2021-05-16T10:07:22.000Z</time>
      </trkpt>
      <trkpt lat="43.38495" lon="5.4669">
        <ele>400.54</ele>
        <time>2021-05-16T10:07:29.000Z</time>
      </trkpt>
      <trkpt lat="43.38478" lon="5.46707">
        <ele>398.97</ele>
        <time>2021-05-16T10:07:36.000Z</time>
      </trkpt>
      <trkpt lat="43.38459" lon="5.46714">
        <ele>396.29</ele>
        <time>2021-05-16T10:07:44.000Z</time>
      </trkpt>
      <trkpt lat="43.38439" lon="5.4672">
        <ele>393.67</ele>
        <time>2021-05-16T10:07:52.000Z</time>
      </trkpt>
      <trkpt lat="43.38421" lon="5.46729">
        <ele>390.1</ele>
        <time>2021-05-16T10:08:00.000Z</time>
      </trkpt>
      <trkpt lat="43.38401" lon="5.46739">
        <ele>388.19</ele>
        <time>2021-05-16T10:08:07.000Z</time>
      </trkpt>
      <trkpt lat="43.38383" lon="5.46735">
        <ele>387.94</ele>
        <time>2021-05-16T10:08:12.000Z</time>
      </trkpt>
      <trkpt lat="43.38365" lon="5.46726">
        <ele>388.51</ele>
        <time>2021-05-16T10:08:19.000Z</time>
      </trkpt>
      <trkpt lat="43.38347" lon="5.46726">
        <ele>388.21</ele>
        <time>2021-05-16T10:08:25.000Z</time>
      </trkpt>
      <trkpt lat="43.38328" lon="5.46729">
        <ele>387.17</ele>
        <time>2021-05-16T10:08:32.000Z</time>
      </trkpt>
      <trkpt lat="43.3831" lon="5.46728">
        <ele>385.79</ele>
        <time>2021-05-16T10:08:39.000Z</time>
      </trkpt>
      <trkpt lat="43.3829" lon="5.46721">
        <ele>384.52</ele>
        <time>2021-05-16T10:08:47.000Z</time>
      </trkpt>
      <trkpt lat="43.3827" lon="5.46714">
        <ele>383.67</ele>
        <time>2021-05-16T10:08:54.000Z</time>
      </trkpt>
      <trkpt lat="43.38252" lon="5.46707">
        <ele>383.03</ele>
        <time>2021-05-16T10:08:59.000Z</time>
      </trkpt>
      <trkpt lat="43.38232" lon="5.467">
        <ele>381.96</ele>
        <time>2021-05-16T10:09:05.000Z</time>
      </trkpt>
      <trkpt lat="43.38214" lon="5.46694">
        <ele>381.31</ele>
        <time>2021-05-16T10:09:11.000Z</time>
      </trkpt>
      <trkpt lat="43.38195" lon="5.46688">
        <ele>379.56</ele>
        <time>2021-05-16T10:09:18.000Z</time>
      </trkpt>
      <trkpt lat="43.38175" lon="5.46681">
        <ele>377.52</ele>
        <time>2021-05-16T10:09:26.000Z</time>
      </trkpt>
      <trkpt lat="43.38155" lon="5.46677">
        <ele>375.02</ele>
        <time>2021-05-16T10:09:33.000Z</time>
      </trkpt>
      <trkpt lat="43.38136" lon="5.46676">
        <ele>372.8</ele>
        <time>2021-05-16T10:09:39.000Z</time>
      </trkpt>
      <trkpt lat="43.38116" lon="5.46675">
        <ele>370.74</ele>
        <time>2021-05-16T10:09:46.000Z</time>
      </trkpt>
      <trkpt lat="43.38095" lon="5.46675">
        <ele>368.49</ele>
        <time>2021-05-16T10:09:53.000Z</time>
      </trkpt>
      <trkpt lat="43.38076" lon="5.46675">
        <ele>366.67</ele>
        <time>2021-05-16T10:10:00.000Z</time>
      </trkpt>
      <trkpt lat="43.38057" lon="5.46674">
        <ele>364.93</ele>
        <time>2021-05-16T10:10:07.000Z</time>
      </trkpt>
      <trkpt lat="43.38039" lon="5.46671">
        <ele>363.39</ele>
        <time>2021-05-16T10:10:15.000Z</time>
      </trkpt>
      <trkpt lat="43.38019" lon="5.46671">
        <ele>361.31</ele>
        <time>2021-05-16T10:10:23.000Z</time>
      </trkpt>
      <trkpt lat="43.37999" lon="5.46671">
        <ele>359.28</ele>
        <time>2021-05-16T10:10:31.000Z</time>
      </trkpt>
      <trkpt lat="43.37981" lon="5.46667">
        <ele>357.26</ele>
        <time>2021-05-16T10:10:39.000Z</time>
      </trkpt>
      <trkpt lat="43.37962" lon="5.46671">
        <ele>355.19</ele>
        <time>2021-05-16T10:10:47.000Z</time>
      </trkpt>
      <trkpt lat="43.37943" lon="5.46679">
        <ele>352.61</ele>
        <time>2021-05-16T10:10:57.000Z</time>
      </trkpt>
      <trkpt lat="43.37925" lon="5.46687">
        <ele>349.62</ele>
        <time>2021-05-16T10:11:08.000Z</time>
      </trkpt>
      <trkpt lat="43.37906" lon="5.46695">
        <ele>347.58</ele>
        <time>2021-05-16T10:11:17.000Z</time>
      </trkpt>
      <trkpt lat="43.37886" lon="5.467">
        <ele>345.03</ele>
        <time>2021-05-16T10:11:26.000Z</time>
      </trkpt>
      <trkpt lat="43.37867" lon="5.46696">
        <ele>342.31</ele>
        <time>2021-05-16T10:11:36.000Z</time>
      </trkpt>
      <trkpt lat="43.37847" lon="5.46692">
        <ele>339.55</ele>
        <time>2021-05-16T10:11:46.000Z</time>
      </trkpt>
      <trkpt lat="43.37829" lon="5.46686">
        <ele>337.38</ele>
        <time>2021-05-16T10:11:53.000Z</time>
      </trkpt>
      <trkpt lat="43.3781" lon="5.46682">
        <ele>335.62</ele>
        <time>2021-05-16T10:12:01.000Z</time>
      </trkpt>
      <trkpt lat="43.37791" lon="5.46679">
        <ele>333.83</ele>
        <time>2021-05-16T10:12:14.000Z</time>
      </trkpt>
      <trkpt lat="43.37772" lon="5.46673">
        <ele>331.86</ele>
        <time>2021-05-16T10:12:23.000Z</time>
      </trkpt>
      <trkpt lat="43.37755" lon="5.46665">
        <ele>330.08</ele>
        <time>2021-05-16T10:12:34.000Z</time>
      </trkpt>
      <trkpt lat="43.37736" lon="5.4666">
        <ele>328.04</ele>
        <time>2021-05-16T10:12:44.000Z</time>
      </trkpt>
      <trkpt lat="43.37717" lon="5.46655">
        <ele>326.43</ele>
        <time>2021-05-16T10:12:54.000Z</time>
      </trkpt>
      <trkpt lat="43.37698" lon="5.46648">
        <ele>324.16</ele>
        <time>2021-05-16T10:13:03.000Z</time>
      </trkpt>
      <trkpt lat="43.3768" lon="5.4664">
        <ele>322.74</ele>
        <time>2021-05-16T10:13:13.000Z</time>
      </trkpt>
      <trkpt lat="43.37663" lon="5.46628">
        <ele>321.12</ele>
        <time>2021-05-16T10:13:23.000Z</time>
      </trkpt>
      <trkpt lat="43.37645" lon="5.46619">
        <ele>320.14</ele>
        <time>2021-05-16T10:13:31.000Z</time>
      </trkpt>
      <trkpt lat="43.37626" lon="5.46614">
        <ele>318.86</ele>
        <time>2021-05-16T10:13:41.000Z</time>
      </trkpt>
      <trkpt lat="43.37608" lon="5.46611">
        <ele>316.11</ele>
        <time>2021-05-16T10:13:52.000Z</time>
      </trkpt>
      <trkpt lat="43.37588" lon="5.4661">
        <ele>313.12</ele>
        <time>2021-05-16T10:14:03.000Z</time>
      </trkpt>
      <trkpt lat="43.37569" lon="5.46607">
        <ele>311.44</ele>
        <time>2021-05-16T10:14:11.000Z</time>
      </trkpt>
      <trkpt lat="43.37551" lon="5.46597">
        <ele>310.09</ele>
        <time>2021-05-16T10:14:20.000Z</time>
      </trkpt>
      <trkpt lat="43.37532" lon="5.46589">
        <ele>309.02</ele>
        <time>2021-05-16T10:14:28.000Z</time>
      </trkpt>
      <trkpt lat="43.37514" lon="5.46588">
        <ele>308.29</ele>
        <time>2021-05-16T10:14:34.000Z</time>
      </trkpt>
      <trkpt lat="43.37495" lon="5.46592">
        <ele>306.86</ele>
        <time>2021-05-16T10:14:42.000Z</time>
      </trkpt>
      <trkpt lat="43.37475" lon="5.46595">
        <ele>304.95</ele>
        <time>2021-05-16T10:14:50.000Z</time>
      </trkpt>
      <trkpt lat="43.37457" lon="5.4659">
        <ele>303.45</ele>
        <time>2021-05-16T10:14:57.000Z</time>
      </trkpt>
      <trkpt lat="43.37439" lon="5.4658">
        <ele>301.55</ele>
        <time>2021-05-16T10:15:04.000Z</time>
      </trkpt>
      <trkpt lat="43.37421" lon="5.46571">
        <ele>299.92</ele>
        <time>2021-05-16T10:15:11.000Z</time>
      </trkpt>
      <trkpt lat="43.37401" lon="5.46564">
        <ele>298.14</ele>
        <time>2021-05-16T10:15:19.000Z</time>
      </trkpt>
      <trkpt lat="43.37385" lon="5.46547">
        <ele>296.3</ele>
        <time>2021-05-16T10:15:26.000Z</time>
      </trkpt>
      <trkpt lat="43.37365" lon="5.46548">
        <ele>295</ele>
        <time>2021-05-16T10:15:33.000Z</time>
      </trkpt>
      <trkpt lat="43.37346" lon="5.46552">
        <ele>292.73</ele>
        <time>2021-05-16T10:15:40.000Z</time>
      </trkpt>
      <trkpt lat="43.37326" lon="5.46546">
        <ele>291.27</ele>
        <time>2021-05-16T10:15:47.000Z</time>
      </trkpt>
      <trkpt lat="43.3731" lon="5.46532">
        <ele>289.17</ele>
        <time>2021-05-16T10:15:54.000Z</time>
      </trkpt>
      <trkpt lat="43.37313" lon="5.46506">
        <ele>288.12</ele>
        <time>2021-05-16T10:15:59.000Z</time>
      </trkpt>
      <trkpt lat="43.37312" lon="5.46477">
        <ele>286.76</ele>
        <time>2021-05-16T10:16:05.000Z</time>
      </trkpt>
      <trkpt lat="43.37308" lon="5.46448">
        <ele>284.67</ele>
        <time>2021-05-16T10:16:12.000Z</time>
      </trkpt>
      <trkpt lat="43.37297" lon="5.46425">
        <ele>283.26</ele>
        <time>2021-05-16T10:16:18.000Z</time>
      </trkpt>
      <trkpt lat="43.37283" lon="5.46403">
        <ele>282.04</ele>
        <time>2021-05-16T10:16:24.000Z</time>
      </trkpt>
      <trkpt lat="43.37267" lon="5.4639">
        <ele>280.47</ele>
        <time>2021-05-16T10:16:29.000Z</time>
      </trkpt>
      <trkpt lat="43.37249" lon="5.46382">
        <ele>278.71</ele>
        <time>2021-05-16T10:16:34.000Z</time>
      </trkpt>
      <trkpt lat="43.3723" lon="5.4638">
        <ele>277.79</ele>
        <time>2021-05-16T10:16:39.000Z</time>
      </trkpt>
      <trkpt lat="43.37213" lon="5.4637">
        <ele>276.49</ele>
        <time>2021-05-16T10:16:45.000Z</time>
      </trkpt>
      <trkpt lat="43.37194" lon="5.46359">
        <ele>274.56</ele>
        <time>2021-05-16T10:16:52.000Z</time>
      </trkpt>
      <trkpt lat="43.37178" lon="5.46346">
        <ele>273.25</ele>
        <time>2021-05-16T10:16:57.000Z</time>
      </trkpt>
      <trkpt lat="43.37164" lon="5.46326">
        <ele>272.35</ele>
        <time>2021-05-16T10:17:03.000Z</time>
      </trkpt>
      <trkpt lat="43.37145" lon="5.46317">
        <ele>269.88</ele>
        <time>2021-05-16T10:17:11.000Z</time>
      </trkpt>
      <trkpt lat="43.37126" lon="5.46316">
        <ele>267.56</ele>
        <time>2021-05-16T10:17:15.000Z</time>
      </trkpt>
      <trkpt lat="43.37109" lon="5.46303">
        <ele>265.42</ele>
        <time>2021-05-16T10:17:20.000Z</time>
      </trkpt>
      <trkpt lat="43.37091" lon="5.46286">
        <ele>263.64</ele>
        <time>2021-05-16T10:17:25.000Z</time>
      </trkpt>
      <trkpt lat="43.37073" lon="5.46272">
        <ele>261.52</ele>
        <time>2021-05-16T10:17:30.000Z</time>
      </trkpt>
      <trkpt lat="43.37057" lon="5.4626">
        <ele>259.32</ele>
        <time>2021-05-16T10:17:35.000Z</time>
      </trkpt>
      <trkpt lat="43.3704" lon="5.46243">
        <ele>256.41</ele>
        <time>2021-05-16T10:17:41.000Z</time>
      </trkpt>
      <trkpt lat="43.37028" lon="5.46221">
        <ele>254.44</ele>
        <time>2021-05-16T10:17:45.000Z</time>
      </trkpt>
      <trkpt lat="43.37008" lon="5.46221">
        <ele>252.35</ele>
        <time>2021-05-16T10:17:51.000Z</time>
      </trkpt>
      <trkpt lat="43.36999" lon="5.46196">
        <ele>250.7</ele>
        <time>2021-05-16T10:17:55.000Z</time>
      </trkpt>
      <trkpt lat="43.36991" lon="5.46165">
        <ele>249.38</ele>
        <time>2021-05-16T10:17:59.000Z</time>
      </trkpt>
      <trkpt lat="43.36986" lon="5.46141">
        <ele>248.3</ele>
        <time>2021-05-16T10:18:02.000Z</time>
      </trkpt>
      <trkpt lat="43.36976" lon="5.4612">
        <ele>247.31</ele>
        <time>2021-05-16T10:18:06.000Z</time>
      </trkpt>
      <trkpt lat="43.36956" lon="5.46132">
        <ele>244.4</ele>
        <time>2021-05-16T10:19:08.000Z</time>
      </trkpt>
      <trkpt lat="43.36941" lon="5.46154">
        <ele>243.78</ele>
        <time>2021-05-16T10:19:11.000Z</time>
      </trkpt>
      <trkpt lat="43.3693" lon="5.46175">
        <ele>243.98</ele>
        <time>2021-05-16T10:19:14.000Z</time>
      </trkpt>
      <trkpt lat="43.36912" lon="5.46188">
        <ele>242.51</ele>
        <time>2021-05-16T10:19:17.000Z</time>
      </trkpt>
      <trkpt lat="43.36891" lon="5.46193">
        <ele>241.1</ele>
        <time>2021-05-16T10:19:20.000Z</time>
      </trkpt>
      <trkpt lat="43.36873" lon="5.46204">
        <ele>240.7</ele>
        <time>2021-05-16T10:19:23.000Z</time>
      </trkpt>
      <trkpt lat="43.36852" lon="5.46192">
        <ele>239.89</ele>
        <time>2021-05-16T10:19:26.000Z</time>
      </trkpt>
      <trkpt lat="43.36837" lon="5.46174">
        <ele>238.45</ele>
        <time>2021-05-16T10:19:29.000Z</time>
      </trkpt>
      <trkpt lat="43.36819" lon="5.46168">
        <ele>237.22</ele>
        <time>2021-05-16T10:19:32.000Z</time>
      </trkpt>
      <trkpt lat="43.36796" lon="5.46175">
        <ele>235.83</ele>
        <time>2021-05-16T10:19:35.000Z</time>
      </trkpt>
      <trkpt lat="43.3678" lon="5.46165">
        <ele>234.03</ele>
        <time>2021-05-16T10:19:38.000Z</time>
      </trkpt>
      <trkpt lat="43.36766" lon="5.46142">
        <ele>233.47</ele>
        <time>2021-05-16T10:19:41.000Z</time>
      </trkpt>
      <trkpt lat="43.36747" lon="5.46135">
        <ele>232.19</ele>
        <time>2021-05-16T10:19:44.000Z</time>
      </trkpt>
      <trkpt lat="43.36726" lon="5.46148">
        <ele>230.76</ele>
        <time>2021-05-16T10:19:47.000Z</time>
      </trkpt>
      <trkpt lat="43.36705" lon="5.46145">
        <ele>229.25</ele>
        <time>2021-05-16T10:19:50.000Z</time>
      </trkpt>
      <trkpt lat="43.36684" lon="5.46136">
        <ele>227.83</ele>
        <time>2021-05-16T10:19:53.000Z</time>
      </trkpt>
      <trkpt lat="43.36666" lon="5.46134">
        <ele>225.98</ele>
        <time>2021-05-16T10:19:56.000Z</time>
      </trkpt>
      <trkpt lat="43.36645" lon="5.46138">
        <ele>223.71</ele>
        <time>2021-05-16T10:20:00.000Z</time>
      </trkpt>
      <trkpt lat="43.36626" lon="5.46138">
        <ele>220.86</ele>
        <time>2021-05-16T10:20:04.000Z</time>
      </trkpt>
      <trkpt lat="43.36606" lon="5.46145">
        <ele>218.96</ele>
        <time>2021-05-16T10:20:09.000Z</time>
      </trkpt>
      <trkpt lat="43.36582" lon="5.46149">
        <ele>217.02</ele>
        <time>2021-05-16T10:20:13.000Z</time>
      </trkpt>
      <trkpt lat="43.3656" lon="5.46146">
        <ele>216.27</ele>
        <time>2021-05-16T10:20:17.000Z</time>
      </trkpt>
      <trkpt lat="43.36542" lon="5.4614">
        <ele>217.33</ele>
        <time>2021-05-16T10:20:21.000Z</time>
      </trkpt>
      <trkpt lat="43.36523" lon="5.46143">
        <ele>216.82</ele>
        <time>2021-05-16T10:20:25.000Z</time>
      </trkpt>
      <trkpt lat="43.36504" lon="5.46146">
        <ele>216.54</ele>
        <time>2021-05-16T10:20:28.000Z</time>
      </trkpt>
      <trkpt lat="43.36485" lon="5.46146">
        <ele>214.7</ele>
        <time>2021-05-16T10:20:32.000Z</time>
      </trkpt>
      <trkpt lat="43.36489" lon="5.46176">
        <ele>213.35</ele>
        <time>2021-05-16T10:20:37.000Z</time>
      </trkpt>
      <trkpt lat="43.36498" lon="5.46204">
        <ele>212.29</ele>
        <time>2021-05-16T10:20:42.000Z</time>
      </trkpt>
      <trkpt lat="43.36493" lon="5.46228">
        <ele>209.76</ele>
        <time>2021-05-16T10:20:46.000Z</time>
      </trkpt>
      <trkpt lat="43.36489" lon="5.46253">
        <ele>208.31</ele>
        <time>2021-05-16T10:20:50.000Z</time>
      </trkpt>
      <trkpt lat="43.36467" lon="5.46265">
        <ele>206.9</ele>
        <time>2021-05-16T10:20:54.000Z</time>
      </trkpt>
      <trkpt lat="43.36446" lon="5.46264">
        <ele>206.23</ele>
        <time>2021-05-16T10:20:58.000Z</time>
      </trkpt>
      <trkpt lat="43.36428" lon="5.46256">
        <ele>205.48</ele>
        <time>2021-05-16T10:21:02.000Z</time>
      </trkpt>
      <trkpt lat="43.36408" lon="5.46238">
        <ele>203.46</ele>
        <time>2021-05-16T10:21:06.000Z</time>
      </trkpt>
      <trkpt lat="43.36384" lon="5.46244">
        <ele>201.15</ele>
        <time>2021-05-16T10:21:10.000Z</time>
      </trkpt>
      <trkpt lat="43.36368" lon="5.46256">
        <ele>200.26</ele>
        <time>2021-05-16T10:21:13.000Z</time>
      </trkpt>
      <trkpt lat="43.3635" lon="5.46266">
        <ele>199.11</ele>
        <time>2021-05-16T10:21:16.000Z</time>
      </trkpt>
      <trkpt lat="43.36333" lon="5.4628">
        <ele>198.74</ele>
        <time>2021-05-16T10:21:19.000Z</time>
      </trkpt>
      <trkpt lat="43.36317" lon="5.46296">
        <ele>197.47</ele>
        <time>2021-05-16T10:21:22.000Z</time>
      </trkpt>
      <trkpt lat="43.36299" lon="5.46319">
        <ele>197</ele>
        <time>2021-05-16T10:21:26.000Z</time>
      </trkpt>
      <trkpt lat="43.36282" lon="5.46338">
        <ele>196.61</ele>
        <time>2021-05-16T10:21:30.000Z</time>
      </trkpt>
      <trkpt lat="43.36265" lon="5.46358">
        <ele>194.3</ele>
        <time>2021-05-16T10:21:33.000Z</time>
      </trkpt>
      <trkpt lat="43.36253" lon="5.46378">
        <ele>193.34</ele>
        <time>2021-05-16T10:21:37.000Z</time>
      </trkpt>
      <trkpt lat="43.36229" lon="5.46383">
        <ele>192.19</ele>
        <time>2021-05-16T10:21:49.000Z</time>
      </trkpt>
      <trkpt lat="43.3621" lon="5.46379">
        <ele>191.16</ele>
        <time>2021-05-16T10:21:52.000Z</time>
      </trkpt>
      <trkpt lat="43.36191" lon="5.46377">
        <ele>190.55</ele>
        <time>2021-05-16T10:21:55.000Z</time>
      </trkpt>
      <trkpt lat="43.36171" lon="5.46376">
        <ele>189.66</ele>
        <time>2021-05-16T10:21:58.000Z</time>
      </trkpt>
      <trkpt lat="43.36153" lon="5.46377">
        <ele>188.74</ele>
        <time>2021-05-16T10:22:01.000Z</time>
      </trkpt>
      <trkpt lat="43.36134" lon="5.46378">
        <ele>188.24</ele>
        <time>2021-05-16T10:22:04.000Z</time>
      </trkpt>
      <trkpt lat="43.36113" lon="5.46373">
        <ele>187.31</ele>
        <time>2021-05-16T10:22:07.000Z</time>
      </trkpt>
      <trkpt lat="43.36092" lon="5.46367">
        <ele>186.33</ele>
        <time>2021-05-16T10:22:11.000Z</time>
      </trkpt>
      <trkpt lat="43.36081" lon="5.46341">
        <ele>184.78</ele>
        <time>2021-05-16T10:22:16.000Z</time>
      </trkpt>
      <trkpt lat="43.36068" lon="5.4632">
        <ele>183.62</ele>
        <time>2021-05-16T10:22:19.000Z</time>
      </trkpt>
      <trkpt lat="43.36053" lon="5.46298">
        <ele>183.26</ele>
        <time>2021-05-16T10:22:22.000Z</time>
      </trkpt>
      <trkpt lat="43.3604" lon="5.46274">
        <ele>182.05</ele>
        <time>2021-05-16T10:22:25.000Z</time>
      </trkpt>
      <trkpt lat="43.36025" lon="5.46251">
        <ele>181.42</ele>
        <time>2021-05-16T10:22:28.000Z</time>
      </trkpt>
      <trkpt lat="43.36005" lon="5.46227">
        <ele>180.4</ele>
        <time>2021-05-16T10:22:31.000Z</time>
      </trkpt>
      <trkpt lat="43.35995" lon="5.46203">
        <ele>179.78</ele>
        <time>2021-05-16T10:22:34.000Z</time>
      </trkpt>
      <trkpt lat="43.35981" lon="5.46175">
        <ele>178.8</ele>
        <time>2021-05-16T10:22:37.000Z</time>
      </trkpt>
      <trkpt lat="43.35971" lon="5.46141">
        <ele>178.52</ele>
        <time>2021-05-16T10:22:40.000Z</time>
      </trkpt>
      <trkpt lat="43.35956" lon="5.4612">
        <ele>178.12</ele>
        <time>2021-05-16T10:22:43.000Z</time>
      </trkpt>
      <trkpt lat="43.35941" lon="5.46096">
        <ele>177.16</ele>
        <time>2021-05-16T10:22:46.000Z</time>
      </trkpt>
      <trkpt lat="43.35923" lon="5.46074">
        <ele>176.47</ele>
        <time>2021-05-16T10:22:49.000Z</time>
      </trkpt>
      <trkpt lat="43.35915" lon="5.46051">
        <ele>175.46</ele>
        <time>2021-05-16T10:22:53.000Z</time>
      </trkpt>
      <trkpt lat="43.3593" lon="5.46027">
        <ele>176.23</ele>
        <time>2021-05-16T10:22:57.000Z</time>
      </trkpt>
      <trkpt lat="43.35948" lon="5.4601">
        <ele>178.26</ele>
        <time>2021-05-16T10:23:01.000Z</time>
      </trkpt>
      <trkpt lat="43.35951" lon="5.45984">
        <ele>181.28</ele>
        <time>2021-05-16T10:23:05.000Z</time>
      </trkpt>
      <trkpt lat="43.35942" lon="5.45959">
        <ele>182.58</ele>
        <time>2021-05-16T10:23:09.000Z</time>
      </trkpt>
      <trkpt lat="43.35929" lon="5.45932">
        <ele>182.24</ele>
        <time>2021-05-16T10:23:14.000Z</time>
      </trkpt>
      <trkpt lat="43.35907" lon="5.45922">
        <ele>181.75</ele>
        <time>2021-05-16T10:23:18.000Z</time>
      </trkpt>
      <trkpt lat="43.35887" lon="5.45906">
        <ele>180.87</ele>
        <time>2021-05-16T10:23:22.000Z</time>
      </trkpt>
      <trkpt lat="43.35875" lon="5.45886">
        <ele>180.42</ele>
        <time>2021-05-16T10:23:25.000Z</time>
      </trkpt>
      <trkpt lat="43.35864" lon="5.45867">
        <ele>180.1</ele>
        <time>2021-05-16T10:23:28.000Z</time>
      </trkpt>
      <trkpt lat="43.35848" lon="5.45845">
        <ele>179.91</ele>
        <time>2021-05-16T10:23:32.000Z</time>
      </trkpt>
      <trkpt lat="43.35847" lon="5.45816">
        <ele>179.57</ele>
        <time>2021-05-16T10:23:36.000Z</time>
      </trkpt>
      <trkpt lat="43.35839" lon="5.45791">
        <ele>178.95</ele>
        <time>2021-05-16T10:23:40.000Z</time>
      </trkpt>
      <trkpt lat="43.3583" lon="5.45767">
        <ele>178.27</ele>
        <time>2021-05-16T10:23:43.000Z</time>
      </trkpt>
      <trkpt lat="43.35816" lon="5.45742">
        <ele>177.29</ele>
        <time>2021-05-16T10:23:46.000Z</time>
      </trkpt>
      <trkpt lat="43.35802" lon="5.45715">
        <ele>176.42</ele>
        <time>2021-05-16T10:23:49.000Z</time>
      </trkpt>
      <trkpt lat="43.3579" lon="5.45688">
        <ele>175.56</ele>
        <time>2021-05-16T10:23:52.000Z</time>
      </trkpt>
      <trkpt lat="43.35784" lon="5.45657">
        <ele>175.19</ele>
        <time>2021-05-16T10:23:55.000Z</time>
      </trkpt>
      <trkpt lat="43.35775" lon="5.45631">
        <ele>174.96</ele>
        <time>2021-05-16T10:23:58.000Z</time>
      </trkpt>
      <trkpt lat="43.35763" lon="5.45607">
        <ele>175.1</ele>
        <time>2021-05-16T10:24:01.000Z</time>
      </trkpt>
      <trkpt lat="43.35751" lon="5.45588">
        <ele>175.43</ele>
        <time>2021-05-16T10:24:04.000Z</time>
      </trkpt>
      <trkpt lat="43.35739" lon="5.45567">
        <ele>174.69</ele>
        <time>2021-05-16T10:24:07.000Z</time>
      </trkpt>
      <trkpt lat="43.35725" lon="5.45545">
        <ele>173.79</ele>
        <time>2021-05-16T10:24:10.000Z</time>
      </trkpt>
      <trkpt lat="43.35711" lon="5.4552">
        <ele>172.68</ele>
        <time>2021-05-16T10:24:13.000Z</time>
      </trkpt>
      <trkpt lat="43.35696" lon="5.45491">
        <ele>171.35</ele>
        <time>2021-05-16T10:24:16.000Z</time>
      </trkpt>
      <trkpt lat="43.35683" lon="5.45459">
        <ele>169.43</ele>
        <time>2021-05-16T10:24:19.000Z</time>
      </trkpt>
      <trkpt lat="43.35674" lon="5.45436">
        <ele>168.47</ele>
        <time>2021-05-16T10:24:21.000Z</time>
      </trkpt>
      <trkpt lat="43.35663" lon="5.45416">
        <ele>167.57</ele>
        <time>2021-05-16T10:24:23.000Z</time>
      </trkpt>
      <trkpt lat="43.35655" lon="5.45392">
        <ele>167.4</ele>
        <time>2021-05-16T10:24:25.000Z</time>
      </trkpt>
      <trkpt lat="43.35644" lon="5.45363">
        <ele>166.85</ele>
        <time>2021-05-16T10:24:28.000Z</time>
      </trkpt>
      <trkpt lat="43.35631" lon="5.45335">
        <ele>166.71</ele>
        <time>2021-05-16T10:24:31.000Z</time>
      </trkpt>
      <trkpt lat="43.3562" lon="5.4531">
        <ele>166.17</ele>
        <time>2021-05-16T10:24:34.000Z</time>
      </trkpt>
      <trkpt lat="43.35608" lon="5.45286">
        <ele>165.74</ele>
        <time>2021-05-16T10:24:37.000Z</time>
      </trkpt>
      <trkpt lat="43.35592" lon="5.45262">
        <ele>164.93</ele>
        <time>2021-05-16T10:24:40.000Z</time>
      </trkpt>
      <trkpt lat="43.35578" lon="5.45242">
        <ele>164</ele>
        <time>2021-05-16T10:24:43.000Z</time>
      </trkpt>
      <trkpt lat="43.35574" lon="5.45218">
        <ele>163.07</ele>
        <time>2021-05-16T10:24:48.000Z</time>
      </trkpt>
      <trkpt lat="43.35578" lon="5.45186">
        <ele>163.3</ele>
        <time>2021-05-16T10:24:53.000Z</time>
      </trkpt>
      <trkpt lat="43.35575" lon="5.45154">
        <ele>163.2</ele>
        <time>2021-05-16T10:24:57.000Z</time>
      </trkpt>
      <trkpt lat="43.35559" lon="5.45131">
        <ele>162.71</ele>
        <time>2021-05-16T10:25:01.000Z</time>
      </trkpt>
      <trkpt lat="43.35541" lon="5.45114">
        <ele>162.21</ele>
        <time>2021-05-16T10:25:05.000Z</time>
      </trkpt>
      <trkpt lat="43.35526" lon="5.45093">
        <ele>162.24</ele>
        <time>2021-05-16T10:25:09.000Z</time>
      </trkpt>
      <trkpt lat="43.35512" lon="5.45077">
        <ele>161.75</ele>
        <time>2021-05-16T10:25:12.000Z</time>
      </trkpt>
      <trkpt lat="43.35498" lon="5.4506">
        <ele>161.25</ele>
        <time>2021-05-16T10:25:15.000Z</time>
      </trkpt>
      <trkpt lat="43.35481" lon="5.45042">
        <ele>160.72</ele>
        <time>2021-05-16T10:25:18.000Z</time>
      </trkpt>
      <trkpt lat="43.35464" lon="5.45024">
        <ele>160.27</ele>
        <time>2021-05-16T10:25:21.000Z</time>
      </trkpt>
      <trkpt lat="43.35448" lon="5.45005">
        <ele>159.7</ele>
        <time>2021-05-16T10:25:24.000Z</time>
      </trkpt>
      <trkpt lat="43.35432" lon="5.44983">
        <ele>159.21</ele>
        <time>2021-05-16T10:25:27.000Z</time>
      </trkpt>
      <trkpt lat="43.35414" lon="5.44964">
        <ele>158.12</ele>
        <time>2021-05-16T10:25:30.000Z</time>
      </trkpt>
      <trkpt lat="43.35398" lon="5.44941">
        <ele>157.07</ele>
        <time>2021-05-16T10:25:33.000Z</time>
      </trkpt>
      <trkpt lat="43.35387" lon="5.44908">
        <ele>155.07</ele>
        <time>2021-05-16T10:25:36.000Z</time>
      </trkpt>
      <trkpt lat="43.35376" lon="5.44876">
        <ele>154.19</ele>
        <time>2021-05-16T10:25:39.000Z</time>
      </trkpt>
      <trkpt lat="43.35359" lon="5.44849">
        <ele>154.38</ele>
        <time>2021-05-16T10:25:42.000Z</time>
      </trkpt>
      <trkpt lat="43.35348" lon="5.44825">
        <ele>155.04</ele>
        <time>2021-05-16T10:25:45.000Z</time>
      </trkpt>
      <trkpt lat="43.35344" lon="5.44799">
        <ele>156.43</ele>
        <time>2021-05-16T10:25:48.000Z</time>
      </trkpt>
      <trkpt lat="43.35335" lon="5.44775">
        <ele>157.14</ele>
        <time>2021-05-16T10:25:51.000Z</time>
      </trkpt>
      <trkpt lat="43.35325" lon="5.44745">
        <ele>156.77</ele>
        <time>2021-05-16T10:25:55.000Z</time>
      </trkpt>
      <trkpt lat="43.35315" lon="5.44715">
        <ele>156.22</ele>
        <time>2021-05-16T10:25:59.000Z</time>
      </trkpt>
      <trkpt lat="43.35303" lon="5.4469">
        <ele>155.76</ele>
        <time>2021-05-16T10:26:03.000Z</time>
      </trkpt>
      <trkpt lat="43.35294" lon="5.44668">
        <ele>155.11</ele>
        <time>2021-05-16T10:26:06.000Z</time>
      </trkpt>
      <trkpt lat="43.35285" lon="5.44643">
        <ele>154.37</ele>
        <time>2021-05-16T10:26:09.000Z</time>
      </trkpt>
      <trkpt lat="43.35271" lon="5.44619">
        <ele>153.6</ele>
        <time>2021-05-16T10:26:12.000Z</time>
      </trkpt>
      <trkpt lat="43.35258" lon="5.44594">
        <ele>152.59</ele>
        <time>2021-05-16T10:26:15.000Z</time>
      </trkpt>
      <trkpt lat="43.35248" lon="5.4457">
        <ele>151.56</ele>
        <time>2021-05-16T10:26:18.000Z</time>
      </trkpt>
      <trkpt lat="43.35249" lon="5.44544">
        <ele>150.68</ele>
        <time>2021-05-16T10:26:20.000Z</time>
      </trkpt>
      <trkpt lat="43.35248" lon="5.44518">
        <ele>150.34</ele>
        <time>2021-05-16T10:26:23.000Z</time>
      </trkpt>
      <trkpt lat="43.35242" lon="5.44486">
        <ele>148.74</ele>
        <time>2021-05-16T10:26:27.000Z</time>
      </trkpt>
      <trkpt lat="43.35236" lon="5.44461">
        <ele>147.87</ele>
        <time>2021-05-16T10:26:30.000Z</time>
      </trkpt>
      <trkpt lat="43.35226" lon="5.44435">
        <ele>146.86</ele>
        <time>2021-05-16T10:26:33.000Z</time>
      </trkpt>
      <trkpt lat="43.35208" lon="5.44433">
        <ele>145.6</ele>
        <time>2021-05-16T10:26:38.000Z</time>
      </trkpt>
      <trkpt lat="43.35189" lon="5.44444">
        <ele>144.93</ele>
        <time>2021-05-16T10:26:42.000Z</time>
      </trkpt>
      <trkpt lat="43.3517" lon="5.44454">
        <ele>144.71</ele>
        <time>2021-05-16T10:26:46.000Z</time>
      </trkpt>
      <trkpt lat="43.35156" lon="5.44436">
        <ele>142.48</ele>
        <time>2021-05-16T10:27:02.000Z</time>
      </trkpt>
    </trkseg>
  </trk>
</gpx>